<?xml version="1.0" encoding="UTF-8" standalone="no" ?>
<gpx xmlns="http://www.topografix.com/GPX/1/1" xmlns:xsi="http://www.w3.org/2001/XMLSchema-instance" xsi:schemaLocation="http://www.topografix.com/GPX/1/1 http://www.topografix.com/GPX/1/1/gpx.xsd" version="1.1" creator="VisuGPX - https://www.visugpx.com">
  <metadata>
    <name>Niort (La belle étoile) 9km</name>
    <desc><![CDATA[Noron.
Bords de Sèvre]]></desc>
  </metadata>
  <trk>
    <name><![CDATA[Niort (La belle étoile) 9km_1]]></name>
    <trkseg>
      <trkpt lat="46.33437" lon="-0.47798">
        <ele>92</ele>
        <time>2012-10-25T14:08:01Z</time>
      </trkpt>
      <trkpt lat="46.33437" lon="-0.47798">
        <ele>92</ele>
        <time>2012-10-25T14:08:06Z</time>
      </trkpt>
      <trkpt lat="46.33437" lon="-0.47799">
        <ele>92</ele>
        <time>2012-10-25T14:09:26Z</time>
      </trkpt>
      <trkpt lat="46.33437" lon="-0.47798">
        <ele>92</ele>
        <time>2012-10-25T14:09:31Z</time>
      </trkpt>
      <trkpt lat="46.33437" lon="-0.47799">
        <ele>92</ele>
        <time>2012-10-25T14:09:41Z</time>
      </trkpt>
      <trkpt lat="46.33437" lon="-0.47799">
        <ele>92</ele>
        <time>2012-10-25T14:09:56Z</time>
      </trkpt>
      <trkpt lat="46.33448" lon="-0.47811">
        <ele>74</ele>
        <time>2012-10-25T14:10:06Z</time>
      </trkpt>
      <trkpt lat="46.33454" lon="-0.47828">
        <ele>67</ele>
        <time>2012-10-25T14:10:11Z</time>
      </trkpt>
      <trkpt lat="46.33461" lon="-0.47844">
        <ele>70</ele>
        <time>2012-10-25T14:10:16Z</time>
      </trkpt>
      <trkpt lat="46.33462" lon="-0.47857">
        <ele>72</ele>
        <time>2012-10-25T14:10:21Z</time>
      </trkpt>
      <trkpt lat="46.33461" lon="-0.47863">
        <ele>72</ele>
        <time>2012-10-25T14:10:26Z</time>
      </trkpt>
      <trkpt lat="46.33462" lon="-0.47869">
        <ele>71</ele>
        <time>2012-10-25T14:10:31Z</time>
      </trkpt>
      <trkpt lat="46.33464" lon="-0.47888">
        <ele>68</ele>
        <time>2012-10-25T14:10:36Z</time>
      </trkpt>
      <trkpt lat="46.33461" lon="-0.47888">
        <ele>66</ele>
        <time>2012-10-25T14:10:41Z</time>
      </trkpt>
      <trkpt lat="46.33459" lon="-0.47891">
        <ele>63</ele>
        <time>2012-10-25T14:10:46Z</time>
      </trkpt>
      <trkpt lat="46.33461" lon="-0.47892">
        <ele>62</ele>
        <time>2012-10-25T14:10:51Z</time>
      </trkpt>
      <trkpt lat="46.33464" lon="-0.47897">
        <ele>63</ele>
        <time>2012-10-25T14:10:56Z</time>
      </trkpt>
      <trkpt lat="46.33469" lon="-0.47896">
        <ele>62</ele>
        <time>2012-10-25T14:11:01Z</time>
      </trkpt>
      <trkpt lat="46.3348" lon="-0.47899">
        <ele>63</ele>
        <time>2012-10-25T14:11:06Z</time>
      </trkpt>
      <trkpt lat="46.33485" lon="-0.47899">
        <ele>63</ele>
        <time>2012-10-25T14:11:11Z</time>
      </trkpt>
      <trkpt lat="46.33487" lon="-0.47907">
        <ele>64</ele>
        <time>2012-10-25T14:11:16Z</time>
      </trkpt>
      <trkpt lat="46.33491" lon="-0.47911">
        <ele>66</ele>
        <time>2012-10-25T14:11:21Z</time>
      </trkpt>
      <trkpt lat="46.33494" lon="-0.47918">
        <ele>66</ele>
        <time>2012-10-25T14:11:26Z</time>
      </trkpt>
      <trkpt lat="46.33494" lon="-0.47911">
        <ele>65</ele>
        <time>2012-10-25T14:11:31Z</time>
      </trkpt>
      <trkpt lat="46.33501" lon="-0.47912">
        <ele>62</ele>
        <time>2012-10-25T14:11:36Z</time>
      </trkpt>
      <trkpt lat="46.3351" lon="-0.47914">
        <ele>59</ele>
        <time>2012-10-25T14:11:41Z</time>
      </trkpt>
      <trkpt lat="46.33514" lon="-0.47914">
        <ele>56</ele>
        <time>2012-10-25T14:11:46Z</time>
      </trkpt>
      <trkpt lat="46.33517" lon="-0.47917">
        <ele>56</ele>
        <time>2012-10-25T14:11:51Z</time>
      </trkpt>
      <trkpt lat="46.33522" lon="-0.47922">
        <ele>57</ele>
        <time>2012-10-25T14:11:56Z</time>
      </trkpt>
      <trkpt lat="46.33528" lon="-0.47924">
        <ele>58</ele>
        <time>2012-10-25T14:12:01Z</time>
      </trkpt>
      <trkpt lat="46.33532" lon="-0.47927">
        <ele>61</ele>
        <time>2012-10-25T14:12:06Z</time>
      </trkpt>
      <trkpt lat="46.33536" lon="-0.47928">
        <ele>60</ele>
        <time>2012-10-25T14:12:11Z</time>
      </trkpt>
      <trkpt lat="46.33539" lon="-0.47929">
        <ele>61</ele>
        <time>2012-10-25T14:12:16Z</time>
      </trkpt>
      <trkpt lat="46.33546" lon="-0.47932">
        <ele>61</ele>
        <time>2012-10-25T14:12:21Z</time>
      </trkpt>
      <trkpt lat="46.33551" lon="-0.47934">
        <ele>62</ele>
        <time>2012-10-25T14:12:26Z</time>
      </trkpt>
      <trkpt lat="46.33556" lon="-0.47936">
        <ele>61</ele>
        <time>2012-10-25T14:12:31Z</time>
      </trkpt>
      <trkpt lat="46.33563" lon="-0.47938">
        <ele>61</ele>
        <time>2012-10-25T14:12:36Z</time>
      </trkpt>
      <trkpt lat="46.33567" lon="-0.47943">
        <ele>62</ele>
        <time>2012-10-25T14:12:41Z</time>
      </trkpt>
      <trkpt lat="46.33572" lon="-0.47946">
        <ele>61</ele>
        <time>2012-10-25T14:12:46Z</time>
      </trkpt>
      <trkpt lat="46.33577" lon="-0.47949">
        <ele>61</ele>
        <time>2012-10-25T14:12:51Z</time>
      </trkpt>
      <trkpt lat="46.33583" lon="-0.47954">
        <ele>62</ele>
        <time>2012-10-25T14:12:56Z</time>
      </trkpt>
      <trkpt lat="46.33585" lon="-0.47966">
        <ele>61</ele>
        <time>2012-10-25T14:13:01Z</time>
      </trkpt>
      <trkpt lat="46.3359" lon="-0.47968">
        <ele>59</ele>
        <time>2012-10-25T14:13:06Z</time>
      </trkpt>
      <trkpt lat="46.33592" lon="-0.47972">
        <ele>58</ele>
        <time>2012-10-25T14:13:11Z</time>
      </trkpt>
      <trkpt lat="46.33594" lon="-0.47979">
        <ele>59</ele>
        <time>2012-10-25T14:13:16Z</time>
      </trkpt>
      <trkpt lat="46.33599" lon="-0.47984">
        <ele>58</ele>
        <time>2012-10-25T14:13:21Z</time>
      </trkpt>
      <trkpt lat="46.33604" lon="-0.47994">
        <ele>59</ele>
        <time>2012-10-25T14:13:26Z</time>
      </trkpt>
      <trkpt lat="46.33607" lon="-0.48001">
        <ele>58</ele>
        <time>2012-10-25T14:13:31Z</time>
      </trkpt>
      <trkpt lat="46.33609" lon="-0.48006">
        <ele>57</ele>
        <time>2012-10-25T14:13:36Z</time>
      </trkpt>
      <trkpt lat="46.33612" lon="-0.48013">
        <ele>57</ele>
        <time>2012-10-25T14:13:41Z</time>
      </trkpt>
      <trkpt lat="46.33616" lon="-0.48017">
        <ele>56</ele>
        <time>2012-10-25T14:13:46Z</time>
      </trkpt>
      <trkpt lat="46.33615" lon="-0.48019">
        <ele>55</ele>
        <time>2012-10-25T14:13:51Z</time>
      </trkpt>
      <trkpt lat="46.33621" lon="-0.48028">
        <ele>55</ele>
        <time>2012-10-25T14:13:56Z</time>
      </trkpt>
      <trkpt lat="46.33623" lon="-0.48035">
        <ele>53</ele>
        <time>2012-10-25T14:14:01Z</time>
      </trkpt>
      <trkpt lat="46.33632" lon="-0.48036">
        <ele>47</ele>
        <time>2012-10-25T14:14:06Z</time>
      </trkpt>
      <trkpt lat="46.33632" lon="-0.48045">
        <ele>50</ele>
        <time>2012-10-25T14:14:11Z</time>
      </trkpt>
      <trkpt lat="46.33634" lon="-0.48056">
        <ele>51</ele>
        <time>2012-10-25T14:14:16Z</time>
      </trkpt>
      <trkpt lat="46.33636" lon="-0.48065">
        <ele>53</ele>
        <time>2012-10-25T14:14:21Z</time>
      </trkpt>
      <trkpt lat="46.33637" lon="-0.48074">
        <ele>54</ele>
        <time>2012-10-25T14:14:26Z</time>
      </trkpt>
      <trkpt lat="46.33638" lon="-0.48081">
        <ele>56</ele>
        <time>2012-10-25T14:14:31Z</time>
      </trkpt>
      <trkpt lat="46.33644" lon="-0.48087">
        <ele>56</ele>
        <time>2012-10-25T14:14:36Z</time>
      </trkpt>
      <trkpt lat="46.33648" lon="-0.48093">
        <ele>56</ele>
        <time>2012-10-25T14:14:41Z</time>
      </trkpt>
      <trkpt lat="46.3365" lon="-0.48099">
        <ele>55</ele>
        <time>2012-10-25T14:14:46Z</time>
      </trkpt>
      <trkpt lat="46.33653" lon="-0.48104">
        <ele>53</ele>
        <time>2012-10-25T14:14:51Z</time>
      </trkpt>
      <trkpt lat="46.33652" lon="-0.48121">
        <ele>60</ele>
        <time>2012-10-25T14:14:56Z</time>
      </trkpt>
      <trkpt lat="46.33655" lon="-0.48125">
        <ele>56</ele>
        <time>2012-10-25T14:15:01Z</time>
      </trkpt>
      <trkpt lat="46.33657" lon="-0.48131">
        <ele>54</ele>
        <time>2012-10-25T14:15:06Z</time>
      </trkpt>
      <trkpt lat="46.33659" lon="-0.48139">
        <ele>55</ele>
        <time>2012-10-25T14:15:11Z</time>
      </trkpt>
      <trkpt lat="46.33659" lon="-0.48143">
        <ele>56</ele>
        <time>2012-10-25T14:15:16Z</time>
      </trkpt>
      <trkpt lat="46.33659" lon="-0.48152">
        <ele>53</ele>
        <time>2012-10-25T14:15:21Z</time>
      </trkpt>
      <trkpt lat="46.3366" lon="-0.48162">
        <ele>55</ele>
        <time>2012-10-25T14:15:26Z</time>
      </trkpt>
      <trkpt lat="46.3366" lon="-0.48168">
        <ele>57</ele>
        <time>2012-10-25T14:15:31Z</time>
      </trkpt>
      <trkpt lat="46.33661" lon="-0.48172">
        <ele>59</ele>
        <time>2012-10-25T14:15:36Z</time>
      </trkpt>
      <trkpt lat="46.33661" lon="-0.48184">
        <ele>59</ele>
        <time>2012-10-25T14:15:41Z</time>
      </trkpt>
      <trkpt lat="46.3366" lon="-0.48187">
        <ele>59</ele>
        <time>2012-10-25T14:15:46Z</time>
      </trkpt>
      <trkpt lat="46.33661" lon="-0.48197">
        <ele>60</ele>
        <time>2012-10-25T14:15:51Z</time>
      </trkpt>
      <trkpt lat="46.33663" lon="-0.48207">
        <ele>59</ele>
        <time>2012-10-25T14:15:56Z</time>
      </trkpt>
      <trkpt lat="46.33661" lon="-0.48214">
        <ele>60</ele>
        <time>2012-10-25T14:16:01Z</time>
      </trkpt>
      <trkpt lat="46.33663" lon="-0.4822">
        <ele>62</ele>
        <time>2012-10-25T14:16:06Z</time>
      </trkpt>
      <trkpt lat="46.33663" lon="-0.48229">
        <ele>62</ele>
        <time>2012-10-25T14:16:11Z</time>
      </trkpt>
      <trkpt lat="46.33661" lon="-0.4824">
        <ele>61</ele>
        <time>2012-10-25T14:16:16Z</time>
      </trkpt>
      <trkpt lat="46.33659" lon="-0.48247">
        <ele>59</ele>
        <time>2012-10-25T14:16:21Z</time>
      </trkpt>
      <trkpt lat="46.33659" lon="-0.48262">
        <ele>61</ele>
        <time>2012-10-25T14:16:26Z</time>
      </trkpt>
      <trkpt lat="46.3366" lon="-0.48268">
        <ele>61</ele>
        <time>2012-10-25T14:16:31Z</time>
      </trkpt>
      <trkpt lat="46.33664" lon="-0.48275">
        <ele>61</ele>
        <time>2012-10-25T14:16:36Z</time>
      </trkpt>
      <trkpt lat="46.33665" lon="-0.48282">
        <ele>62</ele>
        <time>2012-10-25T14:16:41Z</time>
      </trkpt>
      <trkpt lat="46.33663" lon="-0.48292">
        <ele>63</ele>
        <time>2012-10-25T14:16:46Z</time>
      </trkpt>
      <trkpt lat="46.33662" lon="-0.48297">
        <ele>63</ele>
        <time>2012-10-25T14:16:51Z</time>
      </trkpt>
      <trkpt lat="46.33661" lon="-0.48302">
        <ele>64</ele>
        <time>2012-10-25T14:16:56Z</time>
      </trkpt>
      <trkpt lat="46.33662" lon="-0.48309">
        <ele>64</ele>
        <time>2012-10-25T14:17:01Z</time>
      </trkpt>
      <trkpt lat="46.33662" lon="-0.48316">
        <ele>66</ele>
        <time>2012-10-25T14:17:06Z</time>
      </trkpt>
      <trkpt lat="46.33662" lon="-0.48324">
        <ele>66</ele>
        <time>2012-10-25T14:17:11Z</time>
      </trkpt>
      <trkpt lat="46.33659" lon="-0.4833">
        <ele>67</ele>
        <time>2012-10-25T14:17:16Z</time>
      </trkpt>
      <trkpt lat="46.33659" lon="-0.48334">
        <ele>68</ele>
        <time>2012-10-25T14:17:21Z</time>
      </trkpt>
      <trkpt lat="46.33658" lon="-0.48344">
        <ele>68</ele>
        <time>2012-10-25T14:17:26Z</time>
      </trkpt>
      <trkpt lat="46.33659" lon="-0.48347">
        <ele>68</ele>
        <time>2012-10-25T14:17:31Z</time>
      </trkpt>
      <trkpt lat="46.33659" lon="-0.48359">
        <ele>66</ele>
        <time>2012-10-25T14:17:36Z</time>
      </trkpt>
      <trkpt lat="46.3366" lon="-0.48369">
        <ele>65</ele>
        <time>2012-10-25T14:17:41Z</time>
      </trkpt>
      <trkpt lat="46.33659" lon="-0.4838">
        <ele>66</ele>
        <time>2012-10-25T14:17:46Z</time>
      </trkpt>
      <trkpt lat="46.33658" lon="-0.4839">
        <ele>63</ele>
        <time>2012-10-25T14:17:51Z</time>
      </trkpt>
      <trkpt lat="46.33658" lon="-0.48393">
        <ele>62</ele>
        <time>2012-10-25T14:17:56Z</time>
      </trkpt>
      <trkpt lat="46.33658" lon="-0.48401">
        <ele>61</ele>
        <time>2012-10-25T14:18:01Z</time>
      </trkpt>
      <trkpt lat="46.33661" lon="-0.48409">
        <ele>60</ele>
        <time>2012-10-25T14:18:06Z</time>
      </trkpt>
      <trkpt lat="46.33659" lon="-0.48418">
        <ele>59</ele>
        <time>2012-10-25T14:18:11Z</time>
      </trkpt>
      <trkpt lat="46.33659" lon="-0.4842">
        <ele>59</ele>
        <time>2012-10-25T14:18:16Z</time>
      </trkpt>
      <trkpt lat="46.3366" lon="-0.4843">
        <ele>56</ele>
        <time>2012-10-25T14:18:21Z</time>
      </trkpt>
      <trkpt lat="46.33659" lon="-0.4844">
        <ele>55</ele>
        <time>2012-10-25T14:18:26Z</time>
      </trkpt>
      <trkpt lat="46.33658" lon="-0.48447">
        <ele>55</ele>
        <time>2012-10-25T14:18:31Z</time>
      </trkpt>
      <trkpt lat="46.33659" lon="-0.48457">
        <ele>53</ele>
        <time>2012-10-25T14:18:36Z</time>
      </trkpt>
      <trkpt lat="46.33657" lon="-0.48468">
        <ele>53</ele>
        <time>2012-10-25T14:18:41Z</time>
      </trkpt>
      <trkpt lat="46.33655" lon="-0.48477">
        <ele>55</ele>
        <time>2012-10-25T14:18:46Z</time>
      </trkpt>
      <trkpt lat="46.33656" lon="-0.48486">
        <ele>53</ele>
        <time>2012-10-25T14:18:51Z</time>
      </trkpt>
      <trkpt lat="46.33656" lon="-0.48493">
        <ele>52</ele>
        <time>2012-10-25T14:18:56Z</time>
      </trkpt>
      <trkpt lat="46.33654" lon="-0.48501">
        <ele>53</ele>
        <time>2012-10-25T14:19:01Z</time>
      </trkpt>
      <trkpt lat="46.33655" lon="-0.48511">
        <ele>52</ele>
        <time>2012-10-25T14:19:06Z</time>
      </trkpt>
      <trkpt lat="46.33653" lon="-0.48518">
        <ele>53</ele>
        <time>2012-10-25T14:19:11Z</time>
      </trkpt>
      <trkpt lat="46.33652" lon="-0.48528">
        <ele>55</ele>
        <time>2012-10-25T14:19:16Z</time>
      </trkpt>
      <trkpt lat="46.33649" lon="-0.48538">
        <ele>57</ele>
        <time>2012-10-25T14:19:21Z</time>
      </trkpt>
      <trkpt lat="46.33649" lon="-0.48544">
        <ele>57</ele>
        <time>2012-10-25T14:19:26Z</time>
      </trkpt>
      <trkpt lat="46.33648" lon="-0.48554">
        <ele>57</ele>
        <time>2012-10-25T14:19:31Z</time>
      </trkpt>
      <trkpt lat="46.33645" lon="-0.48564">
        <ele>59</ele>
        <time>2012-10-25T14:19:36Z</time>
      </trkpt>
      <trkpt lat="46.33645" lon="-0.48572">
        <ele>60</ele>
        <time>2012-10-25T14:19:41Z</time>
      </trkpt>
      <trkpt lat="46.33644" lon="-0.48577">
        <ele>59</ele>
        <time>2012-10-25T14:19:46Z</time>
      </trkpt>
      <trkpt lat="46.33643" lon="-0.48588">
        <ele>61</ele>
        <time>2012-10-25T14:19:51Z</time>
      </trkpt>
      <trkpt lat="46.33642" lon="-0.48597">
        <ele>62</ele>
        <time>2012-10-25T14:19:56Z</time>
      </trkpt>
      <trkpt lat="46.33641" lon="-0.48604">
        <ele>62</ele>
        <time>2012-10-25T14:20:01Z</time>
      </trkpt>
      <trkpt lat="46.33641" lon="-0.48611">
        <ele>61</ele>
        <time>2012-10-25T14:20:06Z</time>
      </trkpt>
      <trkpt lat="46.33638" lon="-0.48622">
        <ele>61</ele>
        <time>2012-10-25T14:20:11Z</time>
      </trkpt>
      <trkpt lat="46.33638" lon="-0.4863">
        <ele>61</ele>
        <time>2012-10-25T14:20:16Z</time>
      </trkpt>
      <trkpt lat="46.33639" lon="-0.48635">
        <ele>58</ele>
        <time>2012-10-25T14:20:21Z</time>
      </trkpt>
      <trkpt lat="46.33638" lon="-0.48644">
        <ele>58</ele>
        <time>2012-10-25T14:20:26Z</time>
      </trkpt>
      <trkpt lat="46.33638" lon="-0.48652">
        <ele>58</ele>
        <time>2012-10-25T14:20:31Z</time>
      </trkpt>
      <trkpt lat="46.33637" lon="-0.48661">
        <ele>59</ele>
        <time>2012-10-25T14:20:36Z</time>
      </trkpt>
      <trkpt lat="46.33635" lon="-0.4867">
        <ele>60</ele>
        <time>2012-10-25T14:20:41Z</time>
      </trkpt>
      <trkpt lat="46.33635" lon="-0.48679">
        <ele>61</ele>
        <time>2012-10-25T14:20:46Z</time>
      </trkpt>
      <trkpt lat="46.33635" lon="-0.48687">
        <ele>59</ele>
        <time>2012-10-25T14:20:51Z</time>
      </trkpt>
      <trkpt lat="46.33634" lon="-0.48694">
        <ele>59</ele>
        <time>2012-10-25T14:20:56Z</time>
      </trkpt>
      <trkpt lat="46.33634" lon="-0.487">
        <ele>59</ele>
        <time>2012-10-25T14:21:01Z</time>
      </trkpt>
      <trkpt lat="46.33632" lon="-0.48708">
        <ele>60</ele>
        <time>2012-10-25T14:21:06Z</time>
      </trkpt>
      <trkpt lat="46.33631" lon="-0.48713">
        <ele>62</ele>
        <time>2012-10-25T14:21:11Z</time>
      </trkpt>
      <trkpt lat="46.33629" lon="-0.48716">
        <ele>62</ele>
        <time>2012-10-25T14:21:16Z</time>
      </trkpt>
      <trkpt lat="46.33629" lon="-0.48723">
        <ele>62</ele>
        <time>2012-10-25T14:21:21Z</time>
      </trkpt>
      <trkpt lat="46.33627" lon="-0.48731">
        <ele>62</ele>
        <time>2012-10-25T14:21:26Z</time>
      </trkpt>
      <trkpt lat="46.33627" lon="-0.48742">
        <ele>60</ele>
        <time>2012-10-25T14:21:31Z</time>
      </trkpt>
      <trkpt lat="46.33624" lon="-0.48752">
        <ele>64</ele>
        <time>2012-10-25T14:21:36Z</time>
      </trkpt>
      <trkpt lat="46.33623" lon="-0.4876">
        <ele>64</ele>
        <time>2012-10-25T14:21:41Z</time>
      </trkpt>
      <trkpt lat="46.33623" lon="-0.48766">
        <ele>62</ele>
        <time>2012-10-25T14:21:46Z</time>
      </trkpt>
      <trkpt lat="46.33621" lon="-0.48775">
        <ele>63</ele>
        <time>2012-10-25T14:21:51Z</time>
      </trkpt>
      <trkpt lat="46.33619" lon="-0.48789">
        <ele>70</ele>
        <time>2012-10-25T14:21:56Z</time>
      </trkpt>
      <trkpt lat="46.33617" lon="-0.48796">
        <ele>68</ele>
        <time>2012-10-25T14:22:01Z</time>
      </trkpt>
      <trkpt lat="46.33617" lon="-0.48801">
        <ele>67</ele>
        <time>2012-10-25T14:22:06Z</time>
      </trkpt>
      <trkpt lat="46.33615" lon="-0.48807">
        <ele>67</ele>
        <time>2012-10-25T14:22:11Z</time>
      </trkpt>
      <trkpt lat="46.33614" lon="-0.48818">
        <ele>66</ele>
        <time>2012-10-25T14:22:16Z</time>
      </trkpt>
      <trkpt lat="46.33612" lon="-0.48826">
        <ele>67</ele>
        <time>2012-10-25T14:22:21Z</time>
      </trkpt>
      <trkpt lat="46.3361" lon="-0.48833">
        <ele>67</ele>
        <time>2012-10-25T14:22:26Z</time>
      </trkpt>
      <trkpt lat="46.33609" lon="-0.48841">
        <ele>65</ele>
        <time>2012-10-25T14:22:31Z</time>
      </trkpt>
      <trkpt lat="46.33608" lon="-0.48849">
        <ele>64</ele>
        <time>2012-10-25T14:22:36Z</time>
      </trkpt>
      <trkpt lat="46.33607" lon="-0.48859">
        <ele>64</ele>
        <time>2012-10-25T14:22:41Z</time>
      </trkpt>
      <trkpt lat="46.33606" lon="-0.48867">
        <ele>63</ele>
        <time>2012-10-25T14:22:46Z</time>
      </trkpt>
      <trkpt lat="46.33605" lon="-0.48873">
        <ele>64</ele>
        <time>2012-10-25T14:22:51Z</time>
      </trkpt>
      <trkpt lat="46.33604" lon="-0.48875">
        <ele>64</ele>
        <time>2012-10-25T14:22:56Z</time>
      </trkpt>
      <trkpt lat="46.33601" lon="-0.48884">
        <ele>64</ele>
        <time>2012-10-25T14:23:01Z</time>
      </trkpt>
      <trkpt lat="46.336" lon="-0.48895">
        <ele>64</ele>
        <time>2012-10-25T14:23:06Z</time>
      </trkpt>
      <trkpt lat="46.33597" lon="-0.48906">
        <ele>65</ele>
        <time>2012-10-25T14:23:11Z</time>
      </trkpt>
      <trkpt lat="46.33596" lon="-0.48911">
        <ele>63</ele>
        <time>2012-10-25T14:23:16Z</time>
      </trkpt>
      <trkpt lat="46.33594" lon="-0.48916">
        <ele>63</ele>
        <time>2012-10-25T14:23:21Z</time>
      </trkpt>
      <trkpt lat="46.33592" lon="-0.48923">
        <ele>67</ele>
        <time>2012-10-25T14:23:26Z</time>
      </trkpt>
      <trkpt lat="46.3359" lon="-0.4893">
        <ele>67</ele>
        <time>2012-10-25T14:23:31Z</time>
      </trkpt>
      <trkpt lat="46.33588" lon="-0.48932">
        <ele>66</ele>
        <time>2012-10-25T14:23:36Z</time>
      </trkpt>
      <trkpt lat="46.33587" lon="-0.48934">
        <ele>66</ele>
        <time>2012-10-25T14:23:41Z</time>
      </trkpt>
      <trkpt lat="46.33586" lon="-0.48937">
        <ele>66</ele>
        <time>2012-10-25T14:23:46Z</time>
      </trkpt>
      <trkpt lat="46.33585" lon="-0.48941">
        <ele>66</ele>
        <time>2012-10-25T14:23:51Z</time>
      </trkpt>
      <trkpt lat="46.3358" lon="-0.48956">
        <ele>66</ele>
        <time>2012-10-25T14:23:56Z</time>
      </trkpt>
      <trkpt lat="46.33577" lon="-0.48966">
        <ele>66</ele>
        <time>2012-10-25T14:24:01Z</time>
      </trkpt>
      <trkpt lat="46.33577" lon="-0.48986">
        <ele>59</ele>
        <time>2012-10-25T14:24:06Z</time>
      </trkpt>
      <trkpt lat="46.33573" lon="-0.48996">
        <ele>62</ele>
        <time>2012-10-25T14:24:11Z</time>
      </trkpt>
      <trkpt lat="46.33572" lon="-0.49004">
        <ele>64</ele>
        <time>2012-10-25T14:24:16Z</time>
      </trkpt>
      <trkpt lat="46.33572" lon="-0.49011">
        <ele>62</ele>
        <time>2012-10-25T14:24:21Z</time>
      </trkpt>
      <trkpt lat="46.3357" lon="-0.49019">
        <ele>62</ele>
        <time>2012-10-25T14:24:26Z</time>
      </trkpt>
      <trkpt lat="46.33569" lon="-0.49029">
        <ele>61</ele>
        <time>2012-10-25T14:24:31Z</time>
      </trkpt>
      <trkpt lat="46.33569" lon="-0.49036">
        <ele>59</ele>
        <time>2012-10-25T14:24:36Z</time>
      </trkpt>
      <trkpt lat="46.33566" lon="-0.49043">
        <ele>59</ele>
        <time>2012-10-25T14:24:41Z</time>
      </trkpt>
      <trkpt lat="46.33565" lon="-0.49048">
        <ele>60</ele>
        <time>2012-10-25T14:24:46Z</time>
      </trkpt>
      <trkpt lat="46.33563" lon="-0.49054">
        <ele>59</ele>
        <time>2012-10-25T14:24:51Z</time>
      </trkpt>
      <trkpt lat="46.33562" lon="-0.49064">
        <ele>59</ele>
        <time>2012-10-25T14:24:56Z</time>
      </trkpt>
      <trkpt lat="46.33562" lon="-0.4907">
        <ele>56</ele>
        <time>2012-10-25T14:25:01Z</time>
      </trkpt>
      <trkpt lat="46.33563" lon="-0.49077">
        <ele>57</ele>
        <time>2012-10-25T14:25:06Z</time>
      </trkpt>
      <trkpt lat="46.33561" lon="-0.49084">
        <ele>58</ele>
        <time>2012-10-25T14:25:11Z</time>
      </trkpt>
      <trkpt lat="46.3356" lon="-0.49094">
        <ele>58</ele>
        <time>2012-10-25T14:25:16Z</time>
      </trkpt>
      <trkpt lat="46.3356" lon="-0.49104">
        <ele>60</ele>
        <time>2012-10-25T14:25:21Z</time>
      </trkpt>
      <trkpt lat="46.33558" lon="-0.49115">
        <ele>61</ele>
        <time>2012-10-25T14:25:26Z</time>
      </trkpt>
      <trkpt lat="46.33556" lon="-0.49123">
        <ele>61</ele>
        <time>2012-10-25T14:25:31Z</time>
      </trkpt>
      <trkpt lat="46.33551" lon="-0.4913">
        <ele>63</ele>
        <time>2012-10-25T14:25:36Z</time>
      </trkpt>
      <trkpt lat="46.33547" lon="-0.49138">
        <ele>64</ele>
        <time>2012-10-25T14:25:41Z</time>
      </trkpt>
      <trkpt lat="46.33546" lon="-0.49144">
        <ele>64</ele>
        <time>2012-10-25T14:25:46Z</time>
      </trkpt>
      <trkpt lat="46.33546" lon="-0.49155">
        <ele>65</ele>
        <time>2012-10-25T14:25:51Z</time>
      </trkpt>
      <trkpt lat="46.33542" lon="-0.49158">
        <ele>66</ele>
        <time>2012-10-25T14:25:56Z</time>
      </trkpt>
      <trkpt lat="46.33539" lon="-0.49166">
        <ele>65</ele>
        <time>2012-10-25T14:26:01Z</time>
      </trkpt>
      <trkpt lat="46.33536" lon="-0.49171">
        <ele>64</ele>
        <time>2012-10-25T14:26:06Z</time>
      </trkpt>
      <trkpt lat="46.33534" lon="-0.4918">
        <ele>63</ele>
        <time>2012-10-25T14:26:11Z</time>
      </trkpt>
      <trkpt lat="46.33532" lon="-0.49185">
        <ele>62</ele>
        <time>2012-10-25T14:26:16Z</time>
      </trkpt>
      <trkpt lat="46.33528" lon="-0.49191">
        <ele>63</ele>
        <time>2012-10-25T14:26:21Z</time>
      </trkpt>
      <trkpt lat="46.33526" lon="-0.49197">
        <ele>65</ele>
        <time>2012-10-25T14:26:26Z</time>
      </trkpt>
      <trkpt lat="46.33523" lon="-0.49204">
        <ele>63</ele>
        <time>2012-10-25T14:26:31Z</time>
      </trkpt>
      <trkpt lat="46.33518" lon="-0.4921">
        <ele>65</ele>
        <time>2012-10-25T14:26:36Z</time>
      </trkpt>
      <trkpt lat="46.33513" lon="-0.49214">
        <ele>65</ele>
        <time>2012-10-25T14:26:41Z</time>
      </trkpt>
      <trkpt lat="46.33508" lon="-0.49219">
        <ele>64</ele>
        <time>2012-10-25T14:26:46Z</time>
      </trkpt>
      <trkpt lat="46.33502" lon="-0.49224">
        <ele>64</ele>
        <time>2012-10-25T14:26:51Z</time>
      </trkpt>
      <trkpt lat="46.335" lon="-0.4923">
        <ele>65</ele>
        <time>2012-10-25T14:26:56Z</time>
      </trkpt>
      <trkpt lat="46.33498" lon="-0.49234">
        <ele>64</ele>
        <time>2012-10-25T14:27:01Z</time>
      </trkpt>
      <trkpt lat="46.33493" lon="-0.49242">
        <ele>65</ele>
        <time>2012-10-25T14:27:06Z</time>
      </trkpt>
      <trkpt lat="46.3349" lon="-0.49249">
        <ele>65</ele>
        <time>2012-10-25T14:27:11Z</time>
      </trkpt>
      <trkpt lat="46.33489" lon="-0.49254">
        <ele>63</ele>
        <time>2012-10-25T14:27:16Z</time>
      </trkpt>
      <trkpt lat="46.33485" lon="-0.49261">
        <ele>62</ele>
        <time>2012-10-25T14:27:21Z</time>
      </trkpt>
      <trkpt lat="46.33479" lon="-0.49267">
        <ele>62</ele>
        <time>2012-10-25T14:27:26Z</time>
      </trkpt>
      <trkpt lat="46.33476" lon="-0.49271">
        <ele>61</ele>
        <time>2012-10-25T14:27:31Z</time>
      </trkpt>
      <trkpt lat="46.33474" lon="-0.49277">
        <ele>62</ele>
        <time>2012-10-25T14:27:36Z</time>
      </trkpt>
      <trkpt lat="46.33473" lon="-0.49281">
        <ele>63</ele>
        <time>2012-10-25T14:27:41Z</time>
      </trkpt>
      <trkpt lat="46.33472" lon="-0.49287">
        <ele>63</ele>
        <time>2012-10-25T14:27:46Z</time>
      </trkpt>
      <trkpt lat="46.33466" lon="-0.49297">
        <ele>64</ele>
        <time>2012-10-25T14:27:51Z</time>
      </trkpt>
      <trkpt lat="46.33461" lon="-0.49304">
        <ele>64</ele>
        <time>2012-10-25T14:27:56Z</time>
      </trkpt>
      <trkpt lat="46.33456" lon="-0.49315">
        <ele>63</ele>
        <time>2012-10-25T14:28:01Z</time>
      </trkpt>
      <trkpt lat="46.33452" lon="-0.49322">
        <ele>64</ele>
        <time>2012-10-25T14:28:06Z</time>
      </trkpt>
      <trkpt lat="46.3345" lon="-0.49327">
        <ele>64</ele>
        <time>2012-10-25T14:28:11Z</time>
      </trkpt>
      <trkpt lat="46.33446" lon="-0.49334">
        <ele>65</ele>
        <time>2012-10-25T14:28:16Z</time>
      </trkpt>
      <trkpt lat="46.33442" lon="-0.49334">
        <ele>66</ele>
        <time>2012-10-25T14:28:21Z</time>
      </trkpt>
      <trkpt lat="46.33438" lon="-0.49344">
        <ele>66</ele>
        <time>2012-10-25T14:28:26Z</time>
      </trkpt>
      <trkpt lat="46.33434" lon="-0.49348">
        <ele>68</ele>
        <time>2012-10-25T14:28:31Z</time>
      </trkpt>
      <trkpt lat="46.3343" lon="-0.49355">
        <ele>67</ele>
        <time>2012-10-25T14:28:36Z</time>
      </trkpt>
      <trkpt lat="46.33428" lon="-0.4936">
        <ele>67</ele>
        <time>2012-10-25T14:28:41Z</time>
      </trkpt>
      <trkpt lat="46.33423" lon="-0.49366">
        <ele>64</ele>
        <time>2012-10-25T14:28:46Z</time>
      </trkpt>
      <trkpt lat="46.33419" lon="-0.49369">
        <ele>64</ele>
        <time>2012-10-25T14:28:51Z</time>
      </trkpt>
      <trkpt lat="46.33416" lon="-0.49372">
        <ele>64</ele>
        <time>2012-10-25T14:28:56Z</time>
      </trkpt>
      <trkpt lat="46.33414" lon="-0.49376">
        <ele>64</ele>
        <time>2012-10-25T14:29:01Z</time>
      </trkpt>
      <trkpt lat="46.33406" lon="-0.49376">
        <ele>63</ele>
        <time>2012-10-25T14:29:06Z</time>
      </trkpt>
      <trkpt lat="46.33399" lon="-0.49381">
        <ele>65</ele>
        <time>2012-10-25T14:29:11Z</time>
      </trkpt>
      <trkpt lat="46.33396" lon="-0.49383">
        <ele>65</ele>
        <time>2012-10-25T14:29:16Z</time>
      </trkpt>
      <trkpt lat="46.33389" lon="-0.49384">
        <ele>65</ele>
        <time>2012-10-25T14:29:21Z</time>
      </trkpt>
      <trkpt lat="46.33385" lon="-0.49388">
        <ele>65</ele>
        <time>2012-10-25T14:29:26Z</time>
      </trkpt>
      <trkpt lat="46.33378" lon="-0.49388">
        <ele>66</ele>
        <time>2012-10-25T14:29:31Z</time>
      </trkpt>
      <trkpt lat="46.3337" lon="-0.49387">
        <ele>68</ele>
        <time>2012-10-25T14:29:36Z</time>
      </trkpt>
      <trkpt lat="46.33364" lon="-0.49388">
        <ele>69</ele>
        <time>2012-10-25T14:29:41Z</time>
      </trkpt>
      <trkpt lat="46.33356" lon="-0.49388">
        <ele>70</ele>
        <time>2012-10-25T14:29:46Z</time>
      </trkpt>
      <trkpt lat="46.33351" lon="-0.49393">
        <ele>68</ele>
        <time>2012-10-25T14:29:51Z</time>
      </trkpt>
      <trkpt lat="46.33346" lon="-0.49398">
        <ele>67</ele>
        <time>2012-10-25T14:29:56Z</time>
      </trkpt>
      <trkpt lat="46.33342" lon="-0.494">
        <ele>66</ele>
        <time>2012-10-25T14:30:01Z</time>
      </trkpt>
      <trkpt lat="46.33338" lon="-0.49402">
        <ele>64</ele>
        <time>2012-10-25T14:30:06Z</time>
      </trkpt>
      <trkpt lat="46.33335" lon="-0.49403">
        <ele>64</ele>
        <time>2012-10-25T14:30:11Z</time>
      </trkpt>
      <trkpt lat="46.33329" lon="-0.49407">
        <ele>64</ele>
        <time>2012-10-25T14:30:16Z</time>
      </trkpt>
      <trkpt lat="46.33324" lon="-0.4941">
        <ele>66</ele>
        <time>2012-10-25T14:30:21Z</time>
      </trkpt>
      <trkpt lat="46.33318" lon="-0.49412">
        <ele>66</ele>
        <time>2012-10-25T14:30:26Z</time>
      </trkpt>
      <trkpt lat="46.33312" lon="-0.49414">
        <ele>66</ele>
        <time>2012-10-25T14:30:31Z</time>
      </trkpt>
      <trkpt lat="46.33306" lon="-0.49413">
        <ele>67</ele>
        <time>2012-10-25T14:30:36Z</time>
      </trkpt>
      <trkpt lat="46.333" lon="-0.49415">
        <ele>67</ele>
        <time>2012-10-25T14:30:41Z</time>
      </trkpt>
      <trkpt lat="46.33295" lon="-0.49417">
        <ele>67</ele>
        <time>2012-10-25T14:30:46Z</time>
      </trkpt>
      <trkpt lat="46.33292" lon="-0.4942">
        <ele>63</ele>
        <time>2012-10-25T14:30:51Z</time>
      </trkpt>
      <trkpt lat="46.33285" lon="-0.49422">
        <ele>64</ele>
        <time>2012-10-25T14:30:56Z</time>
      </trkpt>
      <trkpt lat="46.33282" lon="-0.49424">
        <ele>62</ele>
        <time>2012-10-25T14:31:01Z</time>
      </trkpt>
      <trkpt lat="46.33277" lon="-0.49426">
        <ele>62</ele>
        <time>2012-10-25T14:31:06Z</time>
      </trkpt>
      <trkpt lat="46.3327" lon="-0.49425">
        <ele>63</ele>
        <time>2012-10-25T14:31:11Z</time>
      </trkpt>
      <trkpt lat="46.33259" lon="-0.49426">
        <ele>65</ele>
        <time>2012-10-25T14:31:16Z</time>
      </trkpt>
      <trkpt lat="46.33256" lon="-0.49424">
        <ele>65</ele>
        <time>2012-10-25T14:31:21Z</time>
      </trkpt>
      <trkpt lat="46.33252" lon="-0.49426">
        <ele>66</ele>
        <time>2012-10-25T14:31:26Z</time>
      </trkpt>
      <trkpt lat="46.33246" lon="-0.49427">
        <ele>66</ele>
        <time>2012-10-25T14:31:31Z</time>
      </trkpt>
      <trkpt lat="46.33239" lon="-0.49428">
        <ele>67</ele>
        <time>2012-10-25T14:31:36Z</time>
      </trkpt>
      <trkpt lat="46.33233" lon="-0.49428">
        <ele>67</ele>
        <time>2012-10-25T14:31:41Z</time>
      </trkpt>
      <trkpt lat="46.33225" lon="-0.49432">
        <ele>67</ele>
        <time>2012-10-25T14:31:46Z</time>
      </trkpt>
      <trkpt lat="46.3322" lon="-0.4943">
        <ele>66</ele>
        <time>2012-10-25T14:31:51Z</time>
      </trkpt>
      <trkpt lat="46.33215" lon="-0.4943">
        <ele>66</ele>
        <time>2012-10-25T14:31:56Z</time>
      </trkpt>
      <trkpt lat="46.33213" lon="-0.49432">
        <ele>62</ele>
        <time>2012-10-25T14:32:01Z</time>
      </trkpt>
      <trkpt lat="46.33209" lon="-0.49435">
        <ele>60</ele>
        <time>2012-10-25T14:32:06Z</time>
      </trkpt>
      <trkpt lat="46.33204" lon="-0.49437">
        <ele>61</ele>
        <time>2012-10-25T14:32:11Z</time>
      </trkpt>
      <trkpt lat="46.33199" lon="-0.4944">
        <ele>59</ele>
        <time>2012-10-25T14:32:16Z</time>
      </trkpt>
      <trkpt lat="46.33194" lon="-0.49441">
        <ele>60</ele>
        <time>2012-10-25T14:32:21Z</time>
      </trkpt>
      <trkpt lat="46.33187" lon="-0.4944">
        <ele>60</ele>
        <time>2012-10-25T14:32:26Z</time>
      </trkpt>
      <trkpt lat="46.3318" lon="-0.49441">
        <ele>63</ele>
        <time>2012-10-25T14:32:31Z</time>
      </trkpt>
      <trkpt lat="46.33178" lon="-0.49442">
        <ele>64</ele>
        <time>2012-10-25T14:32:36Z</time>
      </trkpt>
      <trkpt lat="46.33168" lon="-0.49442">
        <ele>65</ele>
        <time>2012-10-25T14:32:41Z</time>
      </trkpt>
      <trkpt lat="46.33164" lon="-0.49443">
        <ele>65</ele>
        <time>2012-10-25T14:32:46Z</time>
      </trkpt>
      <trkpt lat="46.33155" lon="-0.49441">
        <ele>66</ele>
        <time>2012-10-25T14:32:51Z</time>
      </trkpt>
      <trkpt lat="46.33149" lon="-0.49442">
        <ele>65</ele>
        <time>2012-10-25T14:32:56Z</time>
      </trkpt>
      <trkpt lat="46.33143" lon="-0.49444">
        <ele>66</ele>
        <time>2012-10-25T14:33:01Z</time>
      </trkpt>
      <trkpt lat="46.33136" lon="-0.49441">
        <ele>66</ele>
        <time>2012-10-25T14:33:06Z</time>
      </trkpt>
      <trkpt lat="46.33133" lon="-0.4944">
        <ele>67</ele>
        <time>2012-10-25T14:33:11Z</time>
      </trkpt>
      <trkpt lat="46.33128" lon="-0.49441">
        <ele>67</ele>
        <time>2012-10-25T14:33:16Z</time>
      </trkpt>
      <trkpt lat="46.33122" lon="-0.49438">
        <ele>67</ele>
        <time>2012-10-25T14:33:21Z</time>
      </trkpt>
      <trkpt lat="46.33114" lon="-0.49436">
        <ele>68</ele>
        <time>2012-10-25T14:33:26Z</time>
      </trkpt>
      <trkpt lat="46.3311" lon="-0.49438">
        <ele>66</ele>
        <time>2012-10-25T14:33:31Z</time>
      </trkpt>
      <trkpt lat="46.33105" lon="-0.49437">
        <ele>66</ele>
        <time>2012-10-25T14:33:36Z</time>
      </trkpt>
      <trkpt lat="46.33098" lon="-0.49435">
        <ele>66</ele>
        <time>2012-10-25T14:33:41Z</time>
      </trkpt>
      <trkpt lat="46.33094" lon="-0.49435">
        <ele>65</ele>
        <time>2012-10-25T14:33:46Z</time>
      </trkpt>
      <trkpt lat="46.33088" lon="-0.49435">
        <ele>65</ele>
        <time>2012-10-25T14:33:51Z</time>
      </trkpt>
      <trkpt lat="46.33081" lon="-0.49432">
        <ele>66</ele>
        <time>2012-10-25T14:33:56Z</time>
      </trkpt>
      <trkpt lat="46.33075" lon="-0.4943">
        <ele>67</ele>
        <time>2012-10-25T14:34:01Z</time>
      </trkpt>
      <trkpt lat="46.33068" lon="-0.49431">
        <ele>67</ele>
        <time>2012-10-25T14:34:06Z</time>
      </trkpt>
      <trkpt lat="46.33063" lon="-0.49428">
        <ele>67</ele>
        <time>2012-10-25T14:34:11Z</time>
      </trkpt>
      <trkpt lat="46.33059" lon="-0.49432">
        <ele>66</ele>
        <time>2012-10-25T14:34:16Z</time>
      </trkpt>
      <trkpt lat="46.33054" lon="-0.49432">
        <ele>66</ele>
        <time>2012-10-25T14:34:21Z</time>
      </trkpt>
      <trkpt lat="46.33048" lon="-0.4943">
        <ele>65</ele>
        <time>2012-10-25T14:34:26Z</time>
      </trkpt>
      <trkpt lat="46.33041" lon="-0.49431">
        <ele>65</ele>
        <time>2012-10-25T14:34:31Z</time>
      </trkpt>
      <trkpt lat="46.33039" lon="-0.49429">
        <ele>63</ele>
        <time>2012-10-25T14:34:36Z</time>
      </trkpt>
      <trkpt lat="46.33034" lon="-0.49429">
        <ele>59</ele>
        <time>2012-10-25T14:34:41Z</time>
      </trkpt>
      <trkpt lat="46.33027" lon="-0.49425">
        <ele>59</ele>
        <time>2012-10-25T14:34:46Z</time>
      </trkpt>
      <trkpt lat="46.33024" lon="-0.49425">
        <ele>60</ele>
        <time>2012-10-25T14:34:51Z</time>
      </trkpt>
      <trkpt lat="46.33016" lon="-0.49428">
        <ele>59</ele>
        <time>2012-10-25T14:34:56Z</time>
      </trkpt>
      <trkpt lat="46.3301" lon="-0.49428">
        <ele>58</ele>
        <time>2012-10-25T14:35:01Z</time>
      </trkpt>
      <trkpt lat="46.33005" lon="-0.49427">
        <ele>57</ele>
        <time>2012-10-25T14:35:06Z</time>
      </trkpt>
      <trkpt lat="46.33001" lon="-0.49426">
        <ele>59</ele>
        <time>2012-10-25T14:35:11Z</time>
      </trkpt>
      <trkpt lat="46.32997" lon="-0.49423">
        <ele>59</ele>
        <time>2012-10-25T14:35:16Z</time>
      </trkpt>
      <trkpt lat="46.32991" lon="-0.49423">
        <ele>60</ele>
        <time>2012-10-25T14:35:21Z</time>
      </trkpt>
      <trkpt lat="46.32984" lon="-0.49422">
        <ele>60</ele>
        <time>2012-10-25T14:35:26Z</time>
      </trkpt>
      <trkpt lat="46.3298" lon="-0.49419">
        <ele>61</ele>
        <time>2012-10-25T14:35:31Z</time>
      </trkpt>
      <trkpt lat="46.32976" lon="-0.49417">
        <ele>62</ele>
        <time>2012-10-25T14:35:36Z</time>
      </trkpt>
      <trkpt lat="46.32967" lon="-0.49418">
        <ele>62</ele>
        <time>2012-10-25T14:35:41Z</time>
      </trkpt>
      <trkpt lat="46.32964" lon="-0.49419">
        <ele>63</ele>
        <time>2012-10-25T14:35:46Z</time>
      </trkpt>
      <trkpt lat="46.32958" lon="-0.49417">
        <ele>62</ele>
        <time>2012-10-25T14:35:51Z</time>
      </trkpt>
      <trkpt lat="46.32951" lon="-0.49416">
        <ele>62</ele>
        <time>2012-10-25T14:35:56Z</time>
      </trkpt>
      <trkpt lat="46.32947" lon="-0.49411">
        <ele>62</ele>
        <time>2012-10-25T14:36:01Z</time>
      </trkpt>
      <trkpt lat="46.32942" lon="-0.49411">
        <ele>62</ele>
        <time>2012-10-25T14:36:06Z</time>
      </trkpt>
      <trkpt lat="46.32936" lon="-0.49408">
        <ele>61</ele>
        <time>2012-10-25T14:36:11Z</time>
      </trkpt>
      <trkpt lat="46.32928" lon="-0.49411">
        <ele>59</ele>
        <time>2012-10-25T14:36:16Z</time>
      </trkpt>
      <trkpt lat="46.32921" lon="-0.49412">
        <ele>60</ele>
        <time>2012-10-25T14:36:21Z</time>
      </trkpt>
      <trkpt lat="46.32918" lon="-0.49412">
        <ele>61</ele>
        <time>2012-10-25T14:36:26Z</time>
      </trkpt>
      <trkpt lat="46.32911" lon="-0.4941">
        <ele>61</ele>
        <time>2012-10-25T14:36:31Z</time>
      </trkpt>
      <trkpt lat="46.32905" lon="-0.49408">
        <ele>61</ele>
        <time>2012-10-25T14:36:36Z</time>
      </trkpt>
      <trkpt lat="46.32898" lon="-0.49404">
        <ele>61</ele>
        <time>2012-10-25T14:36:41Z</time>
      </trkpt>
      <trkpt lat="46.32893" lon="-0.49408">
        <ele>59</ele>
        <time>2012-10-25T14:36:46Z</time>
      </trkpt>
      <trkpt lat="46.32886" lon="-0.49405">
        <ele>60</ele>
        <time>2012-10-25T14:36:51Z</time>
      </trkpt>
      <trkpt lat="46.32882" lon="-0.49407">
        <ele>61</ele>
        <time>2012-10-25T14:36:56Z</time>
      </trkpt>
      <trkpt lat="46.32877" lon="-0.49405">
        <ele>63</ele>
        <time>2012-10-25T14:37:01Z</time>
      </trkpt>
      <trkpt lat="46.32872" lon="-0.49403">
        <ele>62</ele>
        <time>2012-10-25T14:37:06Z</time>
      </trkpt>
      <trkpt lat="46.32866" lon="-0.494">
        <ele>62</ele>
        <time>2012-10-25T14:37:11Z</time>
      </trkpt>
      <trkpt lat="46.32864" lon="-0.49397">
        <ele>61</ele>
        <time>2012-10-25T14:37:16Z</time>
      </trkpt>
      <trkpt lat="46.32861" lon="-0.49394">
        <ele>62</ele>
        <time>2012-10-25T14:37:21Z</time>
      </trkpt>
      <trkpt lat="46.32852" lon="-0.49396">
        <ele>62</ele>
        <time>2012-10-25T14:37:26Z</time>
      </trkpt>
      <trkpt lat="46.32846" lon="-0.4939">
        <ele>62</ele>
        <time>2012-10-25T14:37:31Z</time>
      </trkpt>
      <trkpt lat="46.32841" lon="-0.49391">
        <ele>63</ele>
        <time>2012-10-25T14:37:36Z</time>
      </trkpt>
      <trkpt lat="46.32836" lon="-0.4939">
        <ele>62</ele>
        <time>2012-10-25T14:37:41Z</time>
      </trkpt>
      <trkpt lat="46.32829" lon="-0.49392">
        <ele>62</ele>
        <time>2012-10-25T14:37:46Z</time>
      </trkpt>
      <trkpt lat="46.32822" lon="-0.49385">
        <ele>61</ele>
        <time>2012-10-25T14:37:51Z</time>
      </trkpt>
      <trkpt lat="46.32819" lon="-0.49388">
        <ele>62</ele>
        <time>2012-10-25T14:37:56Z</time>
      </trkpt>
      <trkpt lat="46.32815" lon="-0.49392">
        <ele>62</ele>
        <time>2012-10-25T14:38:01Z</time>
      </trkpt>
      <trkpt lat="46.32809" lon="-0.49391">
        <ele>61</ele>
        <time>2012-10-25T14:38:06Z</time>
      </trkpt>
      <trkpt lat="46.32806" lon="-0.49389">
        <ele>62</ele>
        <time>2012-10-25T14:38:11Z</time>
      </trkpt>
      <trkpt lat="46.32799" lon="-0.49386">
        <ele>63</ele>
        <time>2012-10-25T14:38:16Z</time>
      </trkpt>
      <trkpt lat="46.32792" lon="-0.49385">
        <ele>62</ele>
        <time>2012-10-25T14:38:21Z</time>
      </trkpt>
      <trkpt lat="46.32787" lon="-0.49386">
        <ele>60</ele>
        <time>2012-10-25T14:38:26Z</time>
      </trkpt>
      <trkpt lat="46.32783" lon="-0.49382">
        <ele>62</ele>
        <time>2012-10-25T14:38:31Z</time>
      </trkpt>
      <trkpt lat="46.32777" lon="-0.49381">
        <ele>61</ele>
        <time>2012-10-25T14:38:36Z</time>
      </trkpt>
      <trkpt lat="46.32774" lon="-0.49384">
        <ele>57</ele>
        <time>2012-10-25T14:38:41Z</time>
      </trkpt>
      <trkpt lat="46.32768" lon="-0.49382">
        <ele>58</ele>
        <time>2012-10-25T14:38:46Z</time>
      </trkpt>
      <trkpt lat="46.3276" lon="-0.49379">
        <ele>58</ele>
        <time>2012-10-25T14:38:51Z</time>
      </trkpt>
      <trkpt lat="46.32755" lon="-0.49385">
        <ele>59</ele>
        <time>2012-10-25T14:38:56Z</time>
      </trkpt>
      <trkpt lat="46.32751" lon="-0.49386">
        <ele>59</ele>
        <time>2012-10-25T14:39:01Z</time>
      </trkpt>
      <trkpt lat="46.32743" lon="-0.4938">
        <ele>59</ele>
        <time>2012-10-25T14:39:06Z</time>
      </trkpt>
      <trkpt lat="46.32737" lon="-0.49382">
        <ele>59</ele>
        <time>2012-10-25T14:39:11Z</time>
      </trkpt>
      <trkpt lat="46.32733" lon="-0.49381">
        <ele>60</ele>
        <time>2012-10-25T14:39:16Z</time>
      </trkpt>
      <trkpt lat="46.32726" lon="-0.49372">
        <ele>66</ele>
        <time>2012-10-25T14:39:21Z</time>
      </trkpt>
      <trkpt lat="46.32721" lon="-0.4937">
        <ele>67</ele>
        <time>2012-10-25T14:39:26Z</time>
      </trkpt>
      <trkpt lat="46.32716" lon="-0.49367">
        <ele>71</ele>
        <time>2012-10-25T14:39:31Z</time>
      </trkpt>
      <trkpt lat="46.32707" lon="-0.4937">
        <ele>69</ele>
        <time>2012-10-25T14:39:36Z</time>
      </trkpt>
      <trkpt lat="46.32702" lon="-0.49371">
        <ele>69</ele>
        <time>2012-10-25T14:39:41Z</time>
      </trkpt>
      <trkpt lat="46.32697" lon="-0.49371">
        <ele>68</ele>
        <time>2012-10-25T14:39:46Z</time>
      </trkpt>
      <trkpt lat="46.32691" lon="-0.49367">
        <ele>68</ele>
        <time>2012-10-25T14:39:51Z</time>
      </trkpt>
      <trkpt lat="46.32687" lon="-0.49367">
        <ele>66</ele>
        <time>2012-10-25T14:39:56Z</time>
      </trkpt>
      <trkpt lat="46.32678" lon="-0.49369">
        <ele>67</ele>
        <time>2012-10-25T14:40:01Z</time>
      </trkpt>
      <trkpt lat="46.32672" lon="-0.49365">
        <ele>66</ele>
        <time>2012-10-25T14:40:06Z</time>
      </trkpt>
      <trkpt lat="46.32671" lon="-0.49366">
        <ele>63</ele>
        <time>2012-10-25T14:40:11Z</time>
      </trkpt>
      <trkpt lat="46.32667" lon="-0.49368">
        <ele>63</ele>
        <time>2012-10-25T14:40:16Z</time>
      </trkpt>
      <trkpt lat="46.3266" lon="-0.49366">
        <ele>62</ele>
        <time>2012-10-25T14:40:21Z</time>
      </trkpt>
      <trkpt lat="46.32657" lon="-0.49362">
        <ele>62</ele>
        <time>2012-10-25T14:40:26Z</time>
      </trkpt>
      <trkpt lat="46.32649" lon="-0.49364">
        <ele>61</ele>
        <time>2012-10-25T14:40:31Z</time>
      </trkpt>
      <trkpt lat="46.32646" lon="-0.49359">
        <ele>60</ele>
        <time>2012-10-25T14:40:36Z</time>
      </trkpt>
      <trkpt lat="46.3264" lon="-0.49357">
        <ele>59</ele>
        <time>2012-10-25T14:40:41Z</time>
      </trkpt>
      <trkpt lat="46.32635" lon="-0.49356">
        <ele>59</ele>
        <time>2012-10-25T14:40:46Z</time>
      </trkpt>
      <trkpt lat="46.32631" lon="-0.49357">
        <ele>59</ele>
        <time>2012-10-25T14:40:51Z</time>
      </trkpt>
      <trkpt lat="46.32626" lon="-0.49355">
        <ele>58</ele>
        <time>2012-10-25T14:40:56Z</time>
      </trkpt>
      <trkpt lat="46.3262" lon="-0.49361">
        <ele>56</ele>
        <time>2012-10-25T14:41:01Z</time>
      </trkpt>
      <trkpt lat="46.32612" lon="-0.49364">
        <ele>56</ele>
        <time>2012-10-25T14:41:06Z</time>
      </trkpt>
      <trkpt lat="46.32606" lon="-0.49364">
        <ele>60</ele>
        <time>2012-10-25T14:41:11Z</time>
      </trkpt>
      <trkpt lat="46.32602" lon="-0.49368">
        <ele>60</ele>
        <time>2012-10-25T14:41:16Z</time>
      </trkpt>
      <trkpt lat="46.32598" lon="-0.49373">
        <ele>60</ele>
        <time>2012-10-25T14:41:21Z</time>
      </trkpt>
      <trkpt lat="46.32594" lon="-0.49377">
        <ele>59</ele>
        <time>2012-10-25T14:41:26Z</time>
      </trkpt>
      <trkpt lat="46.3259" lon="-0.49381">
        <ele>59</ele>
        <time>2012-10-25T14:41:31Z</time>
      </trkpt>
      <trkpt lat="46.32584" lon="-0.49386">
        <ele>61</ele>
        <time>2012-10-25T14:41:36Z</time>
      </trkpt>
      <trkpt lat="46.32579" lon="-0.4939">
        <ele>59</ele>
        <time>2012-10-25T14:41:41Z</time>
      </trkpt>
      <trkpt lat="46.32574" lon="-0.49393">
        <ele>60</ele>
        <time>2012-10-25T14:41:46Z</time>
      </trkpt>
      <trkpt lat="46.32568" lon="-0.49396">
        <ele>62</ele>
        <time>2012-10-25T14:41:51Z</time>
      </trkpt>
      <trkpt lat="46.32564" lon="-0.49398">
        <ele>62</ele>
        <time>2012-10-25T14:41:56Z</time>
      </trkpt>
      <trkpt lat="46.32555" lon="-0.494">
        <ele>67</ele>
        <time>2012-10-25T14:42:01Z</time>
      </trkpt>
      <trkpt lat="46.32549" lon="-0.49403">
        <ele>66</ele>
        <time>2012-10-25T14:42:06Z</time>
      </trkpt>
      <trkpt lat="46.32544" lon="-0.49404">
        <ele>67</ele>
        <time>2012-10-25T14:42:11Z</time>
      </trkpt>
      <trkpt lat="46.32539" lon="-0.49405">
        <ele>66</ele>
        <time>2012-10-25T14:42:16Z</time>
      </trkpt>
      <trkpt lat="46.32534" lon="-0.49409">
        <ele>66</ele>
        <time>2012-10-25T14:42:21Z</time>
      </trkpt>
      <trkpt lat="46.32529" lon="-0.49412">
        <ele>65</ele>
        <time>2012-10-25T14:42:26Z</time>
      </trkpt>
      <trkpt lat="46.32525" lon="-0.49412">
        <ele>63</ele>
        <time>2012-10-25T14:42:31Z</time>
      </trkpt>
      <trkpt lat="46.32519" lon="-0.49416">
        <ele>64</ele>
        <time>2012-10-25T14:42:36Z</time>
      </trkpt>
      <trkpt lat="46.32514" lon="-0.49419">
        <ele>65</ele>
        <time>2012-10-25T14:42:41Z</time>
      </trkpt>
      <trkpt lat="46.32509" lon="-0.49421">
        <ele>64</ele>
        <time>2012-10-25T14:42:46Z</time>
      </trkpt>
      <trkpt lat="46.32503" lon="-0.49424">
        <ele>65</ele>
        <time>2012-10-25T14:42:51Z</time>
      </trkpt>
      <trkpt lat="46.32497" lon="-0.49429">
        <ele>67</ele>
        <time>2012-10-25T14:42:56Z</time>
      </trkpt>
      <trkpt lat="46.32492" lon="-0.49433">
        <ele>66</ele>
        <time>2012-10-25T14:43:01Z</time>
      </trkpt>
      <trkpt lat="46.32487" lon="-0.49435">
        <ele>66</ele>
        <time>2012-10-25T14:43:06Z</time>
      </trkpt>
      <trkpt lat="46.32481" lon="-0.49437">
        <ele>67</ele>
        <time>2012-10-25T14:43:11Z</time>
      </trkpt>
      <trkpt lat="46.32476" lon="-0.49439">
        <ele>66</ele>
        <time>2012-10-25T14:43:16Z</time>
      </trkpt>
      <trkpt lat="46.32472" lon="-0.49442">
        <ele>66</ele>
        <time>2012-10-25T14:43:21Z</time>
      </trkpt>
      <trkpt lat="46.32467" lon="-0.49445">
        <ele>66</ele>
        <time>2012-10-25T14:43:26Z</time>
      </trkpt>
      <trkpt lat="46.32464" lon="-0.49449">
        <ele>66</ele>
        <time>2012-10-25T14:43:31Z</time>
      </trkpt>
      <trkpt lat="46.32459" lon="-0.49453">
        <ele>65</ele>
        <time>2012-10-25T14:43:36Z</time>
      </trkpt>
      <trkpt lat="46.32454" lon="-0.49453">
        <ele>64</ele>
        <time>2012-10-25T14:43:41Z</time>
      </trkpt>
      <trkpt lat="46.32449" lon="-0.49457">
        <ele>65</ele>
        <time>2012-10-25T14:43:46Z</time>
      </trkpt>
      <trkpt lat="46.32444" lon="-0.49459">
        <ele>64</ele>
        <time>2012-10-25T14:43:51Z</time>
      </trkpt>
      <trkpt lat="46.32439" lon="-0.49463">
        <ele>64</ele>
        <time>2012-10-25T14:43:56Z</time>
      </trkpt>
      <trkpt lat="46.32434" lon="-0.49468">
        <ele>64</ele>
        <time>2012-10-25T14:44:01Z</time>
      </trkpt>
      <trkpt lat="46.3243" lon="-0.49472">
        <ele>63</ele>
        <time>2012-10-25T14:44:06Z</time>
      </trkpt>
      <trkpt lat="46.32425" lon="-0.49475">
        <ele>63</ele>
        <time>2012-10-25T14:44:11Z</time>
      </trkpt>
      <trkpt lat="46.32422" lon="-0.4948">
        <ele>63</ele>
        <time>2012-10-25T14:44:16Z</time>
      </trkpt>
      <trkpt lat="46.32417" lon="-0.49484">
        <ele>63</ele>
        <time>2012-10-25T14:44:21Z</time>
      </trkpt>
      <trkpt lat="46.32414" lon="-0.49489">
        <ele>64</ele>
        <time>2012-10-25T14:44:26Z</time>
      </trkpt>
      <trkpt lat="46.3241" lon="-0.49493">
        <ele>64</ele>
        <time>2012-10-25T14:44:31Z</time>
      </trkpt>
      <trkpt lat="46.32407" lon="-0.49495">
        <ele>64</ele>
        <time>2012-10-25T14:44:36Z</time>
      </trkpt>
      <trkpt lat="46.32403" lon="-0.49496">
        <ele>65</ele>
        <time>2012-10-25T14:44:41Z</time>
      </trkpt>
      <trkpt lat="46.32399" lon="-0.495">
        <ele>63</ele>
        <time>2012-10-25T14:44:46Z</time>
      </trkpt>
      <trkpt lat="46.32394" lon="-0.49503">
        <ele>63</ele>
        <time>2012-10-25T14:44:51Z</time>
      </trkpt>
      <trkpt lat="46.3239" lon="-0.49508">
        <ele>61</ele>
        <time>2012-10-25T14:44:56Z</time>
      </trkpt>
      <trkpt lat="46.32385" lon="-0.4951">
        <ele>63</ele>
        <time>2012-10-25T14:45:01Z</time>
      </trkpt>
      <trkpt lat="46.32379" lon="-0.49514">
        <ele>62</ele>
        <time>2012-10-25T14:45:06Z</time>
      </trkpt>
      <trkpt lat="46.32373" lon="-0.49518">
        <ele>64</ele>
        <time>2012-10-25T14:45:11Z</time>
      </trkpt>
      <trkpt lat="46.3237" lon="-0.49521">
        <ele>64</ele>
        <time>2012-10-25T14:45:16Z</time>
      </trkpt>
      <trkpt lat="46.32366" lon="-0.49523">
        <ele>63</ele>
        <time>2012-10-25T14:45:21Z</time>
      </trkpt>
      <trkpt lat="46.32362" lon="-0.49526">
        <ele>63</ele>
        <time>2012-10-25T14:45:26Z</time>
      </trkpt>
      <trkpt lat="46.32356" lon="-0.49528">
        <ele>62</ele>
        <time>2012-10-25T14:45:31Z</time>
      </trkpt>
      <trkpt lat="46.32351" lon="-0.49529">
        <ele>62</ele>
        <time>2012-10-25T14:45:36Z</time>
      </trkpt>
      <trkpt lat="46.32349" lon="-0.49528">
        <ele>62</ele>
        <time>2012-10-25T14:45:41Z</time>
      </trkpt>
      <trkpt lat="46.32345" lon="-0.49528">
        <ele>63</ele>
        <time>2012-10-25T14:45:46Z</time>
      </trkpt>
      <trkpt lat="46.32339" lon="-0.49527">
        <ele>64</ele>
        <time>2012-10-25T14:45:51Z</time>
      </trkpt>
      <trkpt lat="46.32332" lon="-0.4953">
        <ele>64</ele>
        <time>2012-10-25T14:45:56Z</time>
      </trkpt>
      <trkpt lat="46.32325" lon="-0.49534">
        <ele>65</ele>
        <time>2012-10-25T14:46:01Z</time>
      </trkpt>
      <trkpt lat="46.32323" lon="-0.49539">
        <ele>64</ele>
        <time>2012-10-25T14:46:06Z</time>
      </trkpt>
      <trkpt lat="46.3232" lon="-0.49545">
        <ele>63</ele>
        <time>2012-10-25T14:46:11Z</time>
      </trkpt>
      <trkpt lat="46.32312" lon="-0.49553">
        <ele>63</ele>
        <time>2012-10-25T14:46:16Z</time>
      </trkpt>
      <trkpt lat="46.32305" lon="-0.49559">
        <ele>63</ele>
        <time>2012-10-25T14:46:21Z</time>
      </trkpt>
      <trkpt lat="46.32305" lon="-0.49563">
        <ele>62</ele>
        <time>2012-10-25T14:46:26Z</time>
      </trkpt>
      <trkpt lat="46.32296" lon="-0.49565">
        <ele>64</ele>
        <time>2012-10-25T14:46:31Z</time>
      </trkpt>
      <trkpt lat="46.32294" lon="-0.4957">
        <ele>63</ele>
        <time>2012-10-25T14:46:36Z</time>
      </trkpt>
      <trkpt lat="46.32288" lon="-0.49577">
        <ele>62</ele>
        <time>2012-10-25T14:46:41Z</time>
      </trkpt>
      <trkpt lat="46.32284" lon="-0.49582">
        <ele>61</ele>
        <time>2012-10-25T14:46:46Z</time>
      </trkpt>
      <trkpt lat="46.32282" lon="-0.49588">
        <ele>62</ele>
        <time>2012-10-25T14:46:51Z</time>
      </trkpt>
      <trkpt lat="46.32279" lon="-0.49595">
        <ele>62</ele>
        <time>2012-10-25T14:46:56Z</time>
      </trkpt>
      <trkpt lat="46.32274" lon="-0.49602">
        <ele>63</ele>
        <time>2012-10-25T14:47:01Z</time>
      </trkpt>
      <trkpt lat="46.32268" lon="-0.49609">
        <ele>65</ele>
        <time>2012-10-25T14:47:06Z</time>
      </trkpt>
      <trkpt lat="46.32259" lon="-0.49626">
        <ele>67</ele>
        <time>2012-10-25T14:47:11Z</time>
      </trkpt>
      <trkpt lat="46.32257" lon="-0.49628">
        <ele>67</ele>
        <time>2012-10-25T14:47:16Z</time>
      </trkpt>
      <trkpt lat="46.32258" lon="-0.49632">
        <ele>66</ele>
        <time>2012-10-25T14:47:21Z</time>
      </trkpt>
      <trkpt lat="46.3226" lon="-0.4964">
        <ele>67</ele>
        <time>2012-10-25T14:47:26Z</time>
      </trkpt>
      <trkpt lat="46.32264" lon="-0.49643">
        <ele>65</ele>
        <time>2012-10-25T14:47:31Z</time>
      </trkpt>
      <trkpt lat="46.32267" lon="-0.49648">
        <ele>64</ele>
        <time>2012-10-25T14:47:36Z</time>
      </trkpt>
      <trkpt lat="46.32274" lon="-0.49647">
        <ele>62</ele>
        <time>2012-10-25T14:47:41Z</time>
      </trkpt>
      <trkpt lat="46.3228" lon="-0.49647">
        <ele>62</ele>
        <time>2012-10-25T14:47:46Z</time>
      </trkpt>
      <trkpt lat="46.32283" lon="-0.49647">
        <ele>63</ele>
        <time>2012-10-25T14:47:51Z</time>
      </trkpt>
      <trkpt lat="46.32288" lon="-0.49645">
        <ele>63</ele>
        <time>2012-10-25T14:47:56Z</time>
      </trkpt>
      <trkpt lat="46.32292" lon="-0.49643">
        <ele>62</ele>
        <time>2012-10-25T14:48:01Z</time>
      </trkpt>
      <trkpt lat="46.32297" lon="-0.49639">
        <ele>63</ele>
        <time>2012-10-25T14:48:06Z</time>
      </trkpt>
      <trkpt lat="46.323" lon="-0.49637">
        <ele>63</ele>
        <time>2012-10-25T14:48:11Z</time>
      </trkpt>
      <trkpt lat="46.32304" lon="-0.49643">
        <ele>63</ele>
        <time>2012-10-25T14:48:16Z</time>
      </trkpt>
      <trkpt lat="46.32307" lon="-0.49646">
        <ele>62</ele>
        <time>2012-10-25T14:48:21Z</time>
      </trkpt>
      <trkpt lat="46.32311" lon="-0.49649">
        <ele>61</ele>
        <time>2012-10-25T14:48:26Z</time>
      </trkpt>
      <trkpt lat="46.32309" lon="-0.49662">
        <ele>64</ele>
        <time>2012-10-25T14:48:31Z</time>
      </trkpt>
      <trkpt lat="46.32308" lon="-0.49671">
        <ele>65</ele>
        <time>2012-10-25T14:48:36Z</time>
      </trkpt>
      <trkpt lat="46.32308" lon="-0.4968">
        <ele>66</ele>
        <time>2012-10-25T14:48:41Z</time>
      </trkpt>
      <trkpt lat="46.32307" lon="-0.49688">
        <ele>67</ele>
        <time>2012-10-25T14:48:46Z</time>
      </trkpt>
      <trkpt lat="46.32307" lon="-0.49696">
        <ele>66</ele>
        <time>2012-10-25T14:48:51Z</time>
      </trkpt>
      <trkpt lat="46.32306" lon="-0.49701">
        <ele>67</ele>
        <time>2012-10-25T14:48:56Z</time>
      </trkpt>
      <trkpt lat="46.32304" lon="-0.49703">
        <ele>67</ele>
        <time>2012-10-25T14:49:01Z</time>
      </trkpt>
      <trkpt lat="46.32302" lon="-0.497">
        <ele>65</ele>
        <time>2012-10-25T14:49:06Z</time>
      </trkpt>
      <trkpt lat="46.32298" lon="-0.49698">
        <ele>65</ele>
        <time>2012-10-25T14:49:11Z</time>
      </trkpt>
      <trkpt lat="46.32292" lon="-0.49691">
        <ele>62</ele>
        <time>2012-10-25T14:49:16Z</time>
      </trkpt>
      <trkpt lat="46.3229" lon="-0.49691">
        <ele>61</ele>
        <time>2012-10-25T14:49:21Z</time>
      </trkpt>
      <trkpt lat="46.32285" lon="-0.49688">
        <ele>62</ele>
        <time>2012-10-25T14:49:26Z</time>
      </trkpt>
      <trkpt lat="46.32281" lon="-0.49684">
        <ele>62</ele>
        <time>2012-10-25T14:49:31Z</time>
      </trkpt>
      <trkpt lat="46.32275" lon="-0.49681">
        <ele>62</ele>
        <time>2012-10-25T14:49:36Z</time>
      </trkpt>
      <trkpt lat="46.3227" lon="-0.49677">
        <ele>62</ele>
        <time>2012-10-25T14:49:41Z</time>
      </trkpt>
      <trkpt lat="46.3227" lon="-0.4968">
        <ele>64</ele>
        <time>2012-10-25T14:49:46Z</time>
      </trkpt>
      <trkpt lat="46.32265" lon="-0.49679">
        <ele>64</ele>
        <time>2012-10-25T14:49:51Z</time>
      </trkpt>
      <trkpt lat="46.32261" lon="-0.49677">
        <ele>65</ele>
        <time>2012-10-25T14:49:56Z</time>
      </trkpt>
      <trkpt lat="46.32259" lon="-0.49675">
        <ele>65</ele>
        <time>2012-10-25T14:50:01Z</time>
      </trkpt>
      <trkpt lat="46.32253" lon="-0.49669">
        <ele>67</ele>
        <time>2012-10-25T14:50:06Z</time>
      </trkpt>
      <trkpt lat="46.32248" lon="-0.49667">
        <ele>67</ele>
        <time>2012-10-25T14:50:11Z</time>
      </trkpt>
      <trkpt lat="46.32244" lon="-0.49665">
        <ele>68</ele>
        <time>2012-10-25T14:50:16Z</time>
      </trkpt>
      <trkpt lat="46.32237" lon="-0.49656">
        <ele>69</ele>
        <time>2012-10-25T14:50:21Z</time>
      </trkpt>
      <trkpt lat="46.32231" lon="-0.49655">
        <ele>69</ele>
        <time>2012-10-25T14:50:26Z</time>
      </trkpt>
      <trkpt lat="46.32225" lon="-0.49651">
        <ele>70</ele>
        <time>2012-10-25T14:50:31Z</time>
      </trkpt>
      <trkpt lat="46.32222" lon="-0.49646">
        <ele>69</ele>
        <time>2012-10-25T14:50:36Z</time>
      </trkpt>
      <trkpt lat="46.32217" lon="-0.49643">
        <ele>69</ele>
        <time>2012-10-25T14:50:41Z</time>
      </trkpt>
      <trkpt lat="46.32213" lon="-0.49641">
        <ele>69</ele>
        <time>2012-10-25T14:50:46Z</time>
      </trkpt>
      <trkpt lat="46.32209" lon="-0.49637">
        <ele>69</ele>
        <time>2012-10-25T14:50:51Z</time>
      </trkpt>
      <trkpt lat="46.32204" lon="-0.49634">
        <ele>70</ele>
        <time>2012-10-25T14:50:56Z</time>
      </trkpt>
      <trkpt lat="46.32199" lon="-0.49631">
        <ele>70</ele>
        <time>2012-10-25T14:51:01Z</time>
      </trkpt>
      <trkpt lat="46.32193" lon="-0.49626">
        <ele>69</ele>
        <time>2012-10-25T14:51:06Z</time>
      </trkpt>
      <trkpt lat="46.32187" lon="-0.49621">
        <ele>69</ele>
        <time>2012-10-25T14:51:11Z</time>
      </trkpt>
      <trkpt lat="46.32184" lon="-0.49619">
        <ele>68</ele>
        <time>2012-10-25T14:51:16Z</time>
      </trkpt>
      <trkpt lat="46.32179" lon="-0.49616">
        <ele>68</ele>
        <time>2012-10-25T14:51:21Z</time>
      </trkpt>
      <trkpt lat="46.32175" lon="-0.49612">
        <ele>67</ele>
        <time>2012-10-25T14:51:26Z</time>
      </trkpt>
      <trkpt lat="46.32171" lon="-0.49609">
        <ele>66</ele>
        <time>2012-10-25T14:51:31Z</time>
      </trkpt>
      <trkpt lat="46.32167" lon="-0.49606">
        <ele>64</ele>
        <time>2012-10-25T14:51:36Z</time>
      </trkpt>
      <trkpt lat="46.32162" lon="-0.49604">
        <ele>65</ele>
        <time>2012-10-25T14:51:41Z</time>
      </trkpt>
      <trkpt lat="46.32156" lon="-0.49597">
        <ele>65</ele>
        <time>2012-10-25T14:51:46Z</time>
      </trkpt>
      <trkpt lat="46.32155" lon="-0.49596">
        <ele>63</ele>
        <time>2012-10-25T14:51:51Z</time>
      </trkpt>
      <trkpt lat="46.32151" lon="-0.49594">
        <ele>63</ele>
        <time>2012-10-25T14:51:56Z</time>
      </trkpt>
      <trkpt lat="46.32151" lon="-0.49594">
        <ele>63</ele>
        <time>2012-10-25T14:52:01Z</time>
      </trkpt>
      <trkpt lat="46.32153" lon="-0.49593">
        <ele>63</ele>
        <time>2012-10-25T14:52:06Z</time>
      </trkpt>
      <trkpt lat="46.32158" lon="-0.49596">
        <ele>65</ele>
        <time>2012-10-25T14:52:11Z</time>
      </trkpt>
      <trkpt lat="46.32159" lon="-0.49597">
        <ele>66</ele>
        <time>2012-10-25T14:52:16Z</time>
      </trkpt>
      <trkpt lat="46.32162" lon="-0.49597">
        <ele>66</ele>
        <time>2012-10-25T14:52:21Z</time>
      </trkpt>
      <trkpt lat="46.32166" lon="-0.49597">
        <ele>65</ele>
        <time>2012-10-25T14:52:26Z</time>
      </trkpt>
      <trkpt lat="46.32167" lon="-0.49597">
        <ele>62</ele>
        <time>2012-10-25T14:52:31Z</time>
      </trkpt>
      <trkpt lat="46.32169" lon="-0.49599">
        <ele>62</ele>
        <time>2012-10-25T14:52:36Z</time>
      </trkpt>
      <trkpt lat="46.32169" lon="-0.496">
        <ele>62</ele>
        <time>2012-10-25T14:52:41Z</time>
      </trkpt>
      <trkpt lat="46.32173" lon="-0.49605">
        <ele>63</ele>
        <time>2012-10-25T14:52:46Z</time>
      </trkpt>
      <trkpt lat="46.32181" lon="-0.49595">
        <ele>63</ele>
        <time>2012-10-25T14:52:51Z</time>
      </trkpt>
      <trkpt lat="46.32185" lon="-0.49589">
        <ele>64</ele>
        <time>2012-10-25T14:52:56Z</time>
      </trkpt>
      <trkpt lat="46.32186" lon="-0.49587">
        <ele>65</ele>
        <time>2012-10-25T14:53:06Z</time>
      </trkpt>
      <trkpt lat="46.32192" lon="-0.49584">
        <ele>65</ele>
        <time>2012-10-25T14:53:11Z</time>
      </trkpt>
      <trkpt lat="46.32193" lon="-0.49586">
        <ele>64</ele>
        <time>2012-10-25T14:53:16Z</time>
      </trkpt>
      <trkpt lat="46.32197" lon="-0.4959">
        <ele>63</ele>
        <time>2012-10-25T14:53:21Z</time>
      </trkpt>
      <trkpt lat="46.32201" lon="-0.49592">
        <ele>60</ele>
        <time>2012-10-25T14:53:26Z</time>
      </trkpt>
      <trkpt lat="46.32205" lon="-0.49594">
        <ele>59</ele>
        <time>2012-10-25T14:53:31Z</time>
      </trkpt>
      <trkpt lat="46.3221" lon="-0.49592">
        <ele>59</ele>
        <time>2012-10-25T14:53:36Z</time>
      </trkpt>
      <trkpt lat="46.32213" lon="-0.49592">
        <ele>60</ele>
        <time>2012-10-25T14:53:41Z</time>
      </trkpt>
      <trkpt lat="46.32215" lon="-0.49589">
        <ele>62</ele>
        <time>2012-10-25T14:53:46Z</time>
      </trkpt>
      <trkpt lat="46.32217" lon="-0.49588">
        <ele>62</ele>
        <time>2012-10-25T14:53:51Z</time>
      </trkpt>
      <trkpt lat="46.32216" lon="-0.49587">
        <ele>61</ele>
        <time>2012-10-25T14:53:56Z</time>
      </trkpt>
      <trkpt lat="46.32222" lon="-0.49575">
        <ele>61</ele>
        <time>2012-10-25T14:54:01Z</time>
      </trkpt>
      <trkpt lat="46.3223" lon="-0.49562">
        <ele>59</ele>
        <time>2012-10-25T14:54:06Z</time>
      </trkpt>
      <trkpt lat="46.32235" lon="-0.49555">
        <ele>56</ele>
        <time>2012-10-25T14:54:11Z</time>
      </trkpt>
      <trkpt lat="46.32241" lon="-0.49547">
        <ele>57</ele>
        <time>2012-10-25T14:54:16Z</time>
      </trkpt>
      <trkpt lat="46.32244" lon="-0.49544">
        <ele>56</ele>
        <time>2012-10-25T14:54:21Z</time>
      </trkpt>
      <trkpt lat="46.32246" lon="-0.49541">
        <ele>57</ele>
        <time>2012-10-25T14:54:26Z</time>
      </trkpt>
      <trkpt lat="46.3225" lon="-0.49537">
        <ele>59</ele>
        <time>2012-10-25T14:54:31Z</time>
      </trkpt>
      <trkpt lat="46.32251" lon="-0.49536">
        <ele>59</ele>
        <time>2012-10-25T14:54:36Z</time>
      </trkpt>
      <trkpt lat="46.32256" lon="-0.4953">
        <ele>59</ele>
        <time>2012-10-25T14:54:41Z</time>
      </trkpt>
      <trkpt lat="46.32257" lon="-0.49526">
        <ele>62</ele>
        <time>2012-10-25T14:54:46Z</time>
      </trkpt>
      <trkpt lat="46.32259" lon="-0.49522">
        <ele>65</ele>
        <time>2012-10-25T14:54:51Z</time>
      </trkpt>
      <trkpt lat="46.32268" lon="-0.4951">
        <ele>63</ele>
        <time>2012-10-25T14:54:56Z</time>
      </trkpt>
      <trkpt lat="46.32276" lon="-0.49501">
        <ele>63</ele>
        <time>2012-10-25T14:55:01Z</time>
      </trkpt>
      <trkpt lat="46.3228" lon="-0.49495">
        <ele>62</ele>
        <time>2012-10-25T14:55:06Z</time>
      </trkpt>
      <trkpt lat="46.32285" lon="-0.49492">
        <ele>62</ele>
        <time>2012-10-25T14:55:11Z</time>
      </trkpt>
      <trkpt lat="46.3229" lon="-0.4949">
        <ele>62</ele>
        <time>2012-10-25T14:55:16Z</time>
      </trkpt>
      <trkpt lat="46.32292" lon="-0.49486">
        <ele>62</ele>
        <time>2012-10-25T14:55:21Z</time>
      </trkpt>
      <trkpt lat="46.32294" lon="-0.49485">
        <ele>63</ele>
        <time>2012-10-25T14:55:26Z</time>
      </trkpt>
      <trkpt lat="46.32298" lon="-0.4948">
        <ele>63</ele>
        <time>2012-10-25T14:55:31Z</time>
      </trkpt>
      <trkpt lat="46.32299" lon="-0.49477">
        <ele>64</ele>
        <time>2012-10-25T14:55:36Z</time>
      </trkpt>
      <trkpt lat="46.32301" lon="-0.49475">
        <ele>63</ele>
        <time>2012-10-25T14:55:41Z</time>
      </trkpt>
      <trkpt lat="46.32305" lon="-0.49469">
        <ele>62</ele>
        <time>2012-10-25T14:55:46Z</time>
      </trkpt>
      <trkpt lat="46.32312" lon="-0.49459">
        <ele>61</ele>
        <time>2012-10-25T14:55:51Z</time>
      </trkpt>
      <trkpt lat="46.32318" lon="-0.49451">
        <ele>57</ele>
        <time>2012-10-25T14:55:56Z</time>
      </trkpt>
      <trkpt lat="46.32324" lon="-0.49441">
        <ele>56</ele>
        <time>2012-10-25T14:56:01Z</time>
      </trkpt>
      <trkpt lat="46.32335" lon="-0.49435">
        <ele>55</ele>
        <time>2012-10-25T14:56:06Z</time>
      </trkpt>
      <trkpt lat="46.32339" lon="-0.49432">
        <ele>55</ele>
        <time>2012-10-25T14:56:11Z</time>
      </trkpt>
      <trkpt lat="46.32341" lon="-0.4943">
        <ele>56</ele>
        <time>2012-10-25T14:56:16Z</time>
      </trkpt>
      <trkpt lat="46.32345" lon="-0.49423">
        <ele>55</ele>
        <time>2012-10-25T14:56:21Z</time>
      </trkpt>
      <trkpt lat="46.3235" lon="-0.49419">
        <ele>54</ele>
        <time>2012-10-25T14:56:26Z</time>
      </trkpt>
      <trkpt lat="46.32354" lon="-0.49415">
        <ele>57</ele>
        <time>2012-10-25T14:56:31Z</time>
      </trkpt>
      <trkpt lat="46.32355" lon="-0.49414">
        <ele>57</ele>
        <time>2012-10-25T14:56:36Z</time>
      </trkpt>
      <trkpt lat="46.32358" lon="-0.49409">
        <ele>60</ele>
        <time>2012-10-25T14:56:41Z</time>
      </trkpt>
      <trkpt lat="46.32362" lon="-0.49403">
        <ele>61</ele>
        <time>2012-10-25T14:56:46Z</time>
      </trkpt>
      <trkpt lat="46.32366" lon="-0.49397">
        <ele>63</ele>
        <time>2012-10-25T14:56:51Z</time>
      </trkpt>
      <trkpt lat="46.32368" lon="-0.49396">
        <ele>63</ele>
        <time>2012-10-25T14:56:56Z</time>
      </trkpt>
      <trkpt lat="46.32372" lon="-0.4939">
        <ele>62</ele>
        <time>2012-10-25T14:57:01Z</time>
      </trkpt>
      <trkpt lat="46.32376" lon="-0.49384">
        <ele>62</ele>
        <time>2012-10-25T14:57:06Z</time>
      </trkpt>
      <trkpt lat="46.3238" lon="-0.49378">
        <ele>61</ele>
        <time>2012-10-25T14:57:11Z</time>
      </trkpt>
      <trkpt lat="46.32384" lon="-0.49371">
        <ele>58</ele>
        <time>2012-10-25T14:57:16Z</time>
      </trkpt>
      <trkpt lat="46.3239" lon="-0.49364">
        <ele>57</ele>
        <time>2012-10-25T14:57:21Z</time>
      </trkpt>
      <trkpt lat="46.32396" lon="-0.49361">
        <ele>58</ele>
        <time>2012-10-25T14:57:26Z</time>
      </trkpt>
      <trkpt lat="46.32402" lon="-0.49355">
        <ele>59</ele>
        <time>2012-10-25T14:57:31Z</time>
      </trkpt>
      <trkpt lat="46.32405" lon="-0.49351">
        <ele>59</ele>
        <time>2012-10-25T14:57:36Z</time>
      </trkpt>
      <trkpt lat="46.32411" lon="-0.49342">
        <ele>60</ele>
        <time>2012-10-25T14:57:41Z</time>
      </trkpt>
      <trkpt lat="46.32413" lon="-0.49337">
        <ele>60</ele>
        <time>2012-10-25T14:57:46Z</time>
      </trkpt>
      <trkpt lat="46.32415" lon="-0.49335">
        <ele>60</ele>
        <time>2012-10-25T14:57:51Z</time>
      </trkpt>
      <trkpt lat="46.3242" lon="-0.49327">
        <ele>61</ele>
        <time>2012-10-25T14:57:56Z</time>
      </trkpt>
      <trkpt lat="46.32423" lon="-0.49322">
        <ele>60</ele>
        <time>2012-10-25T14:58:01Z</time>
      </trkpt>
      <trkpt lat="46.32427" lon="-0.49316">
        <ele>62</ele>
        <time>2012-10-25T14:58:06Z</time>
      </trkpt>
      <trkpt lat="46.32431" lon="-0.49313">
        <ele>61</ele>
        <time>2012-10-25T14:58:11Z</time>
      </trkpt>
      <trkpt lat="46.32439" lon="-0.49308">
        <ele>63</ele>
        <time>2012-10-25T14:58:16Z</time>
      </trkpt>
      <trkpt lat="46.32444" lon="-0.49305">
        <ele>64</ele>
        <time>2012-10-25T14:58:21Z</time>
      </trkpt>
      <trkpt lat="46.32446" lon="-0.49303">
        <ele>63</ele>
        <time>2012-10-25T14:58:26Z</time>
      </trkpt>
      <trkpt lat="46.32451" lon="-0.49299">
        <ele>64</ele>
        <time>2012-10-25T14:58:31Z</time>
      </trkpt>
      <trkpt lat="46.32452" lon="-0.49296">
        <ele>63</ele>
        <time>2012-10-25T14:58:36Z</time>
      </trkpt>
      <trkpt lat="46.32457" lon="-0.4929">
        <ele>59</ele>
        <time>2012-10-25T14:58:41Z</time>
      </trkpt>
      <trkpt lat="46.32463" lon="-0.49285">
        <ele>57</ele>
        <time>2012-10-25T14:58:46Z</time>
      </trkpt>
      <trkpt lat="46.32466" lon="-0.49281">
        <ele>57</ele>
        <time>2012-10-25T14:58:51Z</time>
      </trkpt>
      <trkpt lat="46.32471" lon="-0.49278">
        <ele>57</ele>
        <time>2012-10-25T14:58:56Z</time>
      </trkpt>
      <trkpt lat="46.32473" lon="-0.49274">
        <ele>57</ele>
        <time>2012-10-25T14:59:01Z</time>
      </trkpt>
      <trkpt lat="46.32475" lon="-0.49271">
        <ele>57</ele>
        <time>2012-10-25T14:59:06Z</time>
      </trkpt>
      <trkpt lat="46.32479" lon="-0.49269">
        <ele>58</ele>
        <time>2012-10-25T14:59:11Z</time>
      </trkpt>
      <trkpt lat="46.32483" lon="-0.49267">
        <ele>59</ele>
        <time>2012-10-25T14:59:16Z</time>
      </trkpt>
      <trkpt lat="46.3249" lon="-0.49262">
        <ele>59</ele>
        <time>2012-10-25T14:59:21Z</time>
      </trkpt>
      <trkpt lat="46.32497" lon="-0.49258">
        <ele>60</ele>
        <time>2012-10-25T14:59:26Z</time>
      </trkpt>
      <trkpt lat="46.32501" lon="-0.49255">
        <ele>59</ele>
        <time>2012-10-25T14:59:31Z</time>
      </trkpt>
      <trkpt lat="46.32505" lon="-0.49253">
        <ele>60</ele>
        <time>2012-10-25T14:59:36Z</time>
      </trkpt>
      <trkpt lat="46.32511" lon="-0.49252">
        <ele>59</ele>
        <time>2012-10-25T14:59:41Z</time>
      </trkpt>
      <trkpt lat="46.32513" lon="-0.49249">
        <ele>58</ele>
        <time>2012-10-25T14:59:46Z</time>
      </trkpt>
      <trkpt lat="46.3252" lon="-0.49245">
        <ele>56</ele>
        <time>2012-10-25T14:59:51Z</time>
      </trkpt>
      <trkpt lat="46.3253" lon="-0.49244">
        <ele>55</ele>
        <time>2012-10-25T14:59:56Z</time>
      </trkpt>
      <trkpt lat="46.32534" lon="-0.49242">
        <ele>55</ele>
        <time>2012-10-25T15:00:01Z</time>
      </trkpt>
      <trkpt lat="46.32537" lon="-0.49239">
        <ele>55</ele>
        <time>2012-10-25T15:00:06Z</time>
      </trkpt>
      <trkpt lat="46.32545" lon="-0.49239">
        <ele>55</ele>
        <time>2012-10-25T15:00:11Z</time>
      </trkpt>
      <trkpt lat="46.32549" lon="-0.49241">
        <ele>57</ele>
        <time>2012-10-25T15:00:16Z</time>
      </trkpt>
      <trkpt lat="46.32554" lon="-0.49241">
        <ele>58</ele>
        <time>2012-10-25T15:00:21Z</time>
      </trkpt>
      <trkpt lat="46.32561" lon="-0.49241">
        <ele>59</ele>
        <time>2012-10-25T15:00:26Z</time>
      </trkpt>
      <trkpt lat="46.32569" lon="-0.49239">
        <ele>59</ele>
        <time>2012-10-25T15:00:31Z</time>
      </trkpt>
      <trkpt lat="46.32574" lon="-0.49241">
        <ele>58</ele>
        <time>2012-10-25T15:00:36Z</time>
      </trkpt>
      <trkpt lat="46.32579" lon="-0.49241">
        <ele>58</ele>
        <time>2012-10-25T15:00:41Z</time>
      </trkpt>
      <trkpt lat="46.32584" lon="-0.49242">
        <ele>60</ele>
        <time>2012-10-25T15:00:46Z</time>
      </trkpt>
      <trkpt lat="46.32591" lon="-0.49242">
        <ele>61</ele>
        <time>2012-10-25T15:00:51Z</time>
      </trkpt>
      <trkpt lat="46.32596" lon="-0.49238">
        <ele>60</ele>
        <time>2012-10-25T15:00:56Z</time>
      </trkpt>
      <trkpt lat="46.326" lon="-0.49231">
        <ele>60</ele>
        <time>2012-10-25T15:01:01Z</time>
      </trkpt>
      <trkpt lat="46.32602" lon="-0.49224">
        <ele>62</ele>
        <time>2012-10-25T15:01:06Z</time>
      </trkpt>
      <trkpt lat="46.32603" lon="-0.49218">
        <ele>61</ele>
        <time>2012-10-25T15:01:11Z</time>
      </trkpt>
      <trkpt lat="46.32605" lon="-0.49212">
        <ele>60</ele>
        <time>2012-10-25T15:01:16Z</time>
      </trkpt>
      <trkpt lat="46.32608" lon="-0.49209">
        <ele>59</ele>
        <time>2012-10-25T15:01:21Z</time>
      </trkpt>
      <trkpt lat="46.32614" lon="-0.49207">
        <ele>60</ele>
        <time>2012-10-25T15:01:26Z</time>
      </trkpt>
      <trkpt lat="46.32616" lon="-0.49207">
        <ele>61</ele>
        <time>2012-10-25T15:01:31Z</time>
      </trkpt>
      <trkpt lat="46.32618" lon="-0.49208">
        <ele>62</ele>
        <time>2012-10-25T15:01:36Z</time>
      </trkpt>
      <trkpt lat="46.32623" lon="-0.49207">
        <ele>60</ele>
        <time>2012-10-25T15:01:41Z</time>
      </trkpt>
      <trkpt lat="46.3263" lon="-0.49207">
        <ele>60</ele>
        <time>2012-10-25T15:01:46Z</time>
      </trkpt>
      <trkpt lat="46.32636" lon="-0.49206">
        <ele>60</ele>
        <time>2012-10-25T15:01:51Z</time>
      </trkpt>
      <trkpt lat="46.32641" lon="-0.49203">
        <ele>60</ele>
        <time>2012-10-25T15:01:56Z</time>
      </trkpt>
      <trkpt lat="46.32644" lon="-0.49202">
        <ele>56</ele>
        <time>2012-10-25T15:02:01Z</time>
      </trkpt>
      <trkpt lat="46.32651" lon="-0.49199">
        <ele>57</ele>
        <time>2012-10-25T15:02:06Z</time>
      </trkpt>
      <trkpt lat="46.32655" lon="-0.49195">
        <ele>58</ele>
        <time>2012-10-25T15:02:11Z</time>
      </trkpt>
      <trkpt lat="46.32659" lon="-0.49191">
        <ele>58</ele>
        <time>2012-10-25T15:02:16Z</time>
      </trkpt>
      <trkpt lat="46.32661" lon="-0.49187">
        <ele>58</ele>
        <time>2012-10-25T15:02:21Z</time>
      </trkpt>
      <trkpt lat="46.32661" lon="-0.4918">
        <ele>57</ele>
        <time>2012-10-25T15:02:26Z</time>
      </trkpt>
      <trkpt lat="46.32659" lon="-0.49175">
        <ele>55</ele>
        <time>2012-10-25T15:02:31Z</time>
      </trkpt>
      <trkpt lat="46.32659" lon="-0.49168">
        <ele>55</ele>
        <time>2012-10-25T15:02:36Z</time>
      </trkpt>
      <trkpt lat="46.32658" lon="-0.49165">
        <ele>55</ele>
        <time>2012-10-25T15:02:41Z</time>
      </trkpt>
      <trkpt lat="46.32658" lon="-0.49164">
        <ele>56</ele>
        <time>2012-10-25T15:02:46Z</time>
      </trkpt>
      <trkpt lat="46.32658" lon="-0.49162">
        <ele>56</ele>
        <time>2012-10-25T15:02:51Z</time>
      </trkpt>
      <trkpt lat="46.32658" lon="-0.49158">
        <ele>55</ele>
        <time>2012-10-25T15:02:56Z</time>
      </trkpt>
      <trkpt lat="46.32658" lon="-0.49156">
        <ele>55</ele>
        <time>2012-10-25T15:03:01Z</time>
      </trkpt>
      <trkpt lat="46.3266" lon="-0.49149">
        <ele>55</ele>
        <time>2012-10-25T15:03:07Z</time>
      </trkpt>
      <trkpt lat="46.32665" lon="-0.49132">
        <ele>55</ele>
        <time>2012-10-25T15:03:11Z</time>
      </trkpt>
      <trkpt lat="46.32663" lon="-0.49118">
        <ele>55</ele>
        <time>2012-10-25T15:03:16Z</time>
      </trkpt>
      <trkpt lat="46.32662" lon="-0.49111">
        <ele>54</ele>
        <time>2012-10-25T15:03:21Z</time>
      </trkpt>
      <trkpt lat="46.32662" lon="-0.49103">
        <ele>55</ele>
        <time>2012-10-25T15:03:26Z</time>
      </trkpt>
      <trkpt lat="46.32663" lon="-0.49093">
        <ele>55</ele>
        <time>2012-10-25T15:03:31Z</time>
      </trkpt>
      <trkpt lat="46.32664" lon="-0.49085">
        <ele>55</ele>
        <time>2012-10-25T15:03:36Z</time>
      </trkpt>
      <trkpt lat="46.32663" lon="-0.49076">
        <ele>58</ele>
        <time>2012-10-25T15:03:41Z</time>
      </trkpt>
      <trkpt lat="46.32665" lon="-0.49069">
        <ele>56</ele>
        <time>2012-10-25T15:03:46Z</time>
      </trkpt>
      <trkpt lat="46.32668" lon="-0.49061">
        <ele>56</ele>
        <time>2012-10-25T15:03:51Z</time>
      </trkpt>
      <trkpt lat="46.32671" lon="-0.49055">
        <ele>56</ele>
        <time>2012-10-25T15:03:56Z</time>
      </trkpt>
      <trkpt lat="46.32675" lon="-0.49051">
        <ele>57</ele>
        <time>2012-10-25T15:04:01Z</time>
      </trkpt>
      <trkpt lat="46.32682" lon="-0.49045">
        <ele>58</ele>
        <time>2012-10-25T15:04:06Z</time>
      </trkpt>
      <trkpt lat="46.32685" lon="-0.49042">
        <ele>59</ele>
        <time>2012-10-25T15:04:11Z</time>
      </trkpt>
      <trkpt lat="46.32689" lon="-0.49045">
        <ele>59</ele>
        <time>2012-10-25T15:04:16Z</time>
      </trkpt>
      <trkpt lat="46.32694" lon="-0.49053">
        <ele>59</ele>
        <time>2012-10-25T15:04:21Z</time>
      </trkpt>
      <trkpt lat="46.327" lon="-0.49058">
        <ele>61</ele>
        <time>2012-10-25T15:04:26Z</time>
      </trkpt>
      <trkpt lat="46.32703" lon="-0.4906">
        <ele>61</ele>
        <time>2012-10-25T15:04:31Z</time>
      </trkpt>
      <trkpt lat="46.32707" lon="-0.4906">
        <ele>61</ele>
        <time>2012-10-25T15:04:36Z</time>
      </trkpt>
      <trkpt lat="46.32711" lon="-0.49057">
        <ele>62</ele>
        <time>2012-10-25T15:04:41Z</time>
      </trkpt>
      <trkpt lat="46.32719" lon="-0.49052">
        <ele>63</ele>
        <time>2012-10-25T15:04:46Z</time>
      </trkpt>
      <trkpt lat="46.32723" lon="-0.4905">
        <ele>64</ele>
        <time>2012-10-25T15:04:51Z</time>
      </trkpt>
      <trkpt lat="46.32727" lon="-0.49043">
        <ele>66</ele>
        <time>2012-10-25T15:04:56Z</time>
      </trkpt>
      <trkpt lat="46.3273" lon="-0.49037">
        <ele>67</ele>
        <time>2012-10-25T15:05:01Z</time>
      </trkpt>
      <trkpt lat="46.32732" lon="-0.4903">
        <ele>67</ele>
        <time>2012-10-25T15:05:06Z</time>
      </trkpt>
      <trkpt lat="46.32733" lon="-0.49024">
        <ele>66</ele>
        <time>2012-10-25T15:05:11Z</time>
      </trkpt>
      <trkpt lat="46.3273" lon="-0.49013">
        <ele>66</ele>
        <time>2012-10-25T15:05:16Z</time>
      </trkpt>
      <trkpt lat="46.32728" lon="-0.49006">
        <ele>65</ele>
        <time>2012-10-25T15:05:21Z</time>
      </trkpt>
      <trkpt lat="46.32729" lon="-0.49002">
        <ele>66</ele>
        <time>2012-10-25T15:05:26Z</time>
      </trkpt>
      <trkpt lat="46.32732" lon="-0.49002">
        <ele>66</ele>
        <time>2012-10-25T15:05:31Z</time>
      </trkpt>
      <trkpt lat="46.32737" lon="-0.49">
        <ele>65</ele>
        <time>2012-10-25T15:05:36Z</time>
      </trkpt>
      <trkpt lat="46.32744" lon="-0.48997">
        <ele>64</ele>
        <time>2012-10-25T15:05:41Z</time>
      </trkpt>
      <trkpt lat="46.3275" lon="-0.48995">
        <ele>63</ele>
        <time>2012-10-25T15:05:46Z</time>
      </trkpt>
      <trkpt lat="46.32757" lon="-0.48993">
        <ele>63</ele>
        <time>2012-10-25T15:05:51Z</time>
      </trkpt>
      <trkpt lat="46.32761" lon="-0.4899">
        <ele>62</ele>
        <time>2012-10-25T15:05:56Z</time>
      </trkpt>
      <trkpt lat="46.32767" lon="-0.48989">
        <ele>61</ele>
        <time>2012-10-25T15:06:01Z</time>
      </trkpt>
      <trkpt lat="46.32772" lon="-0.48989">
        <ele>63</ele>
        <time>2012-10-25T15:06:06Z</time>
      </trkpt>
      <trkpt lat="46.32778" lon="-0.48986">
        <ele>64</ele>
        <time>2012-10-25T15:06:11Z</time>
      </trkpt>
      <trkpt lat="46.32782" lon="-0.48984">
        <ele>65</ele>
        <time>2012-10-25T15:06:16Z</time>
      </trkpt>
      <trkpt lat="46.32786" lon="-0.48984">
        <ele>65</ele>
        <time>2012-10-25T15:06:21Z</time>
      </trkpt>
      <trkpt lat="46.32787" lon="-0.48984">
        <ele>65</ele>
        <time>2012-10-25T15:06:26Z</time>
      </trkpt>
      <trkpt lat="46.32791" lon="-0.48981">
        <ele>67</ele>
        <time>2012-10-25T15:06:31Z</time>
      </trkpt>
      <trkpt lat="46.32797" lon="-0.4898">
        <ele>65</ele>
        <time>2012-10-25T15:06:36Z</time>
      </trkpt>
      <trkpt lat="46.328" lon="-0.4898">
        <ele>65</ele>
        <time>2012-10-25T15:06:41Z</time>
      </trkpt>
      <trkpt lat="46.32806" lon="-0.48979">
        <ele>64</ele>
        <time>2012-10-25T15:06:46Z</time>
      </trkpt>
      <trkpt lat="46.32812" lon="-0.48979">
        <ele>64</ele>
        <time>2012-10-25T15:06:51Z</time>
      </trkpt>
      <trkpt lat="46.32815" lon="-0.48978">
        <ele>65</ele>
        <time>2012-10-25T15:06:56Z</time>
      </trkpt>
      <trkpt lat="46.32818" lon="-0.48974">
        <ele>64</ele>
        <time>2012-10-25T15:07:01Z</time>
      </trkpt>
      <trkpt lat="46.32823" lon="-0.48972">
        <ele>61</ele>
        <time>2012-10-25T15:07:06Z</time>
      </trkpt>
      <trkpt lat="46.32828" lon="-0.4897">
        <ele>61</ele>
        <time>2012-10-25T15:07:11Z</time>
      </trkpt>
      <trkpt lat="46.32832" lon="-0.48968">
        <ele>60</ele>
        <time>2012-10-25T15:07:16Z</time>
      </trkpt>
      <trkpt lat="46.32836" lon="-0.48966">
        <ele>60</ele>
        <time>2012-10-25T15:07:21Z</time>
      </trkpt>
      <trkpt lat="46.3284" lon="-0.48964">
        <ele>59</ele>
        <time>2012-10-25T15:07:26Z</time>
      </trkpt>
      <trkpt lat="46.32846" lon="-0.48961">
        <ele>58</ele>
        <time>2012-10-25T15:07:31Z</time>
      </trkpt>
      <trkpt lat="46.32851" lon="-0.48961">
        <ele>58</ele>
        <time>2012-10-25T15:07:36Z</time>
      </trkpt>
      <trkpt lat="46.32856" lon="-0.48958">
        <ele>59</ele>
        <time>2012-10-25T15:07:41Z</time>
      </trkpt>
      <trkpt lat="46.3286" lon="-0.48957">
        <ele>58</ele>
        <time>2012-10-25T15:07:46Z</time>
      </trkpt>
      <trkpt lat="46.32864" lon="-0.48952">
        <ele>57</ele>
        <time>2012-10-25T15:07:51Z</time>
      </trkpt>
      <trkpt lat="46.32869" lon="-0.4895">
        <ele>55</ele>
        <time>2012-10-25T15:07:56Z</time>
      </trkpt>
      <trkpt lat="46.32874" lon="-0.48948">
        <ele>55</ele>
        <time>2012-10-25T15:08:01Z</time>
      </trkpt>
      <trkpt lat="46.3288" lon="-0.48947">
        <ele>55</ele>
        <time>2012-10-25T15:08:06Z</time>
      </trkpt>
      <trkpt lat="46.32885" lon="-0.48948">
        <ele>56</ele>
        <time>2012-10-25T15:08:11Z</time>
      </trkpt>
      <trkpt lat="46.3289" lon="-0.48946">
        <ele>57</ele>
        <time>2012-10-25T15:08:16Z</time>
      </trkpt>
      <trkpt lat="46.32897" lon="-0.48943">
        <ele>58</ele>
        <time>2012-10-25T15:08:21Z</time>
      </trkpt>
      <trkpt lat="46.32901" lon="-0.48944">
        <ele>59</ele>
        <time>2012-10-25T15:08:26Z</time>
      </trkpt>
      <trkpt lat="46.32905" lon="-0.48943">
        <ele>58</ele>
        <time>2012-10-25T15:08:31Z</time>
      </trkpt>
      <trkpt lat="46.32912" lon="-0.4894">
        <ele>59</ele>
        <time>2012-10-25T15:08:36Z</time>
      </trkpt>
      <trkpt lat="46.32917" lon="-0.48938">
        <ele>59</ele>
        <time>2012-10-25T15:08:41Z</time>
      </trkpt>
      <trkpt lat="46.32922" lon="-0.48936">
        <ele>60</ele>
        <time>2012-10-25T15:08:46Z</time>
      </trkpt>
      <trkpt lat="46.32925" lon="-0.48934">
        <ele>59</ele>
        <time>2012-10-25T15:08:51Z</time>
      </trkpt>
      <trkpt lat="46.32931" lon="-0.48932">
        <ele>58</ele>
        <time>2012-10-25T15:08:56Z</time>
      </trkpt>
      <trkpt lat="46.32938" lon="-0.48928">
        <ele>59</ele>
        <time>2012-10-25T15:09:01Z</time>
      </trkpt>
      <trkpt lat="46.32945" lon="-0.48924">
        <ele>59</ele>
        <time>2012-10-25T15:09:06Z</time>
      </trkpt>
      <trkpt lat="46.3295" lon="-0.48922">
        <ele>57</ele>
        <time>2012-10-25T15:09:11Z</time>
      </trkpt>
      <trkpt lat="46.32954" lon="-0.48921">
        <ele>57</ele>
        <time>2012-10-25T15:09:16Z</time>
      </trkpt>
      <trkpt lat="46.3296" lon="-0.48918">
        <ele>57</ele>
        <time>2012-10-25T15:09:21Z</time>
      </trkpt>
      <trkpt lat="46.32966" lon="-0.48915">
        <ele>58</ele>
        <time>2012-10-25T15:09:26Z</time>
      </trkpt>
      <trkpt lat="46.32972" lon="-0.48912">
        <ele>58</ele>
        <time>2012-10-25T15:09:31Z</time>
      </trkpt>
      <trkpt lat="46.32975" lon="-0.4891">
        <ele>59</ele>
        <time>2012-10-25T15:09:36Z</time>
      </trkpt>
      <trkpt lat="46.32981" lon="-0.48906">
        <ele>58</ele>
        <time>2012-10-25T15:09:41Z</time>
      </trkpt>
      <trkpt lat="46.32985" lon="-0.48906">
        <ele>58</ele>
        <time>2012-10-25T15:09:46Z</time>
      </trkpt>
      <trkpt lat="46.3299" lon="-0.48906">
        <ele>59</ele>
        <time>2012-10-25T15:09:51Z</time>
      </trkpt>
      <trkpt lat="46.32994" lon="-0.48903">
        <ele>61</ele>
        <time>2012-10-25T15:09:56Z</time>
      </trkpt>
      <trkpt lat="46.33" lon="-0.48899">
        <ele>61</ele>
        <time>2012-10-25T15:10:01Z</time>
      </trkpt>
      <trkpt lat="46.33008" lon="-0.48898">
        <ele>61</ele>
        <time>2012-10-25T15:10:06Z</time>
      </trkpt>
      <trkpt lat="46.33011" lon="-0.48897">
        <ele>61</ele>
        <time>2012-10-25T15:10:11Z</time>
      </trkpt>
      <trkpt lat="46.33018" lon="-0.48897">
        <ele>62</ele>
        <time>2012-10-25T15:10:16Z</time>
      </trkpt>
      <trkpt lat="46.33026" lon="-0.48894">
        <ele>63</ele>
        <time>2012-10-25T15:10:21Z</time>
      </trkpt>
      <trkpt lat="46.33033" lon="-0.48892">
        <ele>64</ele>
        <time>2012-10-25T15:10:26Z</time>
      </trkpt>
      <trkpt lat="46.33038" lon="-0.48891">
        <ele>64</ele>
        <time>2012-10-25T15:10:31Z</time>
      </trkpt>
      <trkpt lat="46.33043" lon="-0.48891">
        <ele>63</ele>
        <time>2012-10-25T15:10:36Z</time>
      </trkpt>
      <trkpt lat="46.3305" lon="-0.48886">
        <ele>65</ele>
        <time>2012-10-25T15:10:41Z</time>
      </trkpt>
      <trkpt lat="46.33054" lon="-0.48883">
        <ele>64</ele>
        <time>2012-10-25T15:10:46Z</time>
      </trkpt>
      <trkpt lat="46.33056" lon="-0.48882">
        <ele>64</ele>
        <time>2012-10-25T15:10:51Z</time>
      </trkpt>
      <trkpt lat="46.33059" lon="-0.48878">
        <ele>65</ele>
        <time>2012-10-25T15:10:56Z</time>
      </trkpt>
      <trkpt lat="46.33063" lon="-0.48876">
        <ele>65</ele>
        <time>2012-10-25T15:11:01Z</time>
      </trkpt>
      <trkpt lat="46.33068" lon="-0.48876">
        <ele>64</ele>
        <time>2012-10-25T15:11:06Z</time>
      </trkpt>
      <trkpt lat="46.33072" lon="-0.48874">
        <ele>66</ele>
        <time>2012-10-25T15:11:11Z</time>
      </trkpt>
      <trkpt lat="46.33076" lon="-0.48874">
        <ele>67</ele>
        <time>2012-10-25T15:11:16Z</time>
      </trkpt>
      <trkpt lat="46.3308" lon="-0.48869">
        <ele>66</ele>
        <time>2012-10-25T15:11:21Z</time>
      </trkpt>
      <trkpt lat="46.33086" lon="-0.48865">
        <ele>64</ele>
        <time>2012-10-25T15:11:26Z</time>
      </trkpt>
      <trkpt lat="46.33093" lon="-0.4886">
        <ele>62</ele>
        <time>2012-10-25T15:11:31Z</time>
      </trkpt>
      <trkpt lat="46.33098" lon="-0.48859">
        <ele>65</ele>
        <time>2012-10-25T15:11:36Z</time>
      </trkpt>
      <trkpt lat="46.33104" lon="-0.48856">
        <ele>67</ele>
        <time>2012-10-25T15:11:41Z</time>
      </trkpt>
      <trkpt lat="46.33113" lon="-0.48854">
        <ele>68</ele>
        <time>2012-10-25T15:11:46Z</time>
      </trkpt>
      <trkpt lat="46.33119" lon="-0.48851">
        <ele>68</ele>
        <time>2012-10-25T15:11:51Z</time>
      </trkpt>
      <trkpt lat="46.33123" lon="-0.48848">
        <ele>67</ele>
        <time>2012-10-25T15:11:56Z</time>
      </trkpt>
      <trkpt lat="46.33125" lon="-0.48849">
        <ele>66</ele>
        <time>2012-10-25T15:12:01Z</time>
      </trkpt>
      <trkpt lat="46.33126" lon="-0.4885">
        <ele>67</ele>
        <time>2012-10-25T15:12:06Z</time>
      </trkpt>
      <trkpt lat="46.33126" lon="-0.48849">
        <ele>67</ele>
        <time>2012-10-25T15:12:11Z</time>
      </trkpt>
      <trkpt lat="46.33134" lon="-0.48852">
        <ele>69</ele>
        <time>2012-10-25T15:12:16Z</time>
      </trkpt>
      <trkpt lat="46.33137" lon="-0.4885">
        <ele>68</ele>
        <time>2012-10-25T15:12:21Z</time>
      </trkpt>
      <trkpt lat="46.33147" lon="-0.48847">
        <ele>66</ele>
        <time>2012-10-25T15:12:26Z</time>
      </trkpt>
      <trkpt lat="46.33156" lon="-0.48843">
        <ele>65</ele>
        <time>2012-10-25T15:12:31Z</time>
      </trkpt>
      <trkpt lat="46.33162" lon="-0.48838">
        <ele>63</ele>
        <time>2012-10-25T15:12:36Z</time>
      </trkpt>
      <trkpt lat="46.33164" lon="-0.48836">
        <ele>63</ele>
        <time>2012-10-25T15:12:41Z</time>
      </trkpt>
      <trkpt lat="46.33169" lon="-0.48832">
        <ele>61</ele>
        <time>2012-10-25T15:12:46Z</time>
      </trkpt>
      <trkpt lat="46.33173" lon="-0.48831">
        <ele>59</ele>
        <time>2012-10-25T15:12:51Z</time>
      </trkpt>
      <trkpt lat="46.33177" lon="-0.4883">
        <ele>60</ele>
        <time>2012-10-25T15:12:56Z</time>
      </trkpt>
      <trkpt lat="46.33178" lon="-0.4883">
        <ele>60</ele>
        <time>2012-10-25T15:13:01Z</time>
      </trkpt>
      <trkpt lat="46.33184" lon="-0.48827">
        <ele>62</ele>
        <time>2012-10-25T15:13:06Z</time>
      </trkpt>
      <trkpt lat="46.33191" lon="-0.48824">
        <ele>63</ele>
        <time>2012-10-25T15:13:11Z</time>
      </trkpt>
      <trkpt lat="46.332" lon="-0.48822">
        <ele>62</ele>
        <time>2012-10-25T15:13:16Z</time>
      </trkpt>
      <trkpt lat="46.33206" lon="-0.4882">
        <ele>62</ele>
        <time>2012-10-25T15:13:21Z</time>
      </trkpt>
      <trkpt lat="46.33213" lon="-0.48818">
        <ele>62</ele>
        <time>2012-10-25T15:13:26Z</time>
      </trkpt>
      <trkpt lat="46.33218" lon="-0.48816">
        <ele>62</ele>
        <time>2012-10-25T15:13:31Z</time>
      </trkpt>
      <trkpt lat="46.33222" lon="-0.48815">
        <ele>62</ele>
        <time>2012-10-25T15:13:36Z</time>
      </trkpt>
      <trkpt lat="46.33227" lon="-0.48812">
        <ele>62</ele>
        <time>2012-10-25T15:13:41Z</time>
      </trkpt>
      <trkpt lat="46.33232" lon="-0.48811">
        <ele>62</ele>
        <time>2012-10-25T15:13:46Z</time>
      </trkpt>
      <trkpt lat="46.33238" lon="-0.48807">
        <ele>63</ele>
        <time>2012-10-25T15:13:51Z</time>
      </trkpt>
      <trkpt lat="46.33241" lon="-0.48804">
        <ele>61</ele>
        <time>2012-10-25T15:13:56Z</time>
      </trkpt>
      <trkpt lat="46.33245" lon="-0.48801">
        <ele>60</ele>
        <time>2012-10-25T15:14:01Z</time>
      </trkpt>
      <trkpt lat="46.3325" lon="-0.488">
        <ele>61</ele>
        <time>2012-10-25T15:14:06Z</time>
      </trkpt>
      <trkpt lat="46.33254" lon="-0.48797">
        <ele>60</ele>
        <time>2012-10-25T15:14:11Z</time>
      </trkpt>
      <trkpt lat="46.33255" lon="-0.48795">
        <ele>58</ele>
        <time>2012-10-25T15:14:16Z</time>
      </trkpt>
      <trkpt lat="46.33256" lon="-0.48795">
        <ele>57</ele>
        <time>2012-10-25T15:14:21Z</time>
      </trkpt>
      <trkpt lat="46.33258" lon="-0.48795">
        <ele>57</ele>
        <time>2012-10-25T15:14:26Z</time>
      </trkpt>
      <trkpt lat="46.33263" lon="-0.48793">
        <ele>58</ele>
        <time>2012-10-25T15:14:31Z</time>
      </trkpt>
      <trkpt lat="46.33271" lon="-0.48789">
        <ele>59</ele>
        <time>2012-10-25T15:14:36Z</time>
      </trkpt>
      <trkpt lat="46.33278" lon="-0.48787">
        <ele>59</ele>
        <time>2012-10-25T15:14:41Z</time>
      </trkpt>
      <trkpt lat="46.33284" lon="-0.48786">
        <ele>59</ele>
        <time>2012-10-25T15:14:46Z</time>
      </trkpt>
      <trkpt lat="46.3329" lon="-0.48784">
        <ele>60</ele>
        <time>2012-10-25T15:14:51Z</time>
      </trkpt>
      <trkpt lat="46.33296" lon="-0.48781">
        <ele>59</ele>
        <time>2012-10-25T15:14:56Z</time>
      </trkpt>
      <trkpt lat="46.33299" lon="-0.48778">
        <ele>58</ele>
        <time>2012-10-25T15:15:01Z</time>
      </trkpt>
      <trkpt lat="46.33302" lon="-0.48777">
        <ele>57</ele>
        <time>2012-10-25T15:15:06Z</time>
      </trkpt>
      <trkpt lat="46.33308" lon="-0.48775">
        <ele>56</ele>
        <time>2012-10-25T15:15:11Z</time>
      </trkpt>
      <trkpt lat="46.33314" lon="-0.48773">
        <ele>56</ele>
        <time>2012-10-25T15:15:16Z</time>
      </trkpt>
      <trkpt lat="46.3332" lon="-0.48772">
        <ele>57</ele>
        <time>2012-10-25T15:15:21Z</time>
      </trkpt>
      <trkpt lat="46.33325" lon="-0.48772">
        <ele>57</ele>
        <time>2012-10-25T15:15:26Z</time>
      </trkpt>
      <trkpt lat="46.33328" lon="-0.4877">
        <ele>56</ele>
        <time>2012-10-25T15:15:31Z</time>
      </trkpt>
      <trkpt lat="46.33332" lon="-0.48767">
        <ele>56</ele>
        <time>2012-10-25T15:15:36Z</time>
      </trkpt>
      <trkpt lat="46.33336" lon="-0.48765">
        <ele>57</ele>
        <time>2012-10-25T15:15:41Z</time>
      </trkpt>
      <trkpt lat="46.33343" lon="-0.48764">
        <ele>57</ele>
        <time>2012-10-25T15:15:46Z</time>
      </trkpt>
      <trkpt lat="46.33347" lon="-0.48763">
        <ele>58</ele>
        <time>2012-10-25T15:15:51Z</time>
      </trkpt>
      <trkpt lat="46.33351" lon="-0.48761">
        <ele>58</ele>
        <time>2012-10-25T15:15:56Z</time>
      </trkpt>
      <trkpt lat="46.33356" lon="-0.48759">
        <ele>57</ele>
        <time>2012-10-25T15:16:01Z</time>
      </trkpt>
      <trkpt lat="46.33362" lon="-0.48757">
        <ele>59</ele>
        <time>2012-10-25T15:16:06Z</time>
      </trkpt>
      <trkpt lat="46.33364" lon="-0.48756">
        <ele>58</ele>
        <time>2012-10-25T15:16:11Z</time>
      </trkpt>
      <trkpt lat="46.33365" lon="-0.48755">
        <ele>58</ele>
        <time>2012-10-25T15:16:16Z</time>
      </trkpt>
      <trkpt lat="46.33366" lon="-0.48754">
        <ele>58</ele>
        <time>2012-10-25T15:16:21Z</time>
      </trkpt>
      <trkpt lat="46.33373" lon="-0.48751">
        <ele>58</ele>
        <time>2012-10-25T15:16:26Z</time>
      </trkpt>
      <trkpt lat="46.33379" lon="-0.48752">
        <ele>59</ele>
        <time>2012-10-25T15:16:31Z</time>
      </trkpt>
      <trkpt lat="46.33384" lon="-0.4875">
        <ele>58</ele>
        <time>2012-10-25T15:16:36Z</time>
      </trkpt>
      <trkpt lat="46.33391" lon="-0.48747">
        <ele>58</ele>
        <time>2012-10-25T15:16:41Z</time>
      </trkpt>
      <trkpt lat="46.33397" lon="-0.48742">
        <ele>59</ele>
        <time>2012-10-25T15:16:46Z</time>
      </trkpt>
      <trkpt lat="46.33402" lon="-0.4874">
        <ele>58</ele>
        <time>2012-10-25T15:16:51Z</time>
      </trkpt>
      <trkpt lat="46.33407" lon="-0.48738">
        <ele>57</ele>
        <time>2012-10-25T15:16:56Z</time>
      </trkpt>
      <trkpt lat="46.33411" lon="-0.48735">
        <ele>56</ele>
        <time>2012-10-25T15:17:01Z</time>
      </trkpt>
      <trkpt lat="46.33418" lon="-0.48731">
        <ele>57</ele>
        <time>2012-10-25T15:17:06Z</time>
      </trkpt>
      <trkpt lat="46.33423" lon="-0.4873">
        <ele>58</ele>
        <time>2012-10-25T15:17:11Z</time>
      </trkpt>
      <trkpt lat="46.33428" lon="-0.48728">
        <ele>58</ele>
        <time>2012-10-25T15:17:16Z</time>
      </trkpt>
      <trkpt lat="46.33435" lon="-0.48727">
        <ele>57</ele>
        <time>2012-10-25T15:17:21Z</time>
      </trkpt>
      <trkpt lat="46.33441" lon="-0.48724">
        <ele>56</ele>
        <time>2012-10-25T15:17:26Z</time>
      </trkpt>
      <trkpt lat="46.33446" lon="-0.48721">
        <ele>56</ele>
        <time>2012-10-25T15:17:31Z</time>
      </trkpt>
      <trkpt lat="46.33452" lon="-0.4872">
        <ele>55</ele>
        <time>2012-10-25T15:17:36Z</time>
      </trkpt>
      <trkpt lat="46.33457" lon="-0.48719">
        <ele>56</ele>
        <time>2012-10-25T15:17:41Z</time>
      </trkpt>
      <trkpt lat="46.33464" lon="-0.48715">
        <ele>57</ele>
        <time>2012-10-25T15:17:46Z</time>
      </trkpt>
      <trkpt lat="46.33467" lon="-0.48713">
        <ele>56</ele>
        <time>2012-10-25T15:17:51Z</time>
      </trkpt>
      <trkpt lat="46.33476" lon="-0.48708">
        <ele>55</ele>
        <time>2012-10-25T15:17:56Z</time>
      </trkpt>
      <trkpt lat="46.33482" lon="-0.48707">
        <ele>56</ele>
        <time>2012-10-25T15:18:01Z</time>
      </trkpt>
      <trkpt lat="46.33487" lon="-0.48705">
        <ele>57</ele>
        <time>2012-10-25T15:18:06Z</time>
      </trkpt>
      <trkpt lat="46.33495" lon="-0.48704">
        <ele>59</ele>
        <time>2012-10-25T15:18:11Z</time>
      </trkpt>
      <trkpt lat="46.33499" lon="-0.48702">
        <ele>60</ele>
        <time>2012-10-25T15:18:16Z</time>
      </trkpt>
      <trkpt lat="46.33503" lon="-0.487">
        <ele>59</ele>
        <time>2012-10-25T15:18:21Z</time>
      </trkpt>
      <trkpt lat="46.33508" lon="-0.48699">
        <ele>59</ele>
        <time>2012-10-25T15:18:26Z</time>
      </trkpt>
      <trkpt lat="46.33513" lon="-0.48697">
        <ele>58</ele>
        <time>2012-10-25T15:18:31Z</time>
      </trkpt>
      <trkpt lat="46.33519" lon="-0.48694">
        <ele>57</ele>
        <time>2012-10-25T15:18:36Z</time>
      </trkpt>
      <trkpt lat="46.33525" lon="-0.48692">
        <ele>56</ele>
        <time>2012-10-25T15:18:41Z</time>
      </trkpt>
      <trkpt lat="46.33531" lon="-0.48689">
        <ele>58</ele>
        <time>2012-10-25T15:18:46Z</time>
      </trkpt>
      <trkpt lat="46.33535" lon="-0.48689">
        <ele>58</ele>
        <time>2012-10-25T15:18:51Z</time>
      </trkpt>
      <trkpt lat="46.33541" lon="-0.48686">
        <ele>58</ele>
        <time>2012-10-25T15:18:56Z</time>
      </trkpt>
      <trkpt lat="46.33546" lon="-0.48684">
        <ele>59</ele>
        <time>2012-10-25T15:19:01Z</time>
      </trkpt>
      <trkpt lat="46.3355" lon="-0.48682">
        <ele>59</ele>
        <time>2012-10-25T15:19:06Z</time>
      </trkpt>
      <trkpt lat="46.33556" lon="-0.48679">
        <ele>60</ele>
        <time>2012-10-25T15:19:11Z</time>
      </trkpt>
      <trkpt lat="46.3356" lon="-0.48676">
        <ele>59</ele>
        <time>2012-10-25T15:19:16Z</time>
      </trkpt>
      <trkpt lat="46.33564" lon="-0.48672">
        <ele>59</ele>
        <time>2012-10-25T15:19:21Z</time>
      </trkpt>
      <trkpt lat="46.33565" lon="-0.48664">
        <ele>57</ele>
        <time>2012-10-25T15:19:26Z</time>
      </trkpt>
      <trkpt lat="46.33567" lon="-0.48657">
        <ele>58</ele>
        <time>2012-10-25T15:19:31Z</time>
      </trkpt>
      <trkpt lat="46.3357" lon="-0.48655">
        <ele>57</ele>
        <time>2012-10-25T15:19:36Z</time>
      </trkpt>
      <trkpt lat="46.33571" lon="-0.48654">
        <ele>58</ele>
        <time>2012-10-25T15:19:46Z</time>
      </trkpt>
      <trkpt lat="46.33576" lon="-0.48647">
        <ele>58</ele>
        <time>2012-10-25T15:19:51Z</time>
      </trkpt>
      <trkpt lat="46.33582" lon="-0.4864">
        <ele>58</ele>
        <time>2012-10-25T15:19:56Z</time>
      </trkpt>
      <trkpt lat="46.33584" lon="-0.48632">
        <ele>58</ele>
        <time>2012-10-25T15:20:01Z</time>
      </trkpt>
      <trkpt lat="46.33585" lon="-0.48624">
        <ele>58</ele>
        <time>2012-10-25T15:20:06Z</time>
      </trkpt>
      <trkpt lat="46.33585" lon="-0.48615">
        <ele>58</ele>
        <time>2012-10-25T15:20:11Z</time>
      </trkpt>
      <trkpt lat="46.33586" lon="-0.48606">
        <ele>58</ele>
        <time>2012-10-25T15:20:16Z</time>
      </trkpt>
      <trkpt lat="46.33587" lon="-0.48598">
        <ele>58</ele>
        <time>2012-10-25T15:20:21Z</time>
      </trkpt>
      <trkpt lat="46.3359" lon="-0.48591">
        <ele>57</ele>
        <time>2012-10-25T15:20:26Z</time>
      </trkpt>
      <trkpt lat="46.3359" lon="-0.4858">
        <ele>55</ele>
        <time>2012-10-25T15:20:31Z</time>
      </trkpt>
      <trkpt lat="46.33593" lon="-0.48574">
        <ele>55</ele>
        <time>2012-10-25T15:20:36Z</time>
      </trkpt>
      <trkpt lat="46.33592" lon="-0.48559">
        <ele>55</ele>
        <time>2012-10-25T15:20:41Z</time>
      </trkpt>
      <trkpt lat="46.33593" lon="-0.48551">
        <ele>55</ele>
        <time>2012-10-25T15:20:46Z</time>
      </trkpt>
      <trkpt lat="46.33595" lon="-0.48543">
        <ele>57</ele>
        <time>2012-10-25T15:20:51Z</time>
      </trkpt>
      <trkpt lat="46.33595" lon="-0.48535">
        <ele>55</ele>
        <time>2012-10-25T15:20:56Z</time>
      </trkpt>
      <trkpt lat="46.33597" lon="-0.48527">
        <ele>55</ele>
        <time>2012-10-25T15:21:01Z</time>
      </trkpt>
      <trkpt lat="46.33596" lon="-0.48517">
        <ele>55</ele>
        <time>2012-10-25T15:21:06Z</time>
      </trkpt>
      <trkpt lat="46.33597" lon="-0.4851">
        <ele>56</ele>
        <time>2012-10-25T15:21:11Z</time>
      </trkpt>
      <trkpt lat="46.33598" lon="-0.48499">
        <ele>56</ele>
        <time>2012-10-25T15:21:16Z</time>
      </trkpt>
      <trkpt lat="46.33599" lon="-0.48489">
        <ele>56</ele>
        <time>2012-10-25T15:21:21Z</time>
      </trkpt>
      <trkpt lat="46.336" lon="-0.48485">
        <ele>57</ele>
        <time>2012-10-25T15:21:26Z</time>
      </trkpt>
      <trkpt lat="46.33604" lon="-0.48474">
        <ele>60</ele>
        <time>2012-10-25T15:21:31Z</time>
      </trkpt>
      <trkpt lat="46.33605" lon="-0.48469">
        <ele>60</ele>
        <time>2012-10-25T15:21:36Z</time>
      </trkpt>
      <trkpt lat="46.33604" lon="-0.48462">
        <ele>59</ele>
        <time>2012-10-25T15:21:41Z</time>
      </trkpt>
      <trkpt lat="46.33602" lon="-0.48451">
        <ele>59</ele>
        <time>2012-10-25T15:21:46Z</time>
      </trkpt>
      <trkpt lat="46.33604" lon="-0.48444">
        <ele>58</ele>
        <time>2012-10-25T15:21:51Z</time>
      </trkpt>
      <trkpt lat="46.33606" lon="-0.48439">
        <ele>60</ele>
        <time>2012-10-25T15:21:56Z</time>
      </trkpt>
      <trkpt lat="46.33608" lon="-0.48432">
        <ele>59</ele>
        <time>2012-10-25T15:22:01Z</time>
      </trkpt>
      <trkpt lat="46.3361" lon="-0.48431">
        <ele>59</ele>
        <time>2012-10-25T15:22:06Z</time>
      </trkpt>
      <trkpt lat="46.33612" lon="-0.48419">
        <ele>60</ele>
        <time>2012-10-25T15:22:11Z</time>
      </trkpt>
      <trkpt lat="46.33613" lon="-0.48413">
        <ele>59</ele>
        <time>2012-10-25T15:22:16Z</time>
      </trkpt>
      <trkpt lat="46.33613" lon="-0.48405">
        <ele>59</ele>
        <time>2012-10-25T15:22:21Z</time>
      </trkpt>
      <trkpt lat="46.33611" lon="-0.48396">
        <ele>59</ele>
        <time>2012-10-25T15:22:26Z</time>
      </trkpt>
      <trkpt lat="46.3361" lon="-0.48386">
        <ele>58</ele>
        <time>2012-10-25T15:22:31Z</time>
      </trkpt>
      <trkpt lat="46.33611" lon="-0.48381">
        <ele>58</ele>
        <time>2012-10-25T15:22:36Z</time>
      </trkpt>
      <trkpt lat="46.33612" lon="-0.48373">
        <ele>57</ele>
        <time>2012-10-25T15:22:41Z</time>
      </trkpt>
      <trkpt lat="46.33613" lon="-0.48363">
        <ele>58</ele>
        <time>2012-10-25T15:22:46Z</time>
      </trkpt>
      <trkpt lat="46.33614" lon="-0.48355">
        <ele>59</ele>
        <time>2012-10-25T15:22:51Z</time>
      </trkpt>
      <trkpt lat="46.33613" lon="-0.48349">
        <ele>59</ele>
        <time>2012-10-25T15:22:56Z</time>
      </trkpt>
      <trkpt lat="46.33615" lon="-0.48345">
        <ele>60</ele>
        <time>2012-10-25T15:23:01Z</time>
      </trkpt>
      <trkpt lat="46.33615" lon="-0.4834">
        <ele>60</ele>
        <time>2012-10-25T15:23:06Z</time>
      </trkpt>
      <trkpt lat="46.33615" lon="-0.48335">
        <ele>60</ele>
        <time>2012-10-25T15:23:11Z</time>
      </trkpt>
      <trkpt lat="46.33613" lon="-0.48321">
        <ele>60</ele>
        <time>2012-10-25T15:23:16Z</time>
      </trkpt>
      <trkpt lat="46.33615" lon="-0.48315">
        <ele>59</ele>
        <time>2012-10-25T15:23:21Z</time>
      </trkpt>
      <trkpt lat="46.33617" lon="-0.48303">
        <ele>62</ele>
        <time>2012-10-25T15:23:26Z</time>
      </trkpt>
      <trkpt lat="46.33613" lon="-0.48294">
        <ele>62</ele>
        <time>2012-10-25T15:23:31Z</time>
      </trkpt>
      <trkpt lat="46.33613" lon="-0.48287">
        <ele>59</ele>
        <time>2012-10-25T15:23:36Z</time>
      </trkpt>
      <trkpt lat="46.33614" lon="-0.48278">
        <ele>58</ele>
        <time>2012-10-25T15:23:41Z</time>
      </trkpt>
      <trkpt lat="46.33614" lon="-0.48272">
        <ele>57</ele>
        <time>2012-10-25T15:23:46Z</time>
      </trkpt>
      <trkpt lat="46.33614" lon="-0.48268">
        <ele>56</ele>
        <time>2012-10-25T15:23:51Z</time>
      </trkpt>
      <trkpt lat="46.33614" lon="-0.48255">
        <ele>56</ele>
        <time>2012-10-25T15:23:56Z</time>
      </trkpt>
      <trkpt lat="46.33615" lon="-0.48244">
        <ele>58</ele>
        <time>2012-10-25T15:24:01Z</time>
      </trkpt>
      <trkpt lat="46.33612" lon="-0.48232">
        <ele>58</ele>
        <time>2012-10-25T15:24:06Z</time>
      </trkpt>
      <trkpt lat="46.33611" lon="-0.48228">
        <ele>56</ele>
        <time>2012-10-25T15:24:11Z</time>
      </trkpt>
      <trkpt lat="46.33613" lon="-0.4822">
        <ele>56</ele>
        <time>2012-10-25T15:24:16Z</time>
      </trkpt>
      <trkpt lat="46.33612" lon="-0.48212">
        <ele>55</ele>
        <time>2012-10-25T15:24:21Z</time>
      </trkpt>
      <trkpt lat="46.3361" lon="-0.48206">
        <ele>55</ele>
        <time>2012-10-25T15:24:26Z</time>
      </trkpt>
      <trkpt lat="46.33613" lon="-0.48201">
        <ele>56</ele>
        <time>2012-10-25T15:24:31Z</time>
      </trkpt>
      <trkpt lat="46.33616" lon="-0.48199">
        <ele>55</ele>
        <time>2012-10-25T15:24:36Z</time>
      </trkpt>
      <trkpt lat="46.33622" lon="-0.48192">
        <ele>55</ele>
        <time>2012-10-25T15:24:41Z</time>
      </trkpt>
      <trkpt lat="46.3362" lon="-0.48189">
        <ele>54</ele>
        <time>2012-10-25T15:24:46Z</time>
      </trkpt>
      <trkpt lat="46.33619" lon="-0.48182">
        <ele>53</ele>
        <time>2012-10-25T15:24:51Z</time>
      </trkpt>
      <trkpt lat="46.33617" lon="-0.48175">
        <ele>53</ele>
        <time>2012-10-25T15:24:56Z</time>
      </trkpt>
      <trkpt lat="46.33619" lon="-0.4817">
        <ele>52</ele>
        <time>2012-10-25T15:25:01Z</time>
      </trkpt>
      <trkpt lat="46.33618" lon="-0.48162">
        <ele>51</ele>
        <time>2012-10-25T15:25:06Z</time>
      </trkpt>
      <trkpt lat="46.33616" lon="-0.48158">
        <ele>52</ele>
        <time>2012-10-25T15:25:11Z</time>
      </trkpt>
      <trkpt lat="46.33615" lon="-0.48154">
        <ele>53</ele>
        <time>2012-10-25T15:25:16Z</time>
      </trkpt>
      <trkpt lat="46.33614" lon="-0.48146">
        <ele>52</ele>
        <time>2012-10-25T15:25:21Z</time>
      </trkpt>
      <trkpt lat="46.33615" lon="-0.48139">
        <ele>53</ele>
        <time>2012-10-25T15:25:26Z</time>
      </trkpt>
      <trkpt lat="46.33611" lon="-0.48129">
        <ele>52</ele>
        <time>2012-10-25T15:25:31Z</time>
      </trkpt>
      <trkpt lat="46.33609" lon="-0.48123">
        <ele>52</ele>
        <time>2012-10-25T15:25:36Z</time>
      </trkpt>
      <trkpt lat="46.33607" lon="-0.48112">
        <ele>57</ele>
        <time>2012-10-25T15:25:41Z</time>
      </trkpt>
      <trkpt lat="46.33605" lon="-0.481">
        <ele>56</ele>
        <time>2012-10-25T15:25:46Z</time>
      </trkpt>
      <trkpt lat="46.33601" lon="-0.48088">
        <ele>58</ele>
        <time>2012-10-25T15:25:51Z</time>
      </trkpt>
      <trkpt lat="46.33599" lon="-0.48077">
        <ele>58</ele>
        <time>2012-10-25T15:25:56Z</time>
      </trkpt>
      <trkpt lat="46.33597" lon="-0.48069">
        <ele>59</ele>
        <time>2012-10-25T15:26:01Z</time>
      </trkpt>
      <trkpt lat="46.33593" lon="-0.48063">
        <ele>58</ele>
        <time>2012-10-25T15:26:06Z</time>
      </trkpt>
      <trkpt lat="46.33588" lon="-0.48057">
        <ele>58</ele>
        <time>2012-10-25T15:26:11Z</time>
      </trkpt>
      <trkpt lat="46.33586" lon="-0.48052">
        <ele>58</ele>
        <time>2012-10-25T15:26:16Z</time>
      </trkpt>
      <trkpt lat="46.33584" lon="-0.48049">
        <ele>58</ele>
        <time>2012-10-25T15:26:21Z</time>
      </trkpt>
      <trkpt lat="46.33583" lon="-0.48043">
        <ele>56</ele>
        <time>2012-10-25T15:26:26Z</time>
      </trkpt>
      <trkpt lat="46.33582" lon="-0.48038">
        <ele>56</ele>
        <time>2012-10-25T15:26:31Z</time>
      </trkpt>
      <trkpt lat="46.33576" lon="-0.48031">
        <ele>57</ele>
        <time>2012-10-25T15:26:36Z</time>
      </trkpt>
      <trkpt lat="46.33573" lon="-0.48026">
        <ele>56</ele>
        <time>2012-10-25T15:26:41Z</time>
      </trkpt>
      <trkpt lat="46.33572" lon="-0.48027">
        <ele>56</ele>
        <time>2012-10-25T15:26:46Z</time>
      </trkpt>
      <trkpt lat="46.33569" lon="-0.48021">
        <ele>57</ele>
        <time>2012-10-25T15:26:51Z</time>
      </trkpt>
      <trkpt lat="46.33565" lon="-0.48014">
        <ele>56</ele>
        <time>2012-10-25T15:26:56Z</time>
      </trkpt>
      <trkpt lat="46.33559" lon="-0.48003">
        <ele>54</ele>
        <time>2012-10-25T15:27:01Z</time>
      </trkpt>
      <trkpt lat="46.33552" lon="-0.48">
        <ele>55</ele>
        <time>2012-10-25T15:27:06Z</time>
      </trkpt>
      <trkpt lat="46.33548" lon="-0.47995">
        <ele>54</ele>
        <time>2012-10-25T15:27:11Z</time>
      </trkpt>
      <trkpt lat="46.33544" lon="-0.47992">
        <ele>54</ele>
        <time>2012-10-25T15:27:16Z</time>
      </trkpt>
      <trkpt lat="46.3354" lon="-0.47991">
        <ele>54</ele>
        <time>2012-10-25T15:27:21Z</time>
      </trkpt>
      <trkpt lat="46.33536" lon="-0.47989">
        <ele>53</ele>
        <time>2012-10-25T15:27:26Z</time>
      </trkpt>
      <trkpt lat="46.33531" lon="-0.47986">
        <ele>54</ele>
        <time>2012-10-25T15:27:31Z</time>
      </trkpt>
      <trkpt lat="46.33526" lon="-0.47985">
        <ele>54</ele>
        <time>2012-10-25T15:27:36Z</time>
      </trkpt>
      <trkpt lat="46.33519" lon="-0.47983">
        <ele>54</ele>
        <time>2012-10-25T15:27:41Z</time>
      </trkpt>
      <trkpt lat="46.33515" lon="-0.47984">
        <ele>54</ele>
        <time>2012-10-25T15:27:46Z</time>
      </trkpt>
      <trkpt lat="46.3351" lon="-0.4798">
        <ele>55</ele>
        <time>2012-10-25T15:27:51Z</time>
      </trkpt>
      <trkpt lat="46.33501" lon="-0.47975">
        <ele>54</ele>
        <time>2012-10-25T15:27:56Z</time>
      </trkpt>
      <trkpt lat="46.33497" lon="-0.47973">
        <ele>53</ele>
        <time>2012-10-25T15:28:01Z</time>
      </trkpt>
      <trkpt lat="46.33493" lon="-0.47975">
        <ele>52</ele>
        <time>2012-10-25T15:28:06Z</time>
      </trkpt>
      <trkpt lat="46.33488" lon="-0.47972">
        <ele>51</ele>
        <time>2012-10-25T15:28:11Z</time>
      </trkpt>
      <trkpt lat="46.33484" lon="-0.47973">
        <ele>50</ele>
        <time>2012-10-25T15:28:16Z</time>
      </trkpt>
      <trkpt lat="46.33478" lon="-0.47966">
        <ele>53</ele>
        <time>2012-10-25T15:28:21Z</time>
      </trkpt>
      <trkpt lat="46.33475" lon="-0.47963">
        <ele>54</ele>
        <time>2012-10-25T15:28:26Z</time>
      </trkpt>
      <trkpt lat="46.33472" lon="-0.4796">
        <ele>55</ele>
        <time>2012-10-25T15:28:31Z</time>
      </trkpt>
      <trkpt lat="46.33467" lon="-0.47961">
        <ele>55</ele>
        <time>2012-10-25T15:28:36Z</time>
      </trkpt>
      <trkpt lat="46.33462" lon="-0.47961">
        <ele>56</ele>
        <time>2012-10-25T15:28:41Z</time>
      </trkpt>
      <trkpt lat="46.33454" lon="-0.4796">
        <ele>56</ele>
        <time>2012-10-25T15:28:46Z</time>
      </trkpt>
      <trkpt lat="46.3345" lon="-0.47962">
        <ele>57</ele>
        <time>2012-10-25T15:28:51Z</time>
      </trkpt>
      <trkpt lat="46.33445" lon="-0.47963">
        <ele>57</ele>
        <time>2012-10-25T15:28:56Z</time>
      </trkpt>
      <trkpt lat="46.33442" lon="-0.4796">
        <ele>57</ele>
        <time>2012-10-25T15:29:01Z</time>
      </trkpt>
      <trkpt lat="46.33441" lon="-0.47958">
        <ele>56</ele>
        <time>2012-10-25T15:29:06Z</time>
      </trkpt>
      <trkpt lat="46.3344" lon="-0.47956">
        <ele>56</ele>
        <time>2012-10-25T15:29:11Z</time>
      </trkpt>
      <trkpt lat="46.33441" lon="-0.47956">
        <ele>56</ele>
        <time>2012-10-25T15:29:16Z</time>
      </trkpt>
      <trkpt lat="46.33425" lon="-0.47961">
        <ele>53</ele>
        <time>2012-10-25T15:29:21Z</time>
      </trkpt>
      <trkpt lat="46.33417" lon="-0.4796">
        <ele>53</ele>
        <time>2012-10-25T15:29:26Z</time>
      </trkpt>
      <trkpt lat="46.33408" lon="-0.47953">
        <ele>55</ele>
        <time>2012-10-25T15:29:31Z</time>
      </trkpt>
      <trkpt lat="46.33401" lon="-0.47945">
        <ele>57</ele>
        <time>2012-10-25T15:29:36Z</time>
      </trkpt>
      <trkpt lat="46.33399" lon="-0.47946">
        <ele>57</ele>
        <time>2012-10-25T15:29:41Z</time>
      </trkpt>
      <trkpt lat="46.33395" lon="-0.47946">
        <ele>59</ele>
        <time>2012-10-25T15:29:46Z</time>
      </trkpt>
      <trkpt lat="46.33387" lon="-0.47942">
        <ele>61</ele>
        <time>2012-10-25T15:29:51Z</time>
      </trkpt>
      <trkpt lat="46.3338" lon="-0.47943">
        <ele>61</ele>
        <time>2012-10-25T15:29:56Z</time>
      </trkpt>
      <trkpt lat="46.33378" lon="-0.47942">
        <ele>61</ele>
        <time>2012-10-25T15:30:01Z</time>
      </trkpt>
      <trkpt lat="46.33373" lon="-0.47941">
        <ele>62</ele>
        <time>2012-10-25T15:30:06Z</time>
      </trkpt>
      <trkpt lat="46.33371" lon="-0.47939">
        <ele>62</ele>
        <time>2012-10-25T15:30:11Z</time>
      </trkpt>
      <trkpt lat="46.33367" lon="-0.47936">
        <ele>62</ele>
        <time>2012-10-25T15:30:16Z</time>
      </trkpt>
      <trkpt lat="46.33363" lon="-0.47936">
        <ele>61</ele>
        <time>2012-10-25T15:30:21Z</time>
      </trkpt>
      <trkpt lat="46.33355" lon="-0.47934">
        <ele>62</ele>
        <time>2012-10-25T15:30:26Z</time>
      </trkpt>
      <trkpt lat="46.33353" lon="-0.47934">
        <ele>61</ele>
        <time>2012-10-25T15:30:31Z</time>
      </trkpt>
      <trkpt lat="46.33345" lon="-0.47933">
        <ele>59</ele>
        <time>2012-10-25T15:30:36Z</time>
      </trkpt>
      <trkpt lat="46.33337" lon="-0.47936">
        <ele>57</ele>
        <time>2012-10-25T15:30:41Z</time>
      </trkpt>
      <trkpt lat="46.3333" lon="-0.47939">
        <ele>56</ele>
        <time>2012-10-25T15:30:46Z</time>
      </trkpt>
      <trkpt lat="46.33327" lon="-0.47939">
        <ele>55</ele>
        <time>2012-10-25T15:30:51Z</time>
      </trkpt>
      <trkpt lat="46.33321" lon="-0.47933">
        <ele>57</ele>
        <time>2012-10-25T15:30:56Z</time>
      </trkpt>
      <trkpt lat="46.33319" lon="-0.47933">
        <ele>56</ele>
        <time>2012-10-25T15:31:01Z</time>
      </trkpt>
      <trkpt lat="46.33317" lon="-0.47933">
        <ele>56</ele>
        <time>2012-10-25T15:31:06Z</time>
      </trkpt>
      <trkpt lat="46.33307" lon="-0.47938">
        <ele>55</ele>
        <time>2012-10-25T15:31:11Z</time>
      </trkpt>
      <trkpt lat="46.33298" lon="-0.4794">
        <ele>54</ele>
        <time>2012-10-25T15:31:16Z</time>
      </trkpt>
      <trkpt lat="46.33293" lon="-0.47941">
        <ele>51</ele>
        <time>2012-10-25T15:31:21Z</time>
      </trkpt>
      <trkpt lat="46.33285" lon="-0.47939">
        <ele>51</ele>
        <time>2012-10-25T15:31:26Z</time>
      </trkpt>
      <trkpt lat="46.33282" lon="-0.47935">
        <ele>53</ele>
        <time>2012-10-25T15:31:31Z</time>
      </trkpt>
      <trkpt lat="46.3328" lon="-0.47932">
        <ele>53</ele>
        <time>2012-10-25T15:31:36Z</time>
      </trkpt>
      <trkpt lat="46.33273" lon="-0.47929">
        <ele>54</ele>
        <time>2012-10-25T15:31:41Z</time>
      </trkpt>
      <trkpt lat="46.33273" lon="-0.47931">
        <ele>53</ele>
        <time>2012-10-25T15:31:46Z</time>
      </trkpt>
      <trkpt lat="46.33267" lon="-0.47929">
        <ele>54</ele>
        <time>2012-10-25T15:31:51Z</time>
      </trkpt>
      <trkpt lat="46.33259" lon="-0.47929">
        <ele>54</ele>
        <time>2012-10-25T15:31:56Z</time>
      </trkpt>
      <trkpt lat="46.33253" lon="-0.47929">
        <ele>54</ele>
        <time>2012-10-25T15:32:01Z</time>
      </trkpt>
      <trkpt lat="46.33246" lon="-0.47929">
        <ele>55</ele>
        <time>2012-10-25T15:32:06Z</time>
      </trkpt>
      <trkpt lat="46.33242" lon="-0.47931">
        <ele>55</ele>
        <time>2012-10-25T15:32:11Z</time>
      </trkpt>
      <trkpt lat="46.33235" lon="-0.47931">
        <ele>56</ele>
        <time>2012-10-25T15:32:16Z</time>
      </trkpt>
      <trkpt lat="46.33228" lon="-0.47931">
        <ele>58</ele>
        <time>2012-10-25T15:32:21Z</time>
      </trkpt>
      <trkpt lat="46.33225" lon="-0.47928">
        <ele>59</ele>
        <time>2012-10-25T15:32:26Z</time>
      </trkpt>
      <trkpt lat="46.33224" lon="-0.47928">
        <ele>57</ele>
        <time>2012-10-25T15:32:31Z</time>
      </trkpt>
      <trkpt lat="46.33218" lon="-0.47931">
        <ele>57</ele>
        <time>2012-10-25T15:32:36Z</time>
      </trkpt>
      <trkpt lat="46.33209" lon="-0.47929">
        <ele>58</ele>
        <time>2012-10-25T15:32:41Z</time>
      </trkpt>
      <trkpt lat="46.33204" lon="-0.47929">
        <ele>58</ele>
        <time>2012-10-25T15:32:46Z</time>
      </trkpt>
      <trkpt lat="46.332" lon="-0.47931">
        <ele>58</ele>
        <time>2012-10-25T15:32:51Z</time>
      </trkpt>
      <trkpt lat="46.33195" lon="-0.47931">
        <ele>58</ele>
        <time>2012-10-25T15:32:56Z</time>
      </trkpt>
      <trkpt lat="46.33189" lon="-0.47931">
        <ele>59</ele>
        <time>2012-10-25T15:33:01Z</time>
      </trkpt>
      <trkpt lat="46.33183" lon="-0.47929">
        <ele>59</ele>
        <time>2012-10-25T15:33:06Z</time>
      </trkpt>
      <trkpt lat="46.33178" lon="-0.4793">
        <ele>58</ele>
        <time>2012-10-25T15:33:11Z</time>
      </trkpt>
      <trkpt lat="46.33173" lon="-0.47931">
        <ele>58</ele>
        <time>2012-10-25T15:33:16Z</time>
      </trkpt>
      <trkpt lat="46.33167" lon="-0.47926">
        <ele>59</ele>
        <time>2012-10-25T15:33:21Z</time>
      </trkpt>
      <trkpt lat="46.33161" lon="-0.47927">
        <ele>58</ele>
        <time>2012-10-25T15:33:26Z</time>
      </trkpt>
      <trkpt lat="46.33157" lon="-0.47928">
        <ele>57</ele>
        <time>2012-10-25T15:33:31Z</time>
      </trkpt>
      <trkpt lat="46.33152" lon="-0.47931">
        <ele>56</ele>
        <time>2012-10-25T15:33:36Z</time>
      </trkpt>
      <trkpt lat="46.33147" lon="-0.47932">
        <ele>57</ele>
        <time>2012-10-25T15:33:41Z</time>
      </trkpt>
      <trkpt lat="46.33137" lon="-0.47925">
        <ele>58</ele>
        <time>2012-10-25T15:33:46Z</time>
      </trkpt>
      <trkpt lat="46.33134" lon="-0.47927">
        <ele>58</ele>
        <time>2012-10-25T15:33:51Z</time>
      </trkpt>
      <trkpt lat="46.33129" lon="-0.47926">
        <ele>58</ele>
        <time>2012-10-25T15:33:56Z</time>
      </trkpt>
      <trkpt lat="46.33124" lon="-0.47924">
        <ele>56</ele>
        <time>2012-10-25T15:34:01Z</time>
      </trkpt>
      <trkpt lat="46.3312" lon="-0.47924">
        <ele>56</ele>
        <time>2012-10-25T15:34:06Z</time>
      </trkpt>
      <trkpt lat="46.33115" lon="-0.47924">
        <ele>56</ele>
        <time>2012-10-25T15:34:11Z</time>
      </trkpt>
      <trkpt lat="46.33112" lon="-0.47922">
        <ele>55</ele>
        <time>2012-10-25T15:34:16Z</time>
      </trkpt>
      <trkpt lat="46.33105" lon="-0.47924">
        <ele>56</ele>
        <time>2012-10-25T15:34:21Z</time>
      </trkpt>
      <trkpt lat="46.33102" lon="-0.47924">
        <ele>56</ele>
        <time>2012-10-25T15:34:26Z</time>
      </trkpt>
      <trkpt lat="46.33101" lon="-0.47922">
        <ele>56</ele>
        <time>2012-10-25T15:34:31Z</time>
      </trkpt>
      <trkpt lat="46.33096" lon="-0.47924">
        <ele>54</ele>
        <time>2012-10-25T15:34:36Z</time>
      </trkpt>
      <trkpt lat="46.33093" lon="-0.47925">
        <ele>55</ele>
        <time>2012-10-25T15:34:41Z</time>
      </trkpt>
      <trkpt lat="46.33089" lon="-0.47925">
        <ele>56</ele>
        <time>2012-10-25T15:34:46Z</time>
      </trkpt>
      <trkpt lat="46.33083" lon="-0.47926">
        <ele>55</ele>
        <time>2012-10-25T15:34:51Z</time>
      </trkpt>
      <trkpt lat="46.33078" lon="-0.47926">
        <ele>56</ele>
        <time>2012-10-25T15:34:56Z</time>
      </trkpt>
      <trkpt lat="46.33076" lon="-0.47926">
        <ele>55</ele>
        <time>2012-10-25T15:35:01Z</time>
      </trkpt>
      <trkpt lat="46.33075" lon="-0.47927">
        <ele>56</ele>
        <time>2012-10-25T15:35:06Z</time>
      </trkpt>
      <trkpt lat="46.33074" lon="-0.47927">
        <ele>56</ele>
        <time>2012-10-25T15:35:11Z</time>
      </trkpt>
      <trkpt lat="46.33064" lon="-0.4793">
        <ele>55</ele>
        <time>2012-10-25T15:35:16Z</time>
      </trkpt>
      <trkpt lat="46.33057" lon="-0.47932">
        <ele>54</ele>
        <time>2012-10-25T15:35:21Z</time>
      </trkpt>
      <trkpt lat="46.3305" lon="-0.47932">
        <ele>53</ele>
        <time>2012-10-25T15:35:26Z</time>
      </trkpt>
      <trkpt lat="46.33046" lon="-0.47932">
        <ele>51</ele>
        <time>2012-10-25T15:35:31Z</time>
      </trkpt>
      <trkpt lat="46.33042" lon="-0.47932">
        <ele>51</ele>
        <time>2012-10-25T15:35:36Z</time>
      </trkpt>
      <trkpt lat="46.33036" lon="-0.47933">
        <ele>49</ele>
        <time>2012-10-25T15:35:41Z</time>
      </trkpt>
      <trkpt lat="46.3303" lon="-0.47934">
        <ele>51</ele>
        <time>2012-10-25T15:35:46Z</time>
      </trkpt>
      <trkpt lat="46.33025" lon="-0.47936">
        <ele>51</ele>
        <time>2012-10-25T15:35:51Z</time>
      </trkpt>
      <trkpt lat="46.33019" lon="-0.47938">
        <ele>52</ele>
        <time>2012-10-25T15:35:56Z</time>
      </trkpt>
      <trkpt lat="46.33013" lon="-0.47939">
        <ele>54</ele>
        <time>2012-10-25T15:36:01Z</time>
      </trkpt>
      <trkpt lat="46.33007" lon="-0.47939">
        <ele>56</ele>
        <time>2012-10-25T15:36:06Z</time>
      </trkpt>
      <trkpt lat="46.33001" lon="-0.4794">
        <ele>56</ele>
        <time>2012-10-25T15:36:11Z</time>
      </trkpt>
      <trkpt lat="46.32998" lon="-0.47941">
        <ele>54</ele>
        <time>2012-10-25T15:36:16Z</time>
      </trkpt>
      <trkpt lat="46.32993" lon="-0.47943">
        <ele>55</ele>
        <time>2012-10-25T15:36:21Z</time>
      </trkpt>
      <trkpt lat="46.32987" lon="-0.47944">
        <ele>56</ele>
        <time>2012-10-25T15:36:26Z</time>
      </trkpt>
      <trkpt lat="46.32982" lon="-0.47941">
        <ele>58</ele>
        <time>2012-10-25T15:36:31Z</time>
      </trkpt>
      <trkpt lat="46.3298" lon="-0.47932">
        <ele>60</ele>
        <time>2012-10-25T15:36:36Z</time>
      </trkpt>
      <trkpt lat="46.3298" lon="-0.47924">
        <ele>62</ele>
        <time>2012-10-25T15:36:41Z</time>
      </trkpt>
      <trkpt lat="46.32982" lon="-0.47919">
        <ele>62</ele>
        <time>2012-10-25T15:36:46Z</time>
      </trkpt>
      <trkpt lat="46.32984" lon="-0.47906">
        <ele>61</ele>
        <time>2012-10-25T15:36:51Z</time>
      </trkpt>
      <trkpt lat="46.32988" lon="-0.479">
        <ele>59</ele>
        <time>2012-10-25T15:36:56Z</time>
      </trkpt>
      <trkpt lat="46.32994" lon="-0.47897">
        <ele>60</ele>
        <time>2012-10-25T15:37:01Z</time>
      </trkpt>
      <trkpt lat="46.32995" lon="-0.47891">
        <ele>58</ele>
        <time>2012-10-25T15:37:06Z</time>
      </trkpt>
      <trkpt lat="46.32998" lon="-0.47888">
        <ele>58</ele>
        <time>2012-10-25T15:37:11Z</time>
      </trkpt>
      <trkpt lat="46.32998" lon="-0.47883">
        <ele>57</ele>
        <time>2012-10-25T15:37:16Z</time>
      </trkpt>
      <trkpt lat="46.32995" lon="-0.47882">
        <ele>56</ele>
        <time>2012-10-25T15:37:21Z</time>
      </trkpt>
      <trkpt lat="46.32993" lon="-0.47871">
        <ele>59</ele>
        <time>2012-10-25T15:37:26Z</time>
      </trkpt>
      <trkpt lat="46.32991" lon="-0.47869">
        <ele>58</ele>
        <time>2012-10-25T15:37:31Z</time>
      </trkpt>
      <trkpt lat="46.32988" lon="-0.47867">
        <ele>58</ele>
        <time>2012-10-25T15:37:36Z</time>
      </trkpt>
      <trkpt lat="46.32989" lon="-0.47864">
        <ele>57</ele>
        <time>2012-10-25T15:37:41Z</time>
      </trkpt>
      <trkpt lat="46.32989" lon="-0.47859">
        <ele>57</ele>
        <time>2012-10-25T15:37:46Z</time>
      </trkpt>
      <trkpt lat="46.32989" lon="-0.47852">
        <ele>59</ele>
        <time>2012-10-25T15:37:51Z</time>
      </trkpt>
      <trkpt lat="46.32989" lon="-0.4785">
        <ele>58</ele>
        <time>2012-10-25T15:37:56Z</time>
      </trkpt>
      <trkpt lat="46.32989" lon="-0.47843">
        <ele>56</ele>
        <time>2012-10-25T15:38:01Z</time>
      </trkpt>
      <trkpt lat="46.32989" lon="-0.47835">
        <ele>56</ele>
        <time>2012-10-25T15:38:06Z</time>
      </trkpt>
      <trkpt lat="46.32988" lon="-0.47831">
        <ele>57</ele>
        <time>2012-10-25T15:38:11Z</time>
      </trkpt>
      <trkpt lat="46.32986" lon="-0.47827">
        <ele>56</ele>
        <time>2012-10-25T15:38:16Z</time>
      </trkpt>
      <trkpt lat="46.32983" lon="-0.47823">
        <ele>55</ele>
        <time>2012-10-25T15:38:21Z</time>
      </trkpt>
      <trkpt lat="46.3298" lon="-0.47821">
        <ele>56</ele>
        <time>2012-10-25T15:38:26Z</time>
      </trkpt>
      <trkpt lat="46.3298" lon="-0.47821">
        <ele>56</ele>
        <time>2012-10-25T15:38:31Z</time>
      </trkpt>
      <trkpt lat="46.32979" lon="-0.47816">
        <ele>56</ele>
        <time>2012-10-25T15:38:36Z</time>
      </trkpt>
      <trkpt lat="46.32977" lon="-0.47813">
        <ele>56</ele>
        <time>2012-10-25T15:38:41Z</time>
      </trkpt>
      <trkpt lat="46.32977" lon="-0.47814">
        <ele>56</ele>
        <time>2012-10-25T15:38:46Z</time>
      </trkpt>
      <trkpt lat="46.32977" lon="-0.47813">
        <ele>56</ele>
        <time>2012-10-25T15:38:51Z</time>
      </trkpt>
      <trkpt lat="46.32974" lon="-0.4781">
        <ele>55</ele>
        <time>2012-10-25T15:39:11Z</time>
      </trkpt>
      <trkpt lat="46.32968" lon="-0.47807">
        <ele>56</ele>
        <time>2012-10-25T15:39:16Z</time>
      </trkpt>
      <trkpt lat="46.32967" lon="-0.47806">
        <ele>57</ele>
        <time>2012-10-25T15:39:21Z</time>
      </trkpt>
      <trkpt lat="46.32962" lon="-0.47803">
        <ele>56</ele>
        <time>2012-10-25T15:39:26Z</time>
      </trkpt>
      <trkpt lat="46.32956" lon="-0.47801">
        <ele>55</ele>
        <time>2012-10-25T15:39:31Z</time>
      </trkpt>
      <trkpt lat="46.32954" lon="-0.47799">
        <ele>55</ele>
        <time>2012-10-25T15:39:36Z</time>
      </trkpt>
      <trkpt lat="46.32951" lon="-0.47791">
        <ele>53</ele>
        <time>2012-10-25T15:39:41Z</time>
      </trkpt>
      <trkpt lat="46.32946" lon="-0.47792">
        <ele>52</ele>
        <time>2012-10-25T15:39:46Z</time>
      </trkpt>
      <trkpt lat="46.32942" lon="-0.47784">
        <ele>49</ele>
        <time>2012-10-25T15:39:51Z</time>
      </trkpt>
      <trkpt lat="46.32936" lon="-0.47781">
        <ele>49</ele>
        <time>2012-10-25T15:39:56Z</time>
      </trkpt>
      <trkpt lat="46.32931" lon="-0.47776">
        <ele>51</ele>
        <time>2012-10-25T15:40:01Z</time>
      </trkpt>
      <trkpt lat="46.32927" lon="-0.47767">
        <ele>54</ele>
        <time>2012-10-25T15:40:06Z</time>
      </trkpt>
      <trkpt lat="46.32924" lon="-0.47772">
        <ele>54</ele>
        <time>2012-10-25T15:40:11Z</time>
      </trkpt>
      <trkpt lat="46.32918" lon="-0.47775">
        <ele>55</ele>
        <time>2012-10-25T15:40:16Z</time>
      </trkpt>
      <trkpt lat="46.32912" lon="-0.47779">
        <ele>55</ele>
        <time>2012-10-25T15:40:21Z</time>
      </trkpt>
      <trkpt lat="46.32907" lon="-0.47779">
        <ele>54</ele>
        <time>2012-10-25T15:40:26Z</time>
      </trkpt>
      <trkpt lat="46.32905" lon="-0.47777">
        <ele>54</ele>
        <time>2012-10-25T15:40:31Z</time>
      </trkpt>
      <trkpt lat="46.32903" lon="-0.4777">
        <ele>54</ele>
        <time>2012-10-25T15:40:36Z</time>
      </trkpt>
      <trkpt lat="46.32897" lon="-0.47756">
        <ele>53</ele>
        <time>2012-10-25T15:40:41Z</time>
      </trkpt>
      <trkpt lat="46.32893" lon="-0.47751">
        <ele>54</ele>
        <time>2012-10-25T15:40:46Z</time>
      </trkpt>
      <trkpt lat="46.3289" lon="-0.47746">
        <ele>54</ele>
        <time>2012-10-25T15:40:51Z</time>
      </trkpt>
      <trkpt lat="46.32887" lon="-0.47736">
        <ele>55</ele>
        <time>2012-10-25T15:40:56Z</time>
      </trkpt>
      <trkpt lat="46.32884" lon="-0.47734">
        <ele>56</ele>
        <time>2012-10-25T15:41:01Z</time>
      </trkpt>
      <trkpt lat="46.32879" lon="-0.47721">
        <ele>58</ele>
        <time>2012-10-25T15:41:06Z</time>
      </trkpt>
      <trkpt lat="46.32872" lon="-0.47711">
        <ele>58</ele>
        <time>2012-10-25T15:41:11Z</time>
      </trkpt>
      <trkpt lat="46.32868" lon="-0.4771">
        <ele>59</ele>
        <time>2012-10-25T15:41:16Z</time>
      </trkpt>
      <trkpt lat="46.32862" lon="-0.4771">
        <ele>59</ele>
        <time>2012-10-25T15:41:21Z</time>
      </trkpt>
      <trkpt lat="46.32855" lon="-0.47709">
        <ele>58</ele>
        <time>2012-10-25T15:41:26Z</time>
      </trkpt>
      <trkpt lat="46.32852" lon="-0.4771">
        <ele>59</ele>
        <time>2012-10-25T15:41:31Z</time>
      </trkpt>
      <trkpt lat="46.32847" lon="-0.47709">
        <ele>59</ele>
        <time>2012-10-25T15:41:36Z</time>
      </trkpt>
      <trkpt lat="46.32841" lon="-0.47706">
        <ele>59</ele>
        <time>2012-10-25T15:41:41Z</time>
      </trkpt>
      <trkpt lat="46.32836" lon="-0.47705">
        <ele>59</ele>
        <time>2012-10-25T15:41:46Z</time>
      </trkpt>
      <trkpt lat="46.32831" lon="-0.47703">
        <ele>59</ele>
        <time>2012-10-25T15:41:51Z</time>
      </trkpt>
      <trkpt lat="46.32826" lon="-0.47701">
        <ele>58</ele>
        <time>2012-10-25T15:41:56Z</time>
      </trkpt>
      <trkpt lat="46.3282" lon="-0.47698">
        <ele>57</ele>
        <time>2012-10-25T15:42:01Z</time>
      </trkpt>
      <trkpt lat="46.32815" lon="-0.47695">
        <ele>56</ele>
        <time>2012-10-25T15:42:06Z</time>
      </trkpt>
      <trkpt lat="46.3281" lon="-0.47692">
        <ele>57</ele>
        <time>2012-10-25T15:42:11Z</time>
      </trkpt>
      <trkpt lat="46.32805" lon="-0.47689">
        <ele>57</ele>
        <time>2012-10-25T15:42:16Z</time>
      </trkpt>
      <trkpt lat="46.328" lon="-0.47686">
        <ele>57</ele>
        <time>2012-10-25T15:42:21Z</time>
      </trkpt>
      <trkpt lat="46.32797" lon="-0.47683">
        <ele>57</ele>
        <time>2012-10-25T15:42:26Z</time>
      </trkpt>
      <trkpt lat="46.32793" lon="-0.47678">
        <ele>58</ele>
        <time>2012-10-25T15:42:31Z</time>
      </trkpt>
      <trkpt lat="46.32789" lon="-0.47674">
        <ele>58</ele>
        <time>2012-10-25T15:42:36Z</time>
      </trkpt>
      <trkpt lat="46.32784" lon="-0.47669">
        <ele>58</ele>
        <time>2012-10-25T15:42:41Z</time>
      </trkpt>
      <trkpt lat="46.3278" lon="-0.47664">
        <ele>58</ele>
        <time>2012-10-25T15:42:46Z</time>
      </trkpt>
      <trkpt lat="46.32776" lon="-0.47658">
        <ele>58</ele>
        <time>2012-10-25T15:42:51Z</time>
      </trkpt>
      <trkpt lat="46.32773" lon="-0.47653">
        <ele>58</ele>
        <time>2012-10-25T15:42:56Z</time>
      </trkpt>
      <trkpt lat="46.32768" lon="-0.47647">
        <ele>58</ele>
        <time>2012-10-25T15:43:01Z</time>
      </trkpt>
      <trkpt lat="46.32765" lon="-0.47641">
        <ele>58</ele>
        <time>2012-10-25T15:43:06Z</time>
      </trkpt>
      <trkpt lat="46.32761" lon="-0.47634">
        <ele>58</ele>
        <time>2012-10-25T15:43:11Z</time>
      </trkpt>
      <trkpt lat="46.32757" lon="-0.47628">
        <ele>58</ele>
        <time>2012-10-25T15:43:16Z</time>
      </trkpt>
      <trkpt lat="46.32753" lon="-0.47623">
        <ele>58</ele>
        <time>2012-10-25T15:43:21Z</time>
      </trkpt>
      <trkpt lat="46.32748" lon="-0.4762">
        <ele>58</ele>
        <time>2012-10-25T15:43:26Z</time>
      </trkpt>
      <trkpt lat="46.32744" lon="-0.47616">
        <ele>58</ele>
        <time>2012-10-25T15:43:31Z</time>
      </trkpt>
      <trkpt lat="46.3274" lon="-0.47612">
        <ele>58</ele>
        <time>2012-10-25T15:43:36Z</time>
      </trkpt>
      <trkpt lat="46.32735" lon="-0.47608">
        <ele>56</ele>
        <time>2012-10-25T15:43:41Z</time>
      </trkpt>
      <trkpt lat="46.32731" lon="-0.47603">
        <ele>56</ele>
        <time>2012-10-25T15:43:46Z</time>
      </trkpt>
      <trkpt lat="46.32728" lon="-0.47599">
        <ele>57</ele>
        <time>2012-10-25T15:43:51Z</time>
      </trkpt>
      <trkpt lat="46.32722" lon="-0.47594">
        <ele>56</ele>
        <time>2012-10-25T15:43:56Z</time>
      </trkpt>
      <trkpt lat="46.32717" lon="-0.47591">
        <ele>55</ele>
        <time>2012-10-25T15:44:01Z</time>
      </trkpt>
      <trkpt lat="46.32711" lon="-0.47592">
        <ele>55</ele>
        <time>2012-10-25T15:44:06Z</time>
      </trkpt>
      <trkpt lat="46.32705" lon="-0.47591">
        <ele>54</ele>
        <time>2012-10-25T15:44:11Z</time>
      </trkpt>
      <trkpt lat="46.32699" lon="-0.47587">
        <ele>53</ele>
        <time>2012-10-25T15:44:16Z</time>
      </trkpt>
      <trkpt lat="46.32692" lon="-0.47582">
        <ele>53</ele>
        <time>2012-10-25T15:44:21Z</time>
      </trkpt>
      <trkpt lat="46.32687" lon="-0.47576">
        <ele>53</ele>
        <time>2012-10-25T15:44:26Z</time>
      </trkpt>
      <trkpt lat="46.32683" lon="-0.4757">
        <ele>53</ele>
        <time>2012-10-25T15:44:31Z</time>
      </trkpt>
      <trkpt lat="46.32677" lon="-0.47568">
        <ele>53</ele>
        <time>2012-10-25T15:44:36Z</time>
      </trkpt>
      <trkpt lat="46.32668" lon="-0.4756">
        <ele>53</ele>
        <time>2012-10-25T15:44:41Z</time>
      </trkpt>
      <trkpt lat="46.32663" lon="-0.47558">
        <ele>53</ele>
        <time>2012-10-25T15:44:46Z</time>
      </trkpt>
      <trkpt lat="46.32657" lon="-0.47555">
        <ele>55</ele>
        <time>2012-10-25T15:44:51Z</time>
      </trkpt>
      <trkpt lat="46.32651" lon="-0.4755">
        <ele>54</ele>
        <time>2012-10-25T15:44:56Z</time>
      </trkpt>
      <trkpt lat="46.32647" lon="-0.47546">
        <ele>55</ele>
        <time>2012-10-25T15:45:01Z</time>
      </trkpt>
      <trkpt lat="46.32642" lon="-0.4755">
        <ele>53</ele>
        <time>2012-10-25T15:45:06Z</time>
      </trkpt>
      <trkpt lat="46.32636" lon="-0.47549">
        <ele>53</ele>
        <time>2012-10-25T15:45:11Z</time>
      </trkpt>
      <trkpt lat="46.32631" lon="-0.47545">
        <ele>53</ele>
        <time>2012-10-25T15:45:16Z</time>
      </trkpt>
      <trkpt lat="46.32628" lon="-0.4754">
        <ele>55</ele>
        <time>2012-10-25T15:45:21Z</time>
      </trkpt>
      <trkpt lat="46.32625" lon="-0.47537">
        <ele>55</ele>
        <time>2012-10-25T15:45:26Z</time>
      </trkpt>
      <trkpt lat="46.32618" lon="-0.47535">
        <ele>54</ele>
        <time>2012-10-25T15:45:31Z</time>
      </trkpt>
      <trkpt lat="46.32611" lon="-0.47532">
        <ele>54</ele>
        <time>2012-10-25T15:45:36Z</time>
      </trkpt>
      <trkpt lat="46.32605" lon="-0.47534">
        <ele>53</ele>
        <time>2012-10-25T15:45:41Z</time>
      </trkpt>
      <trkpt lat="46.326" lon="-0.47529">
        <ele>52</ele>
        <time>2012-10-25T15:45:46Z</time>
      </trkpt>
      <trkpt lat="46.32594" lon="-0.47529">
        <ele>53</ele>
        <time>2012-10-25T15:45:51Z</time>
      </trkpt>
      <trkpt lat="46.3259" lon="-0.47532">
        <ele>52</ele>
        <time>2012-10-25T15:45:56Z</time>
      </trkpt>
      <trkpt lat="46.32584" lon="-0.47529">
        <ele>52</ele>
        <time>2012-10-25T15:46:01Z</time>
      </trkpt>
      <trkpt lat="46.32578" lon="-0.4752">
        <ele>55</ele>
        <time>2012-10-25T15:46:06Z</time>
      </trkpt>
      <trkpt lat="46.32574" lon="-0.47514">
        <ele>55</ele>
        <time>2012-10-25T15:46:11Z</time>
      </trkpt>
      <trkpt lat="46.3257" lon="-0.4751">
        <ele>55</ele>
        <time>2012-10-25T15:46:16Z</time>
      </trkpt>
      <trkpt lat="46.32567" lon="-0.47505">
        <ele>55</ele>
        <time>2012-10-25T15:46:21Z</time>
      </trkpt>
      <trkpt lat="46.32563" lon="-0.47501">
        <ele>53</ele>
        <time>2012-10-25T15:46:26Z</time>
      </trkpt>
      <trkpt lat="46.3256" lon="-0.47494">
        <ele>53</ele>
        <time>2012-10-25T15:46:31Z</time>
      </trkpt>
      <trkpt lat="46.32559" lon="-0.47489">
        <ele>53</ele>
        <time>2012-10-25T15:46:36Z</time>
      </trkpt>
      <trkpt lat="46.32556" lon="-0.47476">
        <ele>55</ele>
        <time>2012-10-25T15:46:41Z</time>
      </trkpt>
      <trkpt lat="46.32554" lon="-0.47466">
        <ele>57</ele>
        <time>2012-10-25T15:46:46Z</time>
      </trkpt>
      <trkpt lat="46.32552" lon="-0.47456">
        <ele>56</ele>
        <time>2012-10-25T15:46:51Z</time>
      </trkpt>
      <trkpt lat="46.32549" lon="-0.4745">
        <ele>55</ele>
        <time>2012-10-25T15:46:56Z</time>
      </trkpt>
      <trkpt lat="46.32548" lon="-0.47443">
        <ele>56</ele>
        <time>2012-10-25T15:47:01Z</time>
      </trkpt>
      <trkpt lat="46.32547" lon="-0.47436">
        <ele>56</ele>
        <time>2012-10-25T15:47:06Z</time>
      </trkpt>
      <trkpt lat="46.32546" lon="-0.47427">
        <ele>56</ele>
        <time>2012-10-25T15:47:11Z</time>
      </trkpt>
      <trkpt lat="46.32544" lon="-0.47419">
        <ele>59</ele>
        <time>2012-10-25T15:47:16Z</time>
      </trkpt>
      <trkpt lat="46.32542" lon="-0.4741">
        <ele>58</ele>
        <time>2012-10-25T15:47:21Z</time>
      </trkpt>
      <trkpt lat="46.3254" lon="-0.47401">
        <ele>57</ele>
        <time>2012-10-25T15:47:26Z</time>
      </trkpt>
      <trkpt lat="46.32538" lon="-0.47394">
        <ele>57</ele>
        <time>2012-10-25T15:47:31Z</time>
      </trkpt>
      <trkpt lat="46.32539" lon="-0.47383">
        <ele>56</ele>
        <time>2012-10-25T15:47:36Z</time>
      </trkpt>
      <trkpt lat="46.32538" lon="-0.4738">
        <ele>56</ele>
        <time>2012-10-25T15:47:41Z</time>
      </trkpt>
      <trkpt lat="46.32537" lon="-0.47378">
        <ele>57</ele>
        <time>2012-10-25T15:47:46Z</time>
      </trkpt>
      <trkpt lat="46.32536" lon="-0.47371">
        <ele>54</ele>
        <time>2012-10-25T15:47:51Z</time>
      </trkpt>
      <trkpt lat="46.32534" lon="-0.47362">
        <ele>56</ele>
        <time>2012-10-25T15:47:56Z</time>
      </trkpt>
      <trkpt lat="46.32531" lon="-0.47353">
        <ele>55</ele>
        <time>2012-10-25T15:48:01Z</time>
      </trkpt>
      <trkpt lat="46.3253" lon="-0.47343">
        <ele>55</ele>
        <time>2012-10-25T15:48:06Z</time>
      </trkpt>
      <trkpt lat="46.32531" lon="-0.47332">
        <ele>56</ele>
        <time>2012-10-25T15:48:11Z</time>
      </trkpt>
      <trkpt lat="46.32528" lon="-0.47324">
        <ele>58</ele>
        <time>2012-10-25T15:48:16Z</time>
      </trkpt>
      <trkpt lat="46.32528" lon="-0.47321">
        <ele>58</ele>
        <time>2012-10-25T15:48:21Z</time>
      </trkpt>
      <trkpt lat="46.32527" lon="-0.47314">
        <ele>59</ele>
        <time>2012-10-25T15:48:26Z</time>
      </trkpt>
      <trkpt lat="46.32528" lon="-0.47307">
        <ele>60</ele>
        <time>2012-10-25T15:48:31Z</time>
      </trkpt>
      <trkpt lat="46.32528" lon="-0.47301">
        <ele>62</ele>
        <time>2012-10-25T15:48:36Z</time>
      </trkpt>
      <trkpt lat="46.32526" lon="-0.47293">
        <ele>63</ele>
        <time>2012-10-25T15:48:41Z</time>
      </trkpt>
      <trkpt lat="46.32523" lon="-0.47284">
        <ele>61</ele>
        <time>2012-10-25T15:48:46Z</time>
      </trkpt>
      <trkpt lat="46.32524" lon="-0.47278">
        <ele>60</ele>
        <time>2012-10-25T15:48:51Z</time>
      </trkpt>
      <trkpt lat="46.32523" lon="-0.47271">
        <ele>60</ele>
        <time>2012-10-25T15:48:56Z</time>
      </trkpt>
      <trkpt lat="46.32522" lon="-0.47269">
        <ele>58</ele>
        <time>2012-10-25T15:49:01Z</time>
      </trkpt>
      <trkpt lat="46.32522" lon="-0.47257">
        <ele>58</ele>
        <time>2012-10-25T15:49:06Z</time>
      </trkpt>
      <trkpt lat="46.32522" lon="-0.47252">
        <ele>59</ele>
        <time>2012-10-25T15:49:11Z</time>
      </trkpt>
      <trkpt lat="46.3252" lon="-0.47243">
        <ele>58</ele>
        <time>2012-10-25T15:49:16Z</time>
      </trkpt>
      <trkpt lat="46.32517" lon="-0.47227">
        <ele>59</ele>
        <time>2012-10-25T15:49:21Z</time>
      </trkpt>
      <trkpt lat="46.32516" lon="-0.47221">
        <ele>59</ele>
        <time>2012-10-25T15:49:26Z</time>
      </trkpt>
      <trkpt lat="46.32517" lon="-0.47215">
        <ele>58</ele>
        <time>2012-10-25T15:49:31Z</time>
      </trkpt>
      <trkpt lat="46.32517" lon="-0.47206">
        <ele>57</ele>
        <time>2012-10-25T15:49:36Z</time>
      </trkpt>
      <trkpt lat="46.32517" lon="-0.472">
        <ele>57</ele>
        <time>2012-10-25T15:49:41Z</time>
      </trkpt>
      <trkpt lat="46.32517" lon="-0.47189">
        <ele>57</ele>
        <time>2012-10-25T15:49:46Z</time>
      </trkpt>
      <trkpt lat="46.32514" lon="-0.47182">
        <ele>57</ele>
        <time>2012-10-25T15:49:51Z</time>
      </trkpt>
      <trkpt lat="46.32516" lon="-0.47177">
        <ele>57</ele>
        <time>2012-10-25T15:49:56Z</time>
      </trkpt>
      <trkpt lat="46.32512" lon="-0.47168">
        <ele>56</ele>
        <time>2012-10-25T15:50:01Z</time>
      </trkpt>
      <trkpt lat="46.32511" lon="-0.47158">
        <ele>56</ele>
        <time>2012-10-25T15:50:06Z</time>
      </trkpt>
      <trkpt lat="46.32511" lon="-0.4715">
        <ele>56</ele>
        <time>2012-10-25T15:50:11Z</time>
      </trkpt>
      <trkpt lat="46.3251" lon="-0.47144">
        <ele>55</ele>
        <time>2012-10-25T15:50:16Z</time>
      </trkpt>
      <trkpt lat="46.3251" lon="-0.47135">
        <ele>56</ele>
        <time>2012-10-25T15:50:21Z</time>
      </trkpt>
      <trkpt lat="46.32509" lon="-0.47131">
        <ele>57</ele>
        <time>2012-10-25T15:50:26Z</time>
      </trkpt>
      <trkpt lat="46.3251" lon="-0.47127">
        <ele>57</ele>
        <time>2012-10-25T15:50:31Z</time>
      </trkpt>
      <trkpt lat="46.32509" lon="-0.47122">
        <ele>57</ele>
        <time>2012-10-25T15:50:36Z</time>
      </trkpt>
      <trkpt lat="46.32509" lon="-0.47114">
        <ele>56</ele>
        <time>2012-10-25T15:50:41Z</time>
      </trkpt>
      <trkpt lat="46.32508" lon="-0.47108">
        <ele>56</ele>
        <time>2012-10-25T15:50:46Z</time>
      </trkpt>
      <trkpt lat="46.32506" lon="-0.47098">
        <ele>57</ele>
        <time>2012-10-25T15:50:51Z</time>
      </trkpt>
      <trkpt lat="46.32505" lon="-0.47089">
        <ele>58</ele>
        <time>2012-10-25T15:50:56Z</time>
      </trkpt>
      <trkpt lat="46.32504" lon="-0.47083">
        <ele>59</ele>
        <time>2012-10-25T15:51:01Z</time>
      </trkpt>
      <trkpt lat="46.32505" lon="-0.47075">
        <ele>58</ele>
        <time>2012-10-25T15:51:06Z</time>
      </trkpt>
      <trkpt lat="46.32503" lon="-0.47068">
        <ele>57</ele>
        <time>2012-10-25T15:51:11Z</time>
      </trkpt>
      <trkpt lat="46.32499" lon="-0.47066">
        <ele>57</ele>
        <time>2012-10-25T15:51:16Z</time>
      </trkpt>
      <trkpt lat="46.32495" lon="-0.47062">
        <ele>57</ele>
        <time>2012-10-25T15:51:21Z</time>
      </trkpt>
      <trkpt lat="46.3249" lon="-0.4706">
        <ele>58</ele>
        <time>2012-10-25T15:51:26Z</time>
      </trkpt>
      <trkpt lat="46.32487" lon="-0.47053">
        <ele>58</ele>
        <time>2012-10-25T15:51:31Z</time>
      </trkpt>
      <trkpt lat="46.32487" lon="-0.47045">
        <ele>58</ele>
        <time>2012-10-25T15:51:36Z</time>
      </trkpt>
      <trkpt lat="46.32486" lon="-0.47037">
        <ele>58</ele>
        <time>2012-10-25T15:51:41Z</time>
      </trkpt>
      <trkpt lat="46.32484" lon="-0.4703">
        <ele>59</ele>
        <time>2012-10-25T15:51:46Z</time>
      </trkpt>
      <trkpt lat="46.32483" lon="-0.47022">
        <ele>59</ele>
        <time>2012-10-25T15:51:51Z</time>
      </trkpt>
      <trkpt lat="46.32482" lon="-0.47014">
        <ele>61</ele>
        <time>2012-10-25T15:51:56Z</time>
      </trkpt>
      <trkpt lat="46.32482" lon="-0.47007">
        <ele>61</ele>
        <time>2012-10-25T15:52:01Z</time>
      </trkpt>
      <trkpt lat="46.32481" lon="-0.47">
        <ele>61</ele>
        <time>2012-10-25T15:52:06Z</time>
      </trkpt>
      <trkpt lat="46.32481" lon="-0.46993">
        <ele>62</ele>
        <time>2012-10-25T15:52:11Z</time>
      </trkpt>
      <trkpt lat="46.3248" lon="-0.46983">
        <ele>62</ele>
        <time>2012-10-25T15:52:16Z</time>
      </trkpt>
      <trkpt lat="46.32481" lon="-0.46976">
        <ele>61</ele>
        <time>2012-10-25T15:52:21Z</time>
      </trkpt>
      <trkpt lat="46.32485" lon="-0.46975">
        <ele>62</ele>
        <time>2012-10-25T15:52:26Z</time>
      </trkpt>
      <trkpt lat="46.32489" lon="-0.46974">
        <ele>63</ele>
        <time>2012-10-25T15:52:31Z</time>
      </trkpt>
      <trkpt lat="46.32493" lon="-0.46973">
        <ele>63</ele>
        <time>2012-10-25T15:52:36Z</time>
      </trkpt>
      <trkpt lat="46.32495" lon="-0.46973">
        <ele>63</ele>
        <time>2012-10-25T15:52:41Z</time>
      </trkpt>
      <trkpt lat="46.32495" lon="-0.46973">
        <ele>63</ele>
        <time>2012-10-25T15:52:46Z</time>
      </trkpt>
      <trkpt lat="46.325" lon="-0.46971">
        <ele>63</ele>
        <time>2012-10-25T15:52:51Z</time>
      </trkpt>
      <trkpt lat="46.32505" lon="-0.46969">
        <ele>63</ele>
        <time>2012-10-25T15:52:56Z</time>
      </trkpt>
      <trkpt lat="46.32509" lon="-0.46967">
        <ele>64</ele>
        <time>2012-10-25T15:53:01Z</time>
      </trkpt>
      <trkpt lat="46.32513" lon="-0.46966">
        <ele>63</ele>
        <time>2012-10-25T15:53:06Z</time>
      </trkpt>
      <trkpt lat="46.32517" lon="-0.46965">
        <ele>63</ele>
        <time>2012-10-25T15:53:11Z</time>
      </trkpt>
      <trkpt lat="46.32521" lon="-0.46966">
        <ele>63</ele>
        <time>2012-10-25T15:53:16Z</time>
      </trkpt>
      <trkpt lat="46.32526" lon="-0.46969">
        <ele>63</ele>
        <time>2012-10-25T15:53:21Z</time>
      </trkpt>
      <trkpt lat="46.3254" lon="-0.46972">
        <ele>64</ele>
        <time>2012-10-25T15:53:26Z</time>
      </trkpt>
      <trkpt lat="46.32543" lon="-0.46975">
        <ele>65</ele>
        <time>2012-10-25T15:53:31Z</time>
      </trkpt>
      <trkpt lat="46.32545" lon="-0.46977">
        <ele>65</ele>
        <time>2012-10-25T15:53:36Z</time>
      </trkpt>
      <trkpt lat="46.3254" lon="-0.46985">
        <ele>64</ele>
        <time>2012-10-25T15:53:41Z</time>
      </trkpt>
      <trkpt lat="46.32539" lon="-0.46993">
        <ele>63</ele>
        <time>2012-10-25T15:53:46Z</time>
      </trkpt>
      <trkpt lat="46.32537" lon="-0.47004">
        <ele>63</ele>
        <time>2012-10-25T15:53:51Z</time>
      </trkpt>
      <trkpt lat="46.32539" lon="-0.47008">
        <ele>63</ele>
        <time>2012-10-25T15:53:56Z</time>
      </trkpt>
      <trkpt lat="46.32539" lon="-0.47019">
        <ele>64</ele>
        <time>2012-10-25T15:54:01Z</time>
      </trkpt>
      <trkpt lat="46.32538" lon="-0.4702">
        <ele>64</ele>
        <time>2012-10-25T15:54:06Z</time>
      </trkpt>
      <trkpt lat="46.32537" lon="-0.47024">
        <ele>64</ele>
        <time>2012-10-25T15:54:11Z</time>
      </trkpt>
      <trkpt lat="46.32536" lon="-0.47031">
        <ele>65</ele>
        <time>2012-10-25T15:54:16Z</time>
      </trkpt>
      <trkpt lat="46.32539" lon="-0.47035">
        <ele>61</ele>
        <time>2012-10-25T15:54:21Z</time>
      </trkpt>
      <trkpt lat="46.32541" lon="-0.47041">
        <ele>57</ele>
        <time>2012-10-25T15:54:26Z</time>
      </trkpt>
      <trkpt lat="46.32542" lon="-0.47048">
        <ele>55</ele>
        <time>2012-10-25T15:54:31Z</time>
      </trkpt>
      <trkpt lat="46.32543" lon="-0.47057">
        <ele>54</ele>
        <time>2012-10-25T15:54:36Z</time>
      </trkpt>
      <trkpt lat="46.32541" lon="-0.47066">
        <ele>54</ele>
        <time>2012-10-25T15:54:41Z</time>
      </trkpt>
      <trkpt lat="46.32544" lon="-0.47074">
        <ele>52</ele>
        <time>2012-10-25T15:54:46Z</time>
      </trkpt>
      <trkpt lat="46.32544" lon="-0.47082">
        <ele>53</ele>
        <time>2012-10-25T15:54:51Z</time>
      </trkpt>
      <trkpt lat="46.32544" lon="-0.47093">
        <ele>54</ele>
        <time>2012-10-25T15:54:56Z</time>
      </trkpt>
      <trkpt lat="46.32543" lon="-0.47102">
        <ele>54</ele>
        <time>2012-10-25T15:55:01Z</time>
      </trkpt>
      <trkpt lat="46.32544" lon="-0.47105">
        <ele>55</ele>
        <time>2012-10-25T15:55:06Z</time>
      </trkpt>
      <trkpt lat="46.32547" lon="-0.47111">
        <ele>52</ele>
        <time>2012-10-25T15:55:11Z</time>
      </trkpt>
      <trkpt lat="46.32546" lon="-0.4712">
        <ele>54</ele>
        <time>2012-10-25T15:55:16Z</time>
      </trkpt>
      <trkpt lat="46.32545" lon="-0.4713">
        <ele>56</ele>
        <time>2012-10-25T15:55:21Z</time>
      </trkpt>
      <trkpt lat="46.32544" lon="-0.47139">
        <ele>57</ele>
        <time>2012-10-25T15:55:26Z</time>
      </trkpt>
      <trkpt lat="46.32546" lon="-0.47147">
        <ele>57</ele>
        <time>2012-10-25T15:55:31Z</time>
      </trkpt>
      <trkpt lat="46.32548" lon="-0.47152">
        <ele>55</ele>
        <time>2012-10-25T15:55:36Z</time>
      </trkpt>
      <trkpt lat="46.32549" lon="-0.4716">
        <ele>53</ele>
        <time>2012-10-25T15:55:41Z</time>
      </trkpt>
      <trkpt lat="46.32549" lon="-0.47167">
        <ele>53</ele>
        <time>2012-10-25T15:55:46Z</time>
      </trkpt>
      <trkpt lat="46.32549" lon="-0.47175">
        <ele>56</ele>
        <time>2012-10-25T15:55:51Z</time>
      </trkpt>
      <trkpt lat="46.32548" lon="-0.47184">
        <ele>57</ele>
        <time>2012-10-25T15:55:56Z</time>
      </trkpt>
      <trkpt lat="46.32545" lon="-0.47193">
        <ele>62</ele>
        <time>2012-10-25T15:56:01Z</time>
      </trkpt>
      <trkpt lat="46.32545" lon="-0.47204">
        <ele>63</ele>
        <time>2012-10-25T15:56:06Z</time>
      </trkpt>
      <trkpt lat="46.32547" lon="-0.47212">
        <ele>63</ele>
        <time>2012-10-25T15:56:11Z</time>
      </trkpt>
      <trkpt lat="46.32551" lon="-0.47218">
        <ele>63</ele>
        <time>2012-10-25T15:56:16Z</time>
      </trkpt>
      <trkpt lat="46.32551" lon="-0.47225">
        <ele>62</ele>
        <time>2012-10-25T15:56:21Z</time>
      </trkpt>
      <trkpt lat="46.32552" lon="-0.47233">
        <ele>59</ele>
        <time>2012-10-25T15:56:26Z</time>
      </trkpt>
      <trkpt lat="46.32552" lon="-0.47241">
        <ele>59</ele>
        <time>2012-10-25T15:56:31Z</time>
      </trkpt>
      <trkpt lat="46.32552" lon="-0.4725">
        <ele>62</ele>
        <time>2012-10-25T15:56:36Z</time>
      </trkpt>
      <trkpt lat="46.32554" lon="-0.47257">
        <ele>58</ele>
        <time>2012-10-25T15:56:41Z</time>
      </trkpt>
      <trkpt lat="46.32555" lon="-0.47264">
        <ele>56</ele>
        <time>2012-10-25T15:56:46Z</time>
      </trkpt>
      <trkpt lat="46.32557" lon="-0.47271">
        <ele>56</ele>
        <time>2012-10-25T15:56:51Z</time>
      </trkpt>
      <trkpt lat="46.32559" lon="-0.47277">
        <ele>54</ele>
        <time>2012-10-25T15:56:56Z</time>
      </trkpt>
      <trkpt lat="46.32562" lon="-0.47283">
        <ele>50</ele>
        <time>2012-10-25T15:57:01Z</time>
      </trkpt>
      <trkpt lat="46.3256" lon="-0.47292">
        <ele>55</ele>
        <time>2012-10-25T15:57:06Z</time>
      </trkpt>
      <trkpt lat="46.32564" lon="-0.47298">
        <ele>54</ele>
        <time>2012-10-25T15:57:11Z</time>
      </trkpt>
      <trkpt lat="46.32565" lon="-0.47303">
        <ele>51</ele>
        <time>2012-10-25T15:57:16Z</time>
      </trkpt>
      <trkpt lat="46.32567" lon="-0.4731">
        <ele>50</ele>
        <time>2012-10-25T15:57:21Z</time>
      </trkpt>
      <trkpt lat="46.32564" lon="-0.47321">
        <ele>53</ele>
        <time>2012-10-25T15:57:26Z</time>
      </trkpt>
      <trkpt lat="46.32565" lon="-0.47329">
        <ele>55</ele>
        <time>2012-10-25T15:57:31Z</time>
      </trkpt>
      <trkpt lat="46.32565" lon="-0.47336">
        <ele>55</ele>
        <time>2012-10-25T15:57:36Z</time>
      </trkpt>
      <trkpt lat="46.32565" lon="-0.47341">
        <ele>55</ele>
        <time>2012-10-25T15:57:41Z</time>
      </trkpt>
      <trkpt lat="46.32566" lon="-0.47348">
        <ele>56</ele>
        <time>2012-10-25T15:57:46Z</time>
      </trkpt>
      <trkpt lat="46.32569" lon="-0.47354">
        <ele>56</ele>
        <time>2012-10-25T15:57:51Z</time>
      </trkpt>
      <trkpt lat="46.32569" lon="-0.47364">
        <ele>57</ele>
        <time>2012-10-25T15:57:56Z</time>
      </trkpt>
      <trkpt lat="46.32569" lon="-0.4737">
        <ele>57</ele>
        <time>2012-10-25T15:58:01Z</time>
      </trkpt>
      <trkpt lat="46.3257" lon="-0.47379">
        <ele>57</ele>
        <time>2012-10-25T15:58:06Z</time>
      </trkpt>
      <trkpt lat="46.32572" lon="-0.4738">
        <ele>55</ele>
        <time>2012-10-25T15:58:11Z</time>
      </trkpt>
      <trkpt lat="46.32575" lon="-0.47388">
        <ele>52</ele>
        <time>2012-10-25T15:58:16Z</time>
      </trkpt>
      <trkpt lat="46.32578" lon="-0.47394">
        <ele>51</ele>
        <time>2012-10-25T15:58:21Z</time>
      </trkpt>
      <trkpt lat="46.32578" lon="-0.47403">
        <ele>51</ele>
        <time>2012-10-25T15:58:26Z</time>
      </trkpt>
      <trkpt lat="46.32578" lon="-0.47409">
        <ele>51</ele>
        <time>2012-10-25T15:58:31Z</time>
      </trkpt>
      <trkpt lat="46.32579" lon="-0.47419">
        <ele>51</ele>
        <time>2012-10-25T15:58:36Z</time>
      </trkpt>
      <trkpt lat="46.32581" lon="-0.47427">
        <ele>51</ele>
        <time>2012-10-25T15:58:41Z</time>
      </trkpt>
      <trkpt lat="46.32579" lon="-0.47435">
        <ele>50</ele>
        <time>2012-10-25T15:58:46Z</time>
      </trkpt>
      <trkpt lat="46.32581" lon="-0.47441">
        <ele>50</ele>
        <time>2012-10-25T15:58:51Z</time>
      </trkpt>
      <trkpt lat="46.32583" lon="-0.47449">
        <ele>53</ele>
        <time>2012-10-25T15:58:56Z</time>
      </trkpt>
      <trkpt lat="46.32584" lon="-0.47456">
        <ele>52</ele>
        <time>2012-10-25T15:59:01Z</time>
      </trkpt>
      <trkpt lat="46.32587" lon="-0.47463">
        <ele>52</ele>
        <time>2012-10-25T15:59:06Z</time>
      </trkpt>
      <trkpt lat="46.32592" lon="-0.47472">
        <ele>55</ele>
        <time>2012-10-25T15:59:11Z</time>
      </trkpt>
      <trkpt lat="46.32593" lon="-0.47477">
        <ele>56</ele>
        <time>2012-10-25T15:59:16Z</time>
      </trkpt>
      <trkpt lat="46.32594" lon="-0.47485">
        <ele>58</ele>
        <time>2012-10-25T15:59:21Z</time>
      </trkpt>
      <trkpt lat="46.32599" lon="-0.47492">
        <ele>60</ele>
        <time>2012-10-25T15:59:26Z</time>
      </trkpt>
      <trkpt lat="46.32604" lon="-0.47495">
        <ele>61</ele>
        <time>2012-10-25T15:59:31Z</time>
      </trkpt>
      <trkpt lat="46.3261" lon="-0.47498">
        <ele>64</ele>
        <time>2012-10-25T15:59:36Z</time>
      </trkpt>
      <trkpt lat="46.32618" lon="-0.47499">
        <ele>65</ele>
        <time>2012-10-25T15:59:41Z</time>
      </trkpt>
      <trkpt lat="46.32622" lon="-0.475">
        <ele>65</ele>
        <time>2012-10-25T15:59:46Z</time>
      </trkpt>
      <trkpt lat="46.32628" lon="-0.47502">
        <ele>64</ele>
        <time>2012-10-25T15:59:51Z</time>
      </trkpt>
      <trkpt lat="46.32629" lon="-0.47505">
        <ele>61</ele>
        <time>2012-10-25T15:59:56Z</time>
      </trkpt>
      <trkpt lat="46.32635" lon="-0.47508">
        <ele>62</ele>
        <time>2012-10-25T16:00:01Z</time>
      </trkpt>
      <trkpt lat="46.32637" lon="-0.47508">
        <ele>62</ele>
        <time>2012-10-25T16:00:06Z</time>
      </trkpt>
      <trkpt lat="46.32643" lon="-0.47509">
        <ele>63</ele>
        <time>2012-10-25T16:00:11Z</time>
      </trkpt>
      <trkpt lat="46.32649" lon="-0.47512">
        <ele>63</ele>
        <time>2012-10-25T16:00:16Z</time>
      </trkpt>
      <trkpt lat="46.32655" lon="-0.47516">
        <ele>63</ele>
        <time>2012-10-25T16:00:21Z</time>
      </trkpt>
      <trkpt lat="46.3266" lon="-0.47519">
        <ele>62</ele>
        <time>2012-10-25T16:00:26Z</time>
      </trkpt>
      <trkpt lat="46.32666" lon="-0.47522">
        <ele>63</ele>
        <time>2012-10-25T16:00:31Z</time>
      </trkpt>
      <trkpt lat="46.32672" lon="-0.47524">
        <ele>61</ele>
        <time>2012-10-25T16:00:36Z</time>
      </trkpt>
      <trkpt lat="46.32678" lon="-0.47526">
        <ele>63</ele>
        <time>2012-10-25T16:00:41Z</time>
      </trkpt>
      <trkpt lat="46.32681" lon="-0.47527">
        <ele>63</ele>
        <time>2012-10-25T16:00:46Z</time>
      </trkpt>
      <trkpt lat="46.32685" lon="-0.47532">
        <ele>64</ele>
        <time>2012-10-25T16:00:51Z</time>
      </trkpt>
      <trkpt lat="46.3269" lon="-0.47536">
        <ele>64</ele>
        <time>2012-10-25T16:00:56Z</time>
      </trkpt>
      <trkpt lat="46.32694" lon="-0.47541">
        <ele>65</ele>
        <time>2012-10-25T16:01:01Z</time>
      </trkpt>
      <trkpt lat="46.32701" lon="-0.47546">
        <ele>64</ele>
        <time>2012-10-25T16:01:06Z</time>
      </trkpt>
      <trkpt lat="46.32705" lon="-0.47549">
        <ele>64</ele>
        <time>2012-10-25T16:01:11Z</time>
      </trkpt>
      <trkpt lat="46.32714" lon="-0.47552">
        <ele>67</ele>
        <time>2012-10-25T16:01:16Z</time>
      </trkpt>
      <trkpt lat="46.32718" lon="-0.47555">
        <ele>67</ele>
        <time>2012-10-25T16:01:21Z</time>
      </trkpt>
      <trkpt lat="46.32722" lon="-0.47554">
        <ele>65</ele>
        <time>2012-10-25T16:01:26Z</time>
      </trkpt>
      <trkpt lat="46.32726" lon="-0.47555">
        <ele>65</ele>
        <time>2012-10-25T16:01:31Z</time>
      </trkpt>
      <trkpt lat="46.32731" lon="-0.47556">
        <ele>67</ele>
        <time>2012-10-25T16:01:36Z</time>
      </trkpt>
      <trkpt lat="46.32736" lon="-0.4756">
        <ele>67</ele>
        <time>2012-10-25T16:01:41Z</time>
      </trkpt>
      <trkpt lat="46.32737" lon="-0.47563">
        <ele>65</ele>
        <time>2012-10-25T16:01:46Z</time>
      </trkpt>
      <trkpt lat="46.32739" lon="-0.47568">
        <ele>64</ele>
        <time>2012-10-25T16:01:51Z</time>
      </trkpt>
      <trkpt lat="46.32743" lon="-0.47571">
        <ele>64</ele>
        <time>2012-10-25T16:01:56Z</time>
      </trkpt>
      <trkpt lat="46.32748" lon="-0.47577">
        <ele>65</ele>
        <time>2012-10-25T16:02:01Z</time>
      </trkpt>
      <trkpt lat="46.32754" lon="-0.47579">
        <ele>62</ele>
        <time>2012-10-25T16:02:06Z</time>
      </trkpt>
      <trkpt lat="46.3276" lon="-0.47582">
        <ele>61</ele>
        <time>2012-10-25T16:02:11Z</time>
      </trkpt>
      <trkpt lat="46.32764" lon="-0.47589">
        <ele>62</ele>
        <time>2012-10-25T16:02:16Z</time>
      </trkpt>
      <trkpt lat="46.32766" lon="-0.47596">
        <ele>61</ele>
        <time>2012-10-25T16:02:21Z</time>
      </trkpt>
      <trkpt lat="46.32771" lon="-0.47601">
        <ele>61</ele>
        <time>2012-10-25T16:02:26Z</time>
      </trkpt>
      <trkpt lat="46.32776" lon="-0.47609">
        <ele>61</ele>
        <time>2012-10-25T16:02:31Z</time>
      </trkpt>
      <trkpt lat="46.32778" lon="-0.47614">
        <ele>62</ele>
        <time>2012-10-25T16:02:36Z</time>
      </trkpt>
      <trkpt lat="46.32783" lon="-0.47618">
        <ele>62</ele>
        <time>2012-10-25T16:02:41Z</time>
      </trkpt>
      <trkpt lat="46.32786" lon="-0.47626">
        <ele>62</ele>
        <time>2012-10-25T16:02:46Z</time>
      </trkpt>
      <trkpt lat="46.32788" lon="-0.47633">
        <ele>62</ele>
        <time>2012-10-25T16:02:51Z</time>
      </trkpt>
      <trkpt lat="46.32794" lon="-0.47637">
        <ele>64</ele>
        <time>2012-10-25T16:02:56Z</time>
      </trkpt>
      <trkpt lat="46.32799" lon="-0.47641">
        <ele>62</ele>
        <time>2012-10-25T16:03:01Z</time>
      </trkpt>
      <trkpt lat="46.32804" lon="-0.47646">
        <ele>64</ele>
        <time>2012-10-25T16:03:06Z</time>
      </trkpt>
      <trkpt lat="46.3281" lon="-0.47655">
        <ele>66</ele>
        <time>2012-10-25T16:03:11Z</time>
      </trkpt>
      <trkpt lat="46.32816" lon="-0.47663">
        <ele>71</ele>
        <time>2012-10-25T16:03:16Z</time>
      </trkpt>
      <trkpt lat="46.32816" lon="-0.47663">
        <ele>69</ele>
        <time>2012-10-25T16:03:21Z</time>
      </trkpt>
      <trkpt lat="46.32818" lon="-0.47666">
        <ele>68</ele>
        <time>2012-10-25T16:03:26Z</time>
      </trkpt>
      <trkpt lat="46.32823" lon="-0.47667">
        <ele>65</ele>
        <time>2012-10-25T16:03:31Z</time>
      </trkpt>
      <trkpt lat="46.32831" lon="-0.4767">
        <ele>64</ele>
        <time>2012-10-25T16:03:36Z</time>
      </trkpt>
      <trkpt lat="46.32836" lon="-0.47671">
        <ele>63</ele>
        <time>2012-10-25T16:03:41Z</time>
      </trkpt>
      <trkpt lat="46.32842" lon="-0.47676">
        <ele>63</ele>
        <time>2012-10-25T16:03:46Z</time>
      </trkpt>
      <trkpt lat="46.32849" lon="-0.47676">
        <ele>64</ele>
        <time>2012-10-25T16:03:51Z</time>
      </trkpt>
      <trkpt lat="46.32852" lon="-0.47675">
        <ele>62</ele>
        <time>2012-10-25T16:03:56Z</time>
      </trkpt>
      <trkpt lat="46.32857" lon="-0.47673">
        <ele>62</ele>
        <time>2012-10-25T16:04:01Z</time>
      </trkpt>
      <trkpt lat="46.32862" lon="-0.4768">
        <ele>63</ele>
        <time>2012-10-25T16:04:06Z</time>
      </trkpt>
      <trkpt lat="46.32865" lon="-0.47681">
        <ele>63</ele>
        <time>2012-10-25T16:04:11Z</time>
      </trkpt>
      <trkpt lat="46.32871" lon="-0.47686">
        <ele>62</ele>
        <time>2012-10-25T16:04:16Z</time>
      </trkpt>
      <trkpt lat="46.32875" lon="-0.47686">
        <ele>61</ele>
        <time>2012-10-25T16:04:21Z</time>
      </trkpt>
      <trkpt lat="46.32881" lon="-0.4769">
        <ele>62</ele>
        <time>2012-10-25T16:04:26Z</time>
      </trkpt>
      <trkpt lat="46.32886" lon="-0.47693">
        <ele>61</ele>
        <time>2012-10-25T16:04:31Z</time>
      </trkpt>
      <trkpt lat="46.32892" lon="-0.47693">
        <ele>62</ele>
        <time>2012-10-25T16:04:36Z</time>
      </trkpt>
      <trkpt lat="46.32898" lon="-0.47693">
        <ele>62</ele>
        <time>2012-10-25T16:04:41Z</time>
      </trkpt>
      <trkpt lat="46.32902" lon="-0.47696">
        <ele>63</ele>
        <time>2012-10-25T16:04:46Z</time>
      </trkpt>
      <trkpt lat="46.32906" lon="-0.47701">
        <ele>61</ele>
        <time>2012-10-25T16:04:51Z</time>
      </trkpt>
      <trkpt lat="46.32911" lon="-0.477">
        <ele>61</ele>
        <time>2012-10-25T16:04:56Z</time>
      </trkpt>
      <trkpt lat="46.32914" lon="-0.47706">
        <ele>60</ele>
        <time>2012-10-25T16:05:01Z</time>
      </trkpt>
      <trkpt lat="46.32919" lon="-0.47714">
        <ele>60</ele>
        <time>2012-10-25T16:05:06Z</time>
      </trkpt>
      <trkpt lat="46.32923" lon="-0.47721">
        <ele>60</ele>
        <time>2012-10-25T16:05:11Z</time>
      </trkpt>
      <trkpt lat="46.32928" lon="-0.47726">
        <ele>60</ele>
        <time>2012-10-25T16:05:16Z</time>
      </trkpt>
      <trkpt lat="46.32931" lon="-0.47726">
        <ele>61</ele>
        <time>2012-10-25T16:05:21Z</time>
      </trkpt>
      <trkpt lat="46.32937" lon="-0.47721">
        <ele>62</ele>
        <time>2012-10-25T16:05:26Z</time>
      </trkpt>
      <trkpt lat="46.32941" lon="-0.47723">
        <ele>61</ele>
        <time>2012-10-25T16:05:31Z</time>
      </trkpt>
      <trkpt lat="46.32945" lon="-0.47737">
        <ele>61</ele>
        <time>2012-10-25T16:05:36Z</time>
      </trkpt>
      <trkpt lat="46.32949" lon="-0.4775">
        <ele>62</ele>
        <time>2012-10-25T16:05:41Z</time>
      </trkpt>
      <trkpt lat="46.32954" lon="-0.47749">
        <ele>61</ele>
        <time>2012-10-25T16:05:46Z</time>
      </trkpt>
      <trkpt lat="46.32957" lon="-0.47758">
        <ele>60</ele>
        <time>2012-10-25T16:05:51Z</time>
      </trkpt>
      <trkpt lat="46.3296" lon="-0.47765">
        <ele>61</ele>
        <time>2012-10-25T16:05:56Z</time>
      </trkpt>
      <trkpt lat="46.32965" lon="-0.47769">
        <ele>62</ele>
        <time>2012-10-25T16:06:01Z</time>
      </trkpt>
      <trkpt lat="46.32969" lon="-0.47771">
        <ele>63</ele>
        <time>2012-10-25T16:06:06Z</time>
      </trkpt>
      <trkpt lat="46.32973" lon="-0.47772">
        <ele>62</ele>
        <time>2012-10-25T16:06:11Z</time>
      </trkpt>
      <trkpt lat="46.32979" lon="-0.4778">
        <ele>63</ele>
        <time>2012-10-25T16:06:16Z</time>
      </trkpt>
      <trkpt lat="46.32983" lon="-0.47781">
        <ele>63</ele>
        <time>2012-10-25T16:06:21Z</time>
      </trkpt>
      <trkpt lat="46.32985" lon="-0.47786">
        <ele>62</ele>
        <time>2012-10-25T16:06:26Z</time>
      </trkpt>
      <trkpt lat="46.32991" lon="-0.47788">
        <ele>62</ele>
        <time>2012-10-25T16:06:31Z</time>
      </trkpt>
      <trkpt lat="46.32996" lon="-0.47793">
        <ele>61</ele>
        <time>2012-10-25T16:06:36Z</time>
      </trkpt>
      <trkpt lat="46.33002" lon="-0.47797">
        <ele>63</ele>
        <time>2012-10-25T16:06:41Z</time>
      </trkpt>
      <trkpt lat="46.33004" lon="-0.478">
        <ele>61</ele>
        <time>2012-10-25T16:06:46Z</time>
      </trkpt>
      <trkpt lat="46.3301" lon="-0.47801">
        <ele>61</ele>
        <time>2012-10-25T16:06:51Z</time>
      </trkpt>
      <trkpt lat="46.33013" lon="-0.47813">
        <ele>59</ele>
        <time>2012-10-25T16:06:56Z</time>
      </trkpt>
      <trkpt lat="46.33018" lon="-0.47813">
        <ele>59</ele>
        <time>2012-10-25T16:07:01Z</time>
      </trkpt>
      <trkpt lat="46.3302" lon="-0.47821">
        <ele>58</ele>
        <time>2012-10-25T16:07:06Z</time>
      </trkpt>
      <trkpt lat="46.33026" lon="-0.47824">
        <ele>59</ele>
        <time>2012-10-25T16:07:11Z</time>
      </trkpt>
      <trkpt lat="46.33031" lon="-0.47824">
        <ele>59</ele>
        <time>2012-10-25T16:07:16Z</time>
      </trkpt>
      <trkpt lat="46.33034" lon="-0.47826">
        <ele>58</ele>
        <time>2012-10-25T16:07:21Z</time>
      </trkpt>
      <trkpt lat="46.3304" lon="-0.47829">
        <ele>59</ele>
        <time>2012-10-25T16:07:26Z</time>
      </trkpt>
      <trkpt lat="46.33045" lon="-0.47832">
        <ele>61</ele>
        <time>2012-10-25T16:07:31Z</time>
      </trkpt>
      <trkpt lat="46.3305" lon="-0.47837">
        <ele>63</ele>
        <time>2012-10-25T16:07:36Z</time>
      </trkpt>
      <trkpt lat="46.33057" lon="-0.47831">
        <ele>64</ele>
        <time>2012-10-25T16:07:41Z</time>
      </trkpt>
      <trkpt lat="46.33059" lon="-0.47832">
        <ele>64</ele>
        <time>2012-10-25T16:07:46Z</time>
      </trkpt>
      <trkpt lat="46.33066" lon="-0.47838">
        <ele>63</ele>
        <time>2012-10-25T16:07:51Z</time>
      </trkpt>
      <trkpt lat="46.33068" lon="-0.47841">
        <ele>62</ele>
        <time>2012-10-25T16:07:56Z</time>
      </trkpt>
      <trkpt lat="46.33075" lon="-0.47837">
        <ele>60</ele>
        <time>2012-10-25T16:08:01Z</time>
      </trkpt>
      <trkpt lat="46.33079" lon="-0.47843">
        <ele>61</ele>
        <time>2012-10-25T16:08:06Z</time>
      </trkpt>
      <trkpt lat="46.33085" lon="-0.47856">
        <ele>60</ele>
        <time>2012-10-25T16:08:11Z</time>
      </trkpt>
      <trkpt lat="46.3309" lon="-0.47854">
        <ele>60</ele>
        <time>2012-10-25T16:08:16Z</time>
      </trkpt>
      <trkpt lat="46.33095" lon="-0.47852">
        <ele>61</ele>
        <time>2012-10-25T16:08:21Z</time>
      </trkpt>
      <trkpt lat="46.331" lon="-0.47854">
        <ele>61</ele>
        <time>2012-10-25T16:08:26Z</time>
      </trkpt>
      <trkpt lat="46.33105" lon="-0.4786">
        <ele>61</ele>
        <time>2012-10-25T16:08:31Z</time>
      </trkpt>
      <trkpt lat="46.3311" lon="-0.47863">
        <ele>62</ele>
        <time>2012-10-25T16:08:36Z</time>
      </trkpt>
      <trkpt lat="46.33114" lon="-0.47862">
        <ele>62</ele>
        <time>2012-10-25T16:08:41Z</time>
      </trkpt>
      <trkpt lat="46.33119" lon="-0.47862">
        <ele>62</ele>
        <time>2012-10-25T16:08:46Z</time>
      </trkpt>
      <trkpt lat="46.33122" lon="-0.47864">
        <ele>61</ele>
        <time>2012-10-25T16:08:51Z</time>
      </trkpt>
      <trkpt lat="46.33128" lon="-0.47869">
        <ele>62</ele>
        <time>2012-10-25T16:08:56Z</time>
      </trkpt>
      <trkpt lat="46.33135" lon="-0.47863">
        <ele>59</ele>
        <time>2012-10-25T16:09:01Z</time>
      </trkpt>
      <trkpt lat="46.3314" lon="-0.47865">
        <ele>58</ele>
        <time>2012-10-25T16:09:06Z</time>
      </trkpt>
      <trkpt lat="46.33145" lon="-0.47868">
        <ele>57</ele>
        <time>2012-10-25T16:09:11Z</time>
      </trkpt>
      <trkpt lat="46.33151" lon="-0.4787">
        <ele>59</ele>
        <time>2012-10-25T16:09:16Z</time>
      </trkpt>
      <trkpt lat="46.33154" lon="-0.47872">
        <ele>59</ele>
        <time>2012-10-25T16:09:21Z</time>
      </trkpt>
      <trkpt lat="46.3316" lon="-0.4787">
        <ele>59</ele>
        <time>2012-10-25T16:09:26Z</time>
      </trkpt>
      <trkpt lat="46.33166" lon="-0.47869">
        <ele>58</ele>
        <time>2012-10-25T16:09:31Z</time>
      </trkpt>
      <trkpt lat="46.33171" lon="-0.47869">
        <ele>58</ele>
        <time>2012-10-25T16:09:36Z</time>
      </trkpt>
      <trkpt lat="46.33177" lon="-0.4787">
        <ele>57</ele>
        <time>2012-10-25T16:09:41Z</time>
      </trkpt>
      <trkpt lat="46.33183" lon="-0.47869">
        <ele>57</ele>
        <time>2012-10-25T16:09:46Z</time>
      </trkpt>
      <trkpt lat="46.33188" lon="-0.47873">
        <ele>57</ele>
        <time>2012-10-25T16:09:51Z</time>
      </trkpt>
      <trkpt lat="46.33193" lon="-0.47875">
        <ele>58</ele>
        <time>2012-10-25T16:09:56Z</time>
      </trkpt>
      <trkpt lat="46.33197" lon="-0.47875">
        <ele>58</ele>
        <time>2012-10-25T16:10:01Z</time>
      </trkpt>
      <trkpt lat="46.33202" lon="-0.47872">
        <ele>60</ele>
        <time>2012-10-25T16:10:06Z</time>
      </trkpt>
      <trkpt lat="46.33209" lon="-0.4787">
        <ele>60</ele>
        <time>2012-10-25T16:10:11Z</time>
      </trkpt>
      <trkpt lat="46.33213" lon="-0.47868">
        <ele>59</ele>
        <time>2012-10-25T16:10:16Z</time>
      </trkpt>
      <trkpt lat="46.33218" lon="-0.47867">
        <ele>59</ele>
        <time>2012-10-25T16:10:21Z</time>
      </trkpt>
      <trkpt lat="46.33223" lon="-0.47866">
        <ele>58</ele>
        <time>2012-10-25T16:10:26Z</time>
      </trkpt>
      <trkpt lat="46.33229" lon="-0.47868">
        <ele>60</ele>
        <time>2012-10-25T16:10:31Z</time>
      </trkpt>
      <trkpt lat="46.33234" lon="-0.47868">
        <ele>60</ele>
        <time>2012-10-25T16:10:36Z</time>
      </trkpt>
      <trkpt lat="46.33241" lon="-0.47868">
        <ele>60</ele>
        <time>2012-10-25T16:10:41Z</time>
      </trkpt>
      <trkpt lat="46.33247" lon="-0.47867">
        <ele>60</ele>
        <time>2012-10-25T16:10:46Z</time>
      </trkpt>
      <trkpt lat="46.33251" lon="-0.47866">
        <ele>58</ele>
        <time>2012-10-25T16:10:51Z</time>
      </trkpt>
      <trkpt lat="46.33256" lon="-0.47866">
        <ele>58</ele>
        <time>2012-10-25T16:10:56Z</time>
      </trkpt>
      <trkpt lat="46.33259" lon="-0.47865">
        <ele>59</ele>
        <time>2012-10-25T16:11:01Z</time>
      </trkpt>
      <trkpt lat="46.33265" lon="-0.47866">
        <ele>59</ele>
        <time>2012-10-25T16:11:06Z</time>
      </trkpt>
      <trkpt lat="46.33271" lon="-0.47866">
        <ele>58</ele>
        <time>2012-10-25T16:11:11Z</time>
      </trkpt>
      <trkpt lat="46.33276" lon="-0.47866">
        <ele>58</ele>
        <time>2012-10-25T16:11:16Z</time>
      </trkpt>
      <trkpt lat="46.33281" lon="-0.47868">
        <ele>58</ele>
        <time>2012-10-25T16:11:21Z</time>
      </trkpt>
      <trkpt lat="46.33289" lon="-0.47866">
        <ele>59</ele>
        <time>2012-10-25T16:11:26Z</time>
      </trkpt>
      <trkpt lat="46.33298" lon="-0.47864">
        <ele>60</ele>
        <time>2012-10-25T16:11:31Z</time>
      </trkpt>
      <trkpt lat="46.333" lon="-0.47868">
        <ele>60</ele>
        <time>2012-10-25T16:11:36Z</time>
      </trkpt>
      <trkpt lat="46.33305" lon="-0.47872">
        <ele>60</ele>
        <time>2012-10-25T16:11:41Z</time>
      </trkpt>
      <trkpt lat="46.33307" lon="-0.47874">
        <ele>61</ele>
        <time>2012-10-25T16:11:46Z</time>
      </trkpt>
      <trkpt lat="46.33314" lon="-0.47873">
        <ele>61</ele>
        <time>2012-10-25T16:11:51Z</time>
      </trkpt>
      <trkpt lat="46.33318" lon="-0.47874">
        <ele>62</ele>
        <time>2012-10-25T16:11:56Z</time>
      </trkpt>
      <trkpt lat="46.33319" lon="-0.47875">
        <ele>63</ele>
        <time>2012-10-25T16:12:01Z</time>
      </trkpt>
      <trkpt lat="46.33319" lon="-0.47876">
        <ele>63</ele>
        <time>2012-10-25T16:12:06Z</time>
      </trkpt>
      <trkpt lat="46.33333" lon="-0.47881">
        <ele>65</ele>
        <time>2012-10-25T16:12:11Z</time>
      </trkpt>
      <trkpt lat="46.33342" lon="-0.47881">
        <ele>65</ele>
        <time>2012-10-25T16:12:16Z</time>
      </trkpt>
      <trkpt lat="46.33348" lon="-0.47882">
        <ele>63</ele>
        <time>2012-10-25T16:12:21Z</time>
      </trkpt>
      <trkpt lat="46.33353" lon="-0.47884">
        <ele>63</ele>
        <time>2012-10-25T16:12:26Z</time>
      </trkpt>
      <trkpt lat="46.33358" lon="-0.47882">
        <ele>63</ele>
        <time>2012-10-25T16:12:31Z</time>
      </trkpt>
      <trkpt lat="46.33363" lon="-0.47885">
        <ele>63</ele>
        <time>2012-10-25T16:12:36Z</time>
      </trkpt>
      <trkpt lat="46.33366" lon="-0.47883">
        <ele>63</ele>
        <time>2012-10-25T16:12:41Z</time>
      </trkpt>
      <trkpt lat="46.3337" lon="-0.47885">
        <ele>63</ele>
        <time>2012-10-25T16:12:46Z</time>
      </trkpt>
      <trkpt lat="46.33372" lon="-0.47885">
        <ele>64</ele>
        <time>2012-10-25T16:12:51Z</time>
      </trkpt>
      <trkpt lat="46.33378" lon="-0.47886">
        <ele>65</ele>
        <time>2012-10-25T16:12:56Z</time>
      </trkpt>
      <trkpt lat="46.33381" lon="-0.47886">
        <ele>64</ele>
        <time>2012-10-25T16:13:01Z</time>
      </trkpt>
      <trkpt lat="46.33393" lon="-0.47888">
        <ele>61</ele>
        <time>2012-10-25T16:13:06Z</time>
      </trkpt>
      <trkpt lat="46.33402" lon="-0.47889">
        <ele>62</ele>
        <time>2012-10-25T16:13:11Z</time>
      </trkpt>
      <trkpt lat="46.33407" lon="-0.47888">
        <ele>61</ele>
        <time>2012-10-25T16:13:16Z</time>
      </trkpt>
      <trkpt lat="46.33411" lon="-0.47888">
        <ele>61</ele>
        <time>2012-10-25T16:13:21Z</time>
      </trkpt>
      <trkpt lat="46.33416" lon="-0.47889">
        <ele>62</ele>
        <time>2012-10-25T16:13:26Z</time>
      </trkpt>
      <trkpt lat="46.3342" lon="-0.47889">
        <ele>62</ele>
        <time>2012-10-25T16:13:31Z</time>
      </trkpt>
      <trkpt lat="46.33425" lon="-0.4789">
        <ele>62</ele>
        <time>2012-10-25T16:13:36Z</time>
      </trkpt>
      <trkpt lat="46.3343" lon="-0.47876">
        <ele>62</ele>
        <time>2012-10-25T16:13:41Z</time>
      </trkpt>
      <trkpt lat="46.33431" lon="-0.4787">
        <ele>63</ele>
        <time>2012-10-25T16:13:46Z</time>
      </trkpt>
      <trkpt lat="46.33432" lon="-0.47861">
        <ele>63</ele>
        <time>2012-10-25T16:13:51Z</time>
      </trkpt>
      <trkpt lat="46.33432" lon="-0.47854">
        <ele>62</ele>
        <time>2012-10-25T16:13:56Z</time>
      </trkpt>
      <trkpt lat="46.33432" lon="-0.47846">
        <ele>62</ele>
        <time>2012-10-25T16:14:01Z</time>
      </trkpt>
      <trkpt lat="46.33431" lon="-0.47838">
        <ele>60</ele>
        <time>2012-10-25T16:14:06Z</time>
      </trkpt>
      <trkpt lat="46.33432" lon="-0.47835">
        <ele>59</ele>
        <time>2012-10-25T16:14:11Z</time>
      </trkpt>
      <trkpt lat="46.33432" lon="-0.47835">
        <ele>59</ele>
        <time>2012-10-25T16:14:16Z</time>
      </trkpt>
      <trkpt lat="46.33432" lon="-0.47835">
        <ele>60</ele>
        <time>2012-10-25T16:14:31Z</time>
      </trkpt>
      <trkpt lat="46.33432" lon="-0.47836">
        <ele>59</ele>
        <time>2012-10-25T16:14:36Z</time>
      </trkpt>
      <trkpt lat="46.33432" lon="-0.47835">
        <ele>59</ele>
        <time>2012-10-25T16:15:01Z</time>
      </trkpt>
      <trkpt lat="46.33433" lon="-0.47835">
        <ele>59</ele>
        <time>2012-10-25T16:15:06Z</time>
      </trkpt>
      <trkpt lat="46.33433" lon="-0.47836">
        <ele>59</ele>
        <time>2012-10-25T16:15:21Z</time>
      </trkpt>
    </trkseg>
  </trk>
</gpx>